<?xml version="1.0" encoding="UTF-8" standalone="no" ?>
<gpx xmlns="http://www.topografix.com/GPX/1/1" xmlns:xsi="http://www.w3.org/2001/XMLSchema-instance" xsi:schemaLocation="http://www.topografix.com/GPX/1/1 http://www.topografix.com/GPX/1/1/gpx.xsd" version="1.1" creator="VisuGPX - https://www.visugpx.com">
  <metadata>
    <name>Revel-lumbin-revel</name>
    <desc><![CDATA[File with points/tracks from Locus Map/4.2.1]]></desc>
  </metadata>
  <trk>
    <name><![CDATA[2021-07-09 15:40:06]]></name>
    <desc><![CDATA[Lumbin]]></desc>
    <extensions>
      <line xmlns="http://www.topografix.com/GPX/gpx_style/0/2">
        <color>0000FF</color>
        <opacity>0.59</opacity>
        <width>6.0</width>
      </line>
    </extensions>
    <trkseg>
      <trkpt lat="45.18784" lon="5.86503">
        <ele>608.76</ele>
        <time>2021-07-09T13:40:06.000Z</time>
      </trkpt>
      <trkpt lat="45.18808" lon="5.86463">
        <ele>604.08</ele>
        <time>2021-07-09T13:40:11.000Z</time>
      </trkpt>
      <trkpt lat="45.18855" lon="5.86433">
        <ele>599.83</ele>
        <time>2021-07-09T13:40:16.000Z</time>
      </trkpt>
      <trkpt lat="45.1889" lon="5.86375">
        <ele>595.78</ele>
        <time>2021-07-09T13:40:21.000Z</time>
      </trkpt>
      <trkpt lat="45.18912" lon="5.86295">
        <ele>596.17</ele>
        <time>2021-07-09T13:40:26.000Z</time>
      </trkpt>
      <trkpt lat="45.18935" lon="5.86209">
        <ele>595.63</ele>
        <time>2021-07-09T13:40:31.000Z</time>
      </trkpt>
      <trkpt lat="45.18944" lon="5.86116">
        <ele>593.17</ele>
        <time>2021-07-09T13:40:36.000Z</time>
      </trkpt>
      <trkpt lat="45.1896" lon="5.86023">
        <ele>592.1</ele>
        <time>2021-07-09T13:40:41.000Z</time>
      </trkpt>
      <trkpt lat="45.18969" lon="5.85931">
        <ele>586.21</ele>
        <time>2021-07-09T13:40:46.000Z</time>
      </trkpt>
      <trkpt lat="45.18959" lon="5.85842">
        <ele>582.26</ele>
        <time>2021-07-09T13:40:51.000Z</time>
      </trkpt>
      <trkpt lat="45.18955" lon="5.85755">
        <ele>567.79</ele>
        <time>2021-07-09T13:40:56.000Z</time>
      </trkpt>
      <trkpt lat="45.18942" lon="5.85677">
        <ele>560.11</ele>
        <time>2021-07-09T13:41:01.000Z</time>
      </trkpt>
      <trkpt lat="45.18959" lon="5.85607">
        <ele>555.16</ele>
        <time>2021-07-09T13:41:06.000Z</time>
      </trkpt>
      <trkpt lat="45.18993" lon="5.85541">
        <ele>547.38</ele>
        <time>2021-07-09T13:41:11.000Z</time>
      </trkpt>
      <trkpt lat="45.1905" lon="5.85501">
        <ele>540.36</ele>
        <time>2021-07-09T13:41:16.000Z</time>
      </trkpt>
      <trkpt lat="45.19106" lon="5.85465">
        <ele>533.49</ele>
        <time>2021-07-09T13:41:21.000Z</time>
      </trkpt>
      <trkpt lat="45.19153" lon="5.85416">
        <ele>523.32</ele>
        <time>2021-07-09T13:41:26.000Z</time>
      </trkpt>
      <trkpt lat="45.19201" lon="5.85376">
        <ele>521.61</ele>
        <time>2021-07-09T13:41:31.000Z</time>
      </trkpt>
      <trkpt lat="45.19261" lon="5.85356">
        <ele>517.42</ele>
        <time>2021-07-09T13:41:36.000Z</time>
      </trkpt>
      <trkpt lat="45.19317" lon="5.85331">
        <ele>513.5</ele>
        <time>2021-07-09T13:41:41.000Z</time>
      </trkpt>
      <trkpt lat="45.19351" lon="5.85371">
        <ele>510.11</ele>
        <time>2021-07-09T13:41:46.000Z</time>
      </trkpt>
      <trkpt lat="45.19379" lon="5.85365">
        <ele>506.58</ele>
        <time>2021-07-09T13:41:51.000Z</time>
      </trkpt>
      <trkpt lat="45.19376" lon="5.8531">
        <ele>504.49</ele>
        <time>2021-07-09T13:41:56.000Z</time>
      </trkpt>
      <trkpt lat="45.19378" lon="5.85239">
        <ele>502.12</ele>
        <time>2021-07-09T13:42:01.000Z</time>
      </trkpt>
      <trkpt lat="45.1941" lon="5.85177">
        <ele>500.05</ele>
        <time>2021-07-09T13:42:06.000Z</time>
      </trkpt>
      <trkpt lat="45.19469" lon="5.8515">
        <ele>498.69</ele>
        <time>2021-07-09T13:42:11.000Z</time>
      </trkpt>
      <trkpt lat="45.1948" lon="5.85101">
        <ele>496.53</ele>
        <time>2021-07-09T13:42:16.000Z</time>
      </trkpt>
      <trkpt lat="45.1951" lon="5.85033">
        <ele>492.63</ele>
        <time>2021-07-09T13:42:21.000Z</time>
      </trkpt>
      <trkpt lat="45.19567" lon="5.84992">
        <ele>488.5</ele>
        <time>2021-07-09T13:42:26.000Z</time>
      </trkpt>
      <trkpt lat="45.19625" lon="5.84942">
        <ele>482.91</ele>
        <time>2021-07-09T13:42:31.000Z</time>
      </trkpt>
      <trkpt lat="45.19679" lon="5.84877">
        <ele>463.31</ele>
        <time>2021-07-09T13:42:36.000Z</time>
      </trkpt>
      <trkpt lat="45.19741" lon="5.84833">
        <ele>450.58</ele>
        <time>2021-07-09T13:42:41.000Z</time>
      </trkpt>
      <trkpt lat="45.19805" lon="5.84795">
        <ele>444.15</ele>
        <time>2021-07-09T13:42:46.000Z</time>
      </trkpt>
      <trkpt lat="45.19853" lon="5.84784">
        <ele>441.46</ele>
        <time>2021-07-09T13:42:51.000Z</time>
      </trkpt>
      <trkpt lat="45.19884" lon="5.84769">
        <ele>442.29</ele>
        <time>2021-07-09T13:42:56.000Z</time>
      </trkpt>
      <trkpt lat="45.1986" lon="5.84728">
        <ele>439.59</ele>
        <time>2021-07-09T13:43:01.000Z</time>
      </trkpt>
      <trkpt lat="45.19854" lon="5.84695">
        <ele>438.02</ele>
        <time>2021-07-09T13:43:06.000Z</time>
      </trkpt>
      <trkpt lat="45.19863" lon="5.84668">
        <ele>433.77</ele>
        <time>2021-07-09T13:43:11.000Z</time>
      </trkpt>
      <trkpt lat="45.19888" lon="5.84629">
        <ele>430.48</ele>
        <time>2021-07-09T13:43:16.000Z</time>
      </trkpt>
      <trkpt lat="45.19923" lon="5.84588">
        <ele>426.14</ele>
        <time>2021-07-09T13:43:21.000Z</time>
      </trkpt>
      <trkpt lat="45.19948" lon="5.84518">
        <ele>423.1</ele>
        <time>2021-07-09T13:43:26.000Z</time>
      </trkpt>
      <trkpt lat="45.2" lon="5.84483">
        <ele>418.68</ele>
        <time>2021-07-09T13:43:31.000Z</time>
      </trkpt>
      <trkpt lat="45.2006" lon="5.84463">
        <ele>416.69</ele>
        <time>2021-07-09T13:43:36.000Z</time>
      </trkpt>
      <trkpt lat="45.20115" lon="5.84493">
        <ele>413.02</ele>
        <time>2021-07-09T13:43:41.000Z</time>
      </trkpt>
      <trkpt lat="45.20157" lon="5.84588">
        <ele>401.76</ele>
        <time>2021-07-09T13:43:46.000Z</time>
      </trkpt>
      <trkpt lat="45.20198" lon="5.84678">
        <ele>397.58</ele>
        <time>2021-07-09T13:43:51.000Z</time>
      </trkpt>
      <trkpt lat="45.20247" lon="5.8475">
        <ele>389.55</ele>
        <time>2021-07-09T13:43:56.000Z</time>
      </trkpt>
      <trkpt lat="45.20281" lon="5.84838">
        <ele>380.31</ele>
        <time>2021-07-09T13:44:01.000Z</time>
      </trkpt>
      <trkpt lat="45.20321" lon="5.84929">
        <ele>373.54</ele>
        <time>2021-07-09T13:44:06.000Z</time>
      </trkpt>
      <trkpt lat="45.20359" lon="5.85021">
        <ele>365.45</ele>
        <time>2021-07-09T13:44:11.000Z</time>
      </trkpt>
      <trkpt lat="45.20382" lon="5.85099">
        <ele>355.75</ele>
        <time>2021-07-09T13:44:16.000Z</time>
      </trkpt>
      <trkpt lat="45.2041" lon="5.85133">
        <ele>350.65</ele>
        <time>2021-07-09T13:44:21.000Z</time>
      </trkpt>
      <trkpt lat="45.20411" lon="5.85081">
        <ele>350.4</ele>
        <time>2021-07-09T13:44:26.000Z</time>
      </trkpt>
      <trkpt lat="45.20385" lon="5.85022">
        <ele>346.17</ele>
        <time>2021-07-09T13:44:31.000Z</time>
      </trkpt>
      <trkpt lat="45.20359" lon="5.84948">
        <ele>336.21</ele>
        <time>2021-07-09T13:44:36.000Z</time>
      </trkpt>
      <trkpt lat="45.20327" lon="5.8487">
        <ele>325.85</ele>
        <time>2021-07-09T13:44:41.000Z</time>
      </trkpt>
      <trkpt lat="45.20312" lon="5.84769">
        <ele>320.05</ele>
        <time>2021-07-09T13:44:46.000Z</time>
      </trkpt>
      <trkpt lat="45.20291" lon="5.84673">
        <ele>314.68</ele>
        <time>2021-07-09T13:44:51.000Z</time>
      </trkpt>
      <trkpt lat="45.20265" lon="5.84583">
        <ele>306.44</ele>
        <time>2021-07-09T13:44:56.000Z</time>
      </trkpt>
      <trkpt lat="45.20241" lon="5.84488">
        <ele>299.2</ele>
        <time>2021-07-09T13:45:01.000Z</time>
      </trkpt>
      <trkpt lat="45.20218" lon="5.84387">
        <ele>291.23</ele>
        <time>2021-07-09T13:45:06.000Z</time>
      </trkpt>
      <trkpt lat="45.20182" lon="5.84294">
        <ele>284.91</ele>
        <time>2021-07-09T13:45:11.000Z</time>
      </trkpt>
      <trkpt lat="45.20158" lon="5.84213">
        <ele>280.56</ele>
        <time>2021-07-09T13:45:16.000Z</time>
      </trkpt>
      <trkpt lat="45.20102" lon="5.84238">
        <ele>279.28</ele>
        <time>2021-07-09T13:45:21.000Z</time>
      </trkpt>
      <trkpt lat="45.20034" lon="5.84254">
        <ele>274.27</ele>
        <time>2021-07-09T13:45:26.000Z</time>
      </trkpt>
      <trkpt lat="45.19988" lon="5.84254">
        <ele>270.95</ele>
        <time>2021-07-09T13:45:31.000Z</time>
      </trkpt>
      <trkpt lat="45.20021" lon="5.84211">
        <ele>267.95</ele>
        <time>2021-07-09T13:45:36.000Z</time>
      </trkpt>
      <trkpt lat="45.2006" lon="5.84176">
        <ele>262.84</ele>
        <time>2021-07-09T13:45:41.000Z</time>
      </trkpt>
      <trkpt lat="45.20089" lon="5.84131">
        <ele>260.53</ele>
        <time>2021-07-09T13:45:46.000Z</time>
      </trkpt>
      <trkpt lat="45.20108" lon="5.8408">
        <ele>259.85</ele>
        <time>2021-07-09T13:45:51.000Z</time>
      </trkpt>
      <trkpt lat="45.20128" lon="5.8405">
        <ele>259.49</ele>
        <time>2021-07-09T13:45:56.000Z</time>
      </trkpt>
      <trkpt lat="45.20143" lon="5.84022">
        <ele>256.6</ele>
        <time>2021-07-09T13:46:01.000Z</time>
      </trkpt>
      <trkpt lat="45.2015" lon="5.84001">
        <ele>254.64</ele>
        <time>2021-07-09T13:46:06.000Z</time>
      </trkpt>
      <trkpt lat="45.20153" lon="5.83988">
        <ele>253.45</ele>
        <time>2021-07-09T13:46:11.000Z</time>
      </trkpt>
      <trkpt lat="45.20157" lon="5.83975">
        <ele>250.39</ele>
        <time>2021-07-09T13:46:17.000Z</time>
      </trkpt>
      <trkpt lat="45.20157" lon="5.83959">
        <ele>252.74</ele>
        <time>2021-07-09T13:46:22.000Z</time>
      </trkpt>
      <trkpt lat="45.20157" lon="5.83944">
        <ele>253.35</ele>
        <time>2021-07-09T13:46:27.000Z</time>
      </trkpt>
      <trkpt lat="45.20155" lon="5.83926">
        <ele>253.31</ele>
        <time>2021-07-09T13:46:32.000Z</time>
      </trkpt>
      <trkpt lat="45.20153" lon="5.83903">
        <ele>254.32</ele>
        <time>2021-07-09T13:46:37.000Z</time>
      </trkpt>
      <trkpt lat="45.20151" lon="5.83873">
        <ele>256.53</ele>
        <time>2021-07-09T13:46:42.000Z</time>
      </trkpt>
      <trkpt lat="45.20153" lon="5.83847">
        <ele>252.6</ele>
        <time>2021-07-09T13:46:47.000Z</time>
      </trkpt>
      <trkpt lat="45.20164" lon="5.83839">
        <ele>254.43</ele>
        <time>2021-07-09T13:46:52.000Z</time>
      </trkpt>
      <trkpt lat="45.20174" lon="5.83835">
        <ele>251.02</ele>
        <time>2021-07-09T13:46:57.000Z</time>
      </trkpt>
      <trkpt lat="45.20186" lon="5.83831">
        <ele>250.5</ele>
        <time>2021-07-09T13:47:02.000Z</time>
      </trkpt>
      <trkpt lat="45.20199" lon="5.83827">
        <ele>248.59</ele>
        <time>2021-07-09T13:47:07.000Z</time>
      </trkpt>
      <trkpt lat="45.20208" lon="5.83827">
        <ele>246.66</ele>
        <time>2021-07-09T13:47:15.000Z</time>
      </trkpt>
      <trkpt lat="45.20219" lon="5.83824">
        <ele>244.68</ele>
        <time>2021-07-09T13:47:20.000Z</time>
      </trkpt>
      <trkpt lat="45.20234" lon="5.83816">
        <ele>244.74</ele>
        <time>2021-07-09T13:47:25.000Z</time>
      </trkpt>
      <trkpt lat="45.20258" lon="5.83803">
        <ele>245.52</ele>
        <time>2021-07-09T13:47:30.000Z</time>
      </trkpt>
      <trkpt lat="45.20283" lon="5.83781">
        <ele>245.48</ele>
        <time>2021-07-09T13:47:35.000Z</time>
      </trkpt>
      <trkpt lat="45.20308" lon="5.83759">
        <ele>244.63</ele>
        <time>2021-07-09T13:47:40.000Z</time>
      </trkpt>
      <trkpt lat="45.20335" lon="5.83735">
        <ele>240.79</ele>
        <time>2021-07-09T13:47:45.000Z</time>
      </trkpt>
      <trkpt lat="45.20362" lon="5.83709">
        <ele>238.43</ele>
        <time>2021-07-09T13:47:50.000Z</time>
      </trkpt>
      <trkpt lat="45.2039" lon="5.83682">
        <ele>238.03</ele>
        <time>2021-07-09T13:47:55.000Z</time>
      </trkpt>
      <trkpt lat="45.2042" lon="5.83652">
        <ele>236.49</ele>
        <time>2021-07-09T13:48:00.000Z</time>
      </trkpt>
      <trkpt lat="45.20449" lon="5.83623">
        <ele>233.27</ele>
        <time>2021-07-09T13:48:05.000Z</time>
      </trkpt>
      <trkpt lat="45.20479" lon="5.83598">
        <ele>232.98</ele>
        <time>2021-07-09T13:48:10.000Z</time>
      </trkpt>
      <trkpt lat="45.20494" lon="5.83585">
        <ele>232.19</ele>
        <time>2021-07-09T13:48:15.000Z</time>
      </trkpt>
      <trkpt lat="45.20506" lon="5.83576">
        <ele>231.08</ele>
        <time>2021-07-09T13:48:20.000Z</time>
      </trkpt>
      <trkpt lat="45.20525" lon="5.83561">
        <ele>231.63</ele>
        <time>2021-07-09T13:48:25.000Z</time>
      </trkpt>
      <trkpt lat="45.20548" lon="5.83539">
        <ele>232.94</ele>
        <time>2021-07-09T13:48:30.000Z</time>
      </trkpt>
      <trkpt lat="45.20575" lon="5.83518">
        <ele>233.42</ele>
        <time>2021-07-09T13:48:35.000Z</time>
      </trkpt>
      <trkpt lat="45.20604" lon="5.83495">
        <ele>231.64</ele>
        <time>2021-07-09T13:48:40.000Z</time>
      </trkpt>
      <trkpt lat="45.20632" lon="5.83475">
        <ele>229.59</ele>
        <time>2021-07-09T13:48:45.000Z</time>
      </trkpt>
      <trkpt lat="45.20663" lon="5.83454">
        <ele>228.22</ele>
        <time>2021-07-09T13:48:50.000Z</time>
      </trkpt>
      <trkpt lat="45.20694" lon="5.83425">
        <ele>224.25</ele>
        <time>2021-07-09T13:48:55.000Z</time>
      </trkpt>
      <trkpt lat="45.20724" lon="5.83404">
        <ele>222.41</ele>
        <time>2021-07-09T13:49:00.000Z</time>
      </trkpt>
      <trkpt lat="45.20756" lon="5.83379">
        <ele>220.2</ele>
        <time>2021-07-09T13:49:05.000Z</time>
      </trkpt>
      <trkpt lat="45.20786" lon="5.83354">
        <ele>221.23</ele>
        <time>2021-07-09T13:49:10.000Z</time>
      </trkpt>
      <trkpt lat="45.20816" lon="5.83328">
        <ele>220.26</ele>
        <time>2021-07-09T13:49:15.000Z</time>
      </trkpt>
      <trkpt lat="45.20845" lon="5.83309">
        <ele>220.52</ele>
        <time>2021-07-09T13:49:20.000Z</time>
      </trkpt>
      <trkpt lat="45.20872" lon="5.83288">
        <ele>219.44</ele>
        <time>2021-07-09T13:49:25.000Z</time>
      </trkpt>
      <trkpt lat="45.20898" lon="5.83268">
        <ele>219.27</ele>
        <time>2021-07-09T13:49:30.000Z</time>
      </trkpt>
      <trkpt lat="45.20923" lon="5.83248">
        <ele>220.02</ele>
        <time>2021-07-09T13:49:35.000Z</time>
      </trkpt>
      <trkpt lat="45.20952" lon="5.83233">
        <ele>220.95</ele>
        <time>2021-07-09T13:49:40.000Z</time>
      </trkpt>
      <trkpt lat="45.20979" lon="5.8323">
        <ele>221.31</ele>
        <time>2021-07-09T13:49:45.000Z</time>
      </trkpt>
      <trkpt lat="45.21006" lon="5.83238">
        <ele>222.31</ele>
        <time>2021-07-09T13:49:50.000Z</time>
      </trkpt>
      <trkpt lat="45.21028" lon="5.83257">
        <ele>221.92</ele>
        <time>2021-07-09T13:49:55.000Z</time>
      </trkpt>
      <trkpt lat="45.21053" lon="5.8325">
        <ele>221.84</ele>
        <time>2021-07-09T13:50:00.000Z</time>
      </trkpt>
      <trkpt lat="45.21068" lon="5.83218">
        <ele>225.05</ele>
        <time>2021-07-09T13:50:05.000Z</time>
      </trkpt>
      <trkpt lat="45.21083" lon="5.83186">
        <ele>224.86</ele>
        <time>2021-07-09T13:50:10.000Z</time>
      </trkpt>
      <trkpt lat="45.21099" lon="5.83159">
        <ele>221.56</ele>
        <time>2021-07-09T13:50:15.000Z</time>
      </trkpt>
      <trkpt lat="45.21115" lon="5.83131">
        <ele>223.88</ele>
        <time>2021-07-09T13:50:20.000Z</time>
      </trkpt>
      <trkpt lat="45.21134" lon="5.83093">
        <ele>225.83</ele>
        <time>2021-07-09T13:50:25.000Z</time>
      </trkpt>
      <trkpt lat="45.2115" lon="5.83059">
        <ele>225.44</ele>
        <time>2021-07-09T13:50:30.000Z</time>
      </trkpt>
      <trkpt lat="45.21165" lon="5.83025">
        <ele>221.9</ele>
        <time>2021-07-09T13:50:35.000Z</time>
      </trkpt>
      <trkpt lat="45.21182" lon="5.8299">
        <ele>223.96</ele>
        <time>2021-07-09T13:50:40.000Z</time>
      </trkpt>
      <trkpt lat="45.21202" lon="5.82956">
        <ele>224.32</ele>
        <time>2021-07-09T13:50:45.000Z</time>
      </trkpt>
      <trkpt lat="45.21224" lon="5.82918">
        <ele>225.84</ele>
        <time>2021-07-09T13:50:50.000Z</time>
      </trkpt>
      <trkpt lat="45.21243" lon="5.8288">
        <ele>225.13</ele>
        <time>2021-07-09T13:50:55.000Z</time>
      </trkpt>
      <trkpt lat="45.21262" lon="5.82842">
        <ele>226.37</ele>
        <time>2021-07-09T13:51:00.000Z</time>
      </trkpt>
      <trkpt lat="45.21282" lon="5.82806">
        <ele>223.36</ele>
        <time>2021-07-09T13:51:05.000Z</time>
      </trkpt>
      <trkpt lat="45.21305" lon="5.82763">
        <ele>224.42</ele>
        <time>2021-07-09T13:51:10.000Z</time>
      </trkpt>
      <trkpt lat="45.21334" lon="5.82728">
        <ele>222.21</ele>
        <time>2021-07-09T13:51:15.000Z</time>
      </trkpt>
      <trkpt lat="45.21364" lon="5.82706">
        <ele>221.3</ele>
        <time>2021-07-09T13:51:20.000Z</time>
      </trkpt>
      <trkpt lat="45.21391" lon="5.82672">
        <ele>219.04</ele>
        <time>2021-07-09T13:51:25.000Z</time>
      </trkpt>
      <trkpt lat="45.21412" lon="5.82644">
        <ele>220.1</ele>
        <time>2021-07-09T13:51:30.000Z</time>
      </trkpt>
      <trkpt lat="45.21441" lon="5.8262">
        <ele>218.18</ele>
        <time>2021-07-09T13:51:35.000Z</time>
      </trkpt>
      <trkpt lat="45.21473" lon="5.82597">
        <ele>215.38</ele>
        <time>2021-07-09T13:51:40.000Z</time>
      </trkpt>
      <trkpt lat="45.21502" lon="5.82574">
        <ele>213.85</ele>
        <time>2021-07-09T13:51:45.000Z</time>
      </trkpt>
      <trkpt lat="45.2153" lon="5.82555">
        <ele>216.47</ele>
        <time>2021-07-09T13:51:50.000Z</time>
      </trkpt>
      <trkpt lat="45.21559" lon="5.82532">
        <ele>217.31</ele>
        <time>2021-07-09T13:51:55.000Z</time>
      </trkpt>
      <trkpt lat="45.21587" lon="5.82512">
        <ele>219.37</ele>
        <time>2021-07-09T13:52:00.000Z</time>
      </trkpt>
      <trkpt lat="45.21614" lon="5.82494">
        <ele>219.23</ele>
        <time>2021-07-09T13:52:05.000Z</time>
      </trkpt>
      <trkpt lat="45.21645" lon="5.82474">
        <ele>219.46</ele>
        <time>2021-07-09T13:52:10.000Z</time>
      </trkpt>
      <trkpt lat="45.21675" lon="5.8245">
        <ele>218.28</ele>
        <time>2021-07-09T13:52:15.000Z</time>
      </trkpt>
      <trkpt lat="45.21708" lon="5.82433">
        <ele>217.68</ele>
        <time>2021-07-09T13:52:20.000Z</time>
      </trkpt>
      <trkpt lat="45.21736" lon="5.82412">
        <ele>218.1</ele>
        <time>2021-07-09T13:52:25.000Z</time>
      </trkpt>
      <trkpt lat="45.21763" lon="5.82386">
        <ele>220.82</ele>
        <time>2021-07-09T13:52:30.000Z</time>
      </trkpt>
      <trkpt lat="45.21785" lon="5.82375">
        <ele>222.14</ele>
        <time>2021-07-09T13:52:35.000Z</time>
      </trkpt>
      <trkpt lat="45.21808" lon="5.82369">
        <ele>222.1</ele>
        <time>2021-07-09T13:52:40.000Z</time>
      </trkpt>
      <trkpt lat="45.21823" lon="5.82373">
        <ele>222.52</ele>
        <time>2021-07-09T13:52:45.000Z</time>
      </trkpt>
      <trkpt lat="45.21834" lon="5.82408">
        <ele>222.25</ele>
        <time>2021-07-09T13:52:50.000Z</time>
      </trkpt>
      <trkpt lat="45.21849" lon="5.82448">
        <ele>226.27</ele>
        <time>2021-07-09T13:52:55.000Z</time>
      </trkpt>
      <trkpt lat="45.21857" lon="5.82488">
        <ele>223.04</ele>
        <time>2021-07-09T13:53:00.000Z</time>
      </trkpt>
      <trkpt lat="45.21845" lon="5.82528">
        <ele>222.32</ele>
        <time>2021-07-09T13:53:05.000Z</time>
      </trkpt>
      <trkpt lat="45.21869" lon="5.82559">
        <ele>222.96</ele>
        <time>2021-07-09T13:53:10.000Z</time>
      </trkpt>
      <trkpt lat="45.21899" lon="5.82582">
        <ele>224.8</ele>
        <time>2021-07-09T13:53:15.000Z</time>
      </trkpt>
      <trkpt lat="45.21922" lon="5.82606">
        <ele>220.96</ele>
        <time>2021-07-09T13:53:20.000Z</time>
      </trkpt>
      <trkpt lat="45.21946" lon="5.82634">
        <ele>221.54</ele>
        <time>2021-07-09T13:53:25.000Z</time>
      </trkpt>
      <trkpt lat="45.21974" lon="5.82663">
        <ele>218.56</ele>
        <time>2021-07-09T13:53:30.000Z</time>
      </trkpt>
      <trkpt lat="45.21997" lon="5.82688">
        <ele>219.59</ele>
        <time>2021-07-09T13:53:35.000Z</time>
      </trkpt>
      <trkpt lat="45.22019" lon="5.82706">
        <ele>219.01</ele>
        <time>2021-07-09T13:53:40.000Z</time>
      </trkpt>
      <trkpt lat="45.22045" lon="5.82695">
        <ele>220.22</ele>
        <time>2021-07-09T13:53:45.000Z</time>
      </trkpt>
      <trkpt lat="45.22072" lon="5.82678">
        <ele>220.56</ele>
        <time>2021-07-09T13:53:50.000Z</time>
      </trkpt>
      <trkpt lat="45.22096" lon="5.82659">
        <ele>218.98</ele>
        <time>2021-07-09T13:53:55.000Z</time>
      </trkpt>
      <trkpt lat="45.22115" lon="5.82644">
        <ele>219.07</ele>
        <time>2021-07-09T13:54:00.000Z</time>
      </trkpt>
      <trkpt lat="45.22125" lon="5.82625">
        <ele>220.73</ele>
        <time>2021-07-09T13:54:05.000Z</time>
      </trkpt>
      <trkpt lat="45.22124" lon="5.82611">
        <ele>222.38</ele>
        <time>2021-07-09T13:54:10.000Z</time>
      </trkpt>
      <trkpt lat="45.22126" lon="5.82599">
        <ele>229.78</ele>
        <time>2021-07-09T13:54:26.000Z</time>
      </trkpt>
      <trkpt lat="45.22133" lon="5.82612">
        <ele>230.2</ele>
        <time>2021-07-09T14:06:18.000Z</time>
      </trkpt>
      <trkpt lat="45.22142" lon="5.82624">
        <ele>228.01</ele>
        <time>2021-07-09T14:06:23.000Z</time>
      </trkpt>
      <trkpt lat="45.22155" lon="5.82617">
        <ele>226.7</ele>
        <time>2021-07-09T14:06:28.000Z</time>
      </trkpt>
      <trkpt lat="45.22169" lon="5.8261">
        <ele>223.99</ele>
        <time>2021-07-09T14:06:33.000Z</time>
      </trkpt>
      <trkpt lat="45.22184" lon="5.82603">
        <ele>218.9</ele>
        <time>2021-07-09T14:06:38.000Z</time>
      </trkpt>
      <trkpt lat="45.22201" lon="5.82594">
        <ele>217.41</ele>
        <time>2021-07-09T14:06:43.000Z</time>
      </trkpt>
      <trkpt lat="45.22218" lon="5.82583">
        <ele>218.12</ele>
        <time>2021-07-09T14:06:48.000Z</time>
      </trkpt>
      <trkpt lat="45.22235" lon="5.82571">
        <ele>220.06</ele>
        <time>2021-07-09T14:06:53.000Z</time>
      </trkpt>
      <trkpt lat="45.22251" lon="5.82559">
        <ele>221.04</ele>
        <time>2021-07-09T14:06:58.000Z</time>
      </trkpt>
      <trkpt lat="45.22268" lon="5.82548">
        <ele>221.03</ele>
        <time>2021-07-09T14:07:03.000Z</time>
      </trkpt>
      <trkpt lat="45.22286" lon="5.82536">
        <ele>221.21</ele>
        <time>2021-07-09T14:07:08.000Z</time>
      </trkpt>
      <trkpt lat="45.22303" lon="5.82522">
        <ele>219.54</ele>
        <time>2021-07-09T14:07:13.000Z</time>
      </trkpt>
      <trkpt lat="45.2232" lon="5.82511">
        <ele>221.86</ele>
        <time>2021-07-09T14:07:18.000Z</time>
      </trkpt>
      <trkpt lat="45.22337" lon="5.82498">
        <ele>222.32</ele>
        <time>2021-07-09T14:07:23.000Z</time>
      </trkpt>
      <trkpt lat="45.22355" lon="5.82485">
        <ele>223.16</ele>
        <time>2021-07-09T14:07:28.000Z</time>
      </trkpt>
      <trkpt lat="45.22372" lon="5.82474">
        <ele>221.43</ele>
        <time>2021-07-09T14:07:33.000Z</time>
      </trkpt>
      <trkpt lat="45.2239" lon="5.8246">
        <ele>222.64</ele>
        <time>2021-07-09T14:07:38.000Z</time>
      </trkpt>
      <trkpt lat="45.22409" lon="5.82445">
        <ele>219.94</ele>
        <time>2021-07-09T14:07:43.000Z</time>
      </trkpt>
      <trkpt lat="45.22427" lon="5.82432">
        <ele>218.91</ele>
        <time>2021-07-09T14:07:48.000Z</time>
      </trkpt>
      <trkpt lat="45.22446" lon="5.82423">
        <ele>219.65</ele>
        <time>2021-07-09T14:07:53.000Z</time>
      </trkpt>
      <trkpt lat="45.22464" lon="5.82434">
        <ele>221.16</ele>
        <time>2021-07-09T14:07:58.000Z</time>
      </trkpt>
      <trkpt lat="45.22479" lon="5.82453">
        <ele>219.73</ele>
        <time>2021-07-09T14:08:03.000Z</time>
      </trkpt>
      <trkpt lat="45.22494" lon="5.8247">
        <ele>220.34</ele>
        <time>2021-07-09T14:08:08.000Z</time>
      </trkpt>
      <trkpt lat="45.22509" lon="5.82488">
        <ele>219.8</ele>
        <time>2021-07-09T14:08:13.000Z</time>
      </trkpt>
      <trkpt lat="45.22527" lon="5.82504">
        <ele>220.56</ele>
        <time>2021-07-09T14:08:18.000Z</time>
      </trkpt>
      <trkpt lat="45.22543" lon="5.82522">
        <ele>218.86</ele>
        <time>2021-07-09T14:08:23.000Z</time>
      </trkpt>
      <trkpt lat="45.22558" lon="5.82538">
        <ele>218.25</ele>
        <time>2021-07-09T14:08:28.000Z</time>
      </trkpt>
      <trkpt lat="45.22576" lon="5.82564">
        <ele>218.89</ele>
        <time>2021-07-09T14:08:33.000Z</time>
      </trkpt>
      <trkpt lat="45.22594" lon="5.82595">
        <ele>217.4</ele>
        <time>2021-07-09T14:08:38.000Z</time>
      </trkpt>
      <trkpt lat="45.22608" lon="5.82622">
        <ele>214.94</ele>
        <time>2021-07-09T14:08:43.000Z</time>
      </trkpt>
      <trkpt lat="45.22621" lon="5.82649">
        <ele>214.98</ele>
        <time>2021-07-09T14:08:48.000Z</time>
      </trkpt>
      <trkpt lat="45.22638" lon="5.82678">
        <ele>216.38</ele>
        <time>2021-07-09T14:08:53.000Z</time>
      </trkpt>
      <trkpt lat="45.22656" lon="5.82711">
        <ele>216.56</ele>
        <time>2021-07-09T14:08:58.000Z</time>
      </trkpt>
      <trkpt lat="45.22675" lon="5.8274">
        <ele>215.9</ele>
        <time>2021-07-09T14:09:03.000Z</time>
      </trkpt>
      <trkpt lat="45.22697" lon="5.82774">
        <ele>219.49</ele>
        <time>2021-07-09T14:09:08.000Z</time>
      </trkpt>
      <trkpt lat="45.22716" lon="5.82808">
        <ele>217.12</ele>
        <time>2021-07-09T14:09:13.000Z</time>
      </trkpt>
      <trkpt lat="45.22738" lon="5.82841">
        <ele>217.87</ele>
        <time>2021-07-09T14:09:18.000Z</time>
      </trkpt>
      <trkpt lat="45.22759" lon="5.82877">
        <ele>220.51</ele>
        <time>2021-07-09T14:09:23.000Z</time>
      </trkpt>
      <trkpt lat="45.22776" lon="5.82912">
        <ele>220.23</ele>
        <time>2021-07-09T14:09:28.000Z</time>
      </trkpt>
      <trkpt lat="45.22798" lon="5.82947">
        <ele>218.65</ele>
        <time>2021-07-09T14:09:33.000Z</time>
      </trkpt>
      <trkpt lat="45.22819" lon="5.82984">
        <ele>218.04</ele>
        <time>2021-07-09T14:09:38.000Z</time>
      </trkpt>
      <trkpt lat="45.22841" lon="5.83024">
        <ele>218.16</ele>
        <time>2021-07-09T14:09:43.000Z</time>
      </trkpt>
      <trkpt lat="45.22858" lon="5.83061">
        <ele>220.8</ele>
        <time>2021-07-09T14:09:48.000Z</time>
      </trkpt>
      <trkpt lat="45.22875" lon="5.83088">
        <ele>221.22</ele>
        <time>2021-07-09T14:09:53.000Z</time>
      </trkpt>
      <trkpt lat="45.22891" lon="5.83082">
        <ele>225.66</ele>
        <time>2021-07-09T14:09:58.000Z</time>
      </trkpt>
      <trkpt lat="45.22907" lon="5.83071">
        <ele>226.74</ele>
        <time>2021-07-09T14:10:03.000Z</time>
      </trkpt>
      <trkpt lat="45.2293" lon="5.83053">
        <ele>224.6</ele>
        <time>2021-07-09T14:10:08.000Z</time>
      </trkpt>
      <trkpt lat="45.22947" lon="5.8303">
        <ele>224.98</ele>
        <time>2021-07-09T14:10:13.000Z</time>
      </trkpt>
      <trkpt lat="45.22964" lon="5.83014">
        <ele>228.72</ele>
        <time>2021-07-09T14:10:18.000Z</time>
      </trkpt>
      <trkpt lat="45.22979" lon="5.82987">
        <ele>227.82</ele>
        <time>2021-07-09T14:10:23.000Z</time>
      </trkpt>
      <trkpt lat="45.22995" lon="5.8296">
        <ele>228.47</ele>
        <time>2021-07-09T14:10:28.000Z</time>
      </trkpt>
      <trkpt lat="45.2301" lon="5.82939">
        <ele>230.82</ele>
        <time>2021-07-09T14:10:33.000Z</time>
      </trkpt>
      <trkpt lat="45.23025" lon="5.82915">
        <ele>235.92</ele>
        <time>2021-07-09T14:10:38.000Z</time>
      </trkpt>
      <trkpt lat="45.23042" lon="5.8289">
        <ele>237.87</ele>
        <time>2021-07-09T14:10:43.000Z</time>
      </trkpt>
      <trkpt lat="45.23055" lon="5.82868">
        <ele>240.06</ele>
        <time>2021-07-09T14:10:48.000Z</time>
      </trkpt>
      <trkpt lat="45.23068" lon="5.82838">
        <ele>240.02</ele>
        <time>2021-07-09T14:10:53.000Z</time>
      </trkpt>
      <trkpt lat="45.23077" lon="5.82807">
        <ele>242.28</ele>
        <time>2021-07-09T14:10:58.000Z</time>
      </trkpt>
      <trkpt lat="45.23085" lon="5.82773">
        <ele>241.38</ele>
        <time>2021-07-09T14:11:03.000Z</time>
      </trkpt>
      <trkpt lat="45.23089" lon="5.82739">
        <ele>246.12</ele>
        <time>2021-07-09T14:11:08.000Z</time>
      </trkpt>
      <trkpt lat="45.23088" lon="5.82708">
        <ele>246.61</ele>
        <time>2021-07-09T14:11:13.000Z</time>
      </trkpt>
      <trkpt lat="45.231" lon="5.82681">
        <ele>245.77</ele>
        <time>2021-07-09T14:11:18.000Z</time>
      </trkpt>
      <trkpt lat="45.23115" lon="5.82661">
        <ele>249.51</ele>
        <time>2021-07-09T14:11:23.000Z</time>
      </trkpt>
      <trkpt lat="45.23133" lon="5.82634">
        <ele>246.25</ele>
        <time>2021-07-09T14:11:28.000Z</time>
      </trkpt>
      <trkpt lat="45.2315" lon="5.82615">
        <ele>248.87</ele>
        <time>2021-07-09T14:11:33.000Z</time>
      </trkpt>
      <trkpt lat="45.23167" lon="5.82597">
        <ele>248.09</ele>
        <time>2021-07-09T14:11:38.000Z</time>
      </trkpt>
      <trkpt lat="45.23189" lon="5.8259">
        <ele>250.56</ele>
        <time>2021-07-09T14:11:43.000Z</time>
      </trkpt>
      <trkpt lat="45.23209" lon="5.82592">
        <ele>250.79</ele>
        <time>2021-07-09T14:11:48.000Z</time>
      </trkpt>
      <trkpt lat="45.23228" lon="5.82587">
        <ele>250.74</ele>
        <time>2021-07-09T14:11:53.000Z</time>
      </trkpt>
      <trkpt lat="45.23251" lon="5.82568">
        <ele>253.43</ele>
        <time>2021-07-09T14:11:58.000Z</time>
      </trkpt>
      <trkpt lat="45.23269" lon="5.8254">
        <ele>252.92</ele>
        <time>2021-07-09T14:12:03.000Z</time>
      </trkpt>
      <trkpt lat="45.23284" lon="5.82512">
        <ele>253.01</ele>
        <time>2021-07-09T14:12:08.000Z</time>
      </trkpt>
      <trkpt lat="45.233" lon="5.82488">
        <ele>253.84</ele>
        <time>2021-07-09T14:12:13.000Z</time>
      </trkpt>
      <trkpt lat="45.23315" lon="5.82465">
        <ele>252.98</ele>
        <time>2021-07-09T14:12:18.000Z</time>
      </trkpt>
      <trkpt lat="45.2333" lon="5.82439">
        <ele>253.63</ele>
        <time>2021-07-09T14:12:23.000Z</time>
      </trkpt>
      <trkpt lat="45.2334" lon="5.82449">
        <ele>255.74</ele>
        <time>2021-07-09T14:13:28.000Z</time>
      </trkpt>
      <trkpt lat="45.23364" lon="5.82481">
        <ele>259.91</ele>
        <time>2021-07-09T14:13:33.000Z</time>
      </trkpt>
      <trkpt lat="45.23393" lon="5.82519">
        <ele>261.6</ele>
        <time>2021-07-09T14:13:38.000Z</time>
      </trkpt>
      <trkpt lat="45.23397" lon="5.82548">
        <ele>264.22</ele>
        <time>2021-07-09T14:13:43.000Z</time>
      </trkpt>
      <trkpt lat="45.23419" lon="5.8257">
        <ele>263.5</ele>
        <time>2021-07-09T14:13:48.000Z</time>
      </trkpt>
      <trkpt lat="45.23434" lon="5.82604">
        <ele>266.85</ele>
        <time>2021-07-09T14:13:53.000Z</time>
      </trkpt>
      <trkpt lat="45.23452" lon="5.82639">
        <ele>270.4</ele>
        <time>2021-07-09T14:13:58.000Z</time>
      </trkpt>
      <trkpt lat="45.23469" lon="5.82668">
        <ele>271.66</ele>
        <time>2021-07-09T14:14:03.000Z</time>
      </trkpt>
      <trkpt lat="45.23486" lon="5.82699">
        <ele>274.4</ele>
        <time>2021-07-09T14:14:08.000Z</time>
      </trkpt>
      <trkpt lat="45.23503" lon="5.82732">
        <ele>275.86</ele>
        <time>2021-07-09T14:14:13.000Z</time>
      </trkpt>
      <trkpt lat="45.23515" lon="5.82769">
        <ele>276.15</ele>
        <time>2021-07-09T14:14:18.000Z</time>
      </trkpt>
      <trkpt lat="45.23532" lon="5.82804">
        <ele>274.57</ele>
        <time>2021-07-09T14:14:23.000Z</time>
      </trkpt>
      <trkpt lat="45.23547" lon="5.82837">
        <ele>276.37</ele>
        <time>2021-07-09T14:14:28.000Z</time>
      </trkpt>
      <trkpt lat="45.23567" lon="5.82878">
        <ele>275.08</ele>
        <time>2021-07-09T14:14:33.000Z</time>
      </trkpt>
      <trkpt lat="45.2358" lon="5.82911">
        <ele>272.37</ele>
        <time>2021-07-09T14:14:38.000Z</time>
      </trkpt>
      <trkpt lat="45.23602" lon="5.8295">
        <ele>274.48</ele>
        <time>2021-07-09T14:14:43.000Z</time>
      </trkpt>
      <trkpt lat="45.23619" lon="5.82979">
        <ele>274.35</ele>
        <time>2021-07-09T14:14:48.000Z</time>
      </trkpt>
      <trkpt lat="45.23639" lon="5.83015">
        <ele>275.25</ele>
        <time>2021-07-09T14:14:53.000Z</time>
      </trkpt>
      <trkpt lat="45.23663" lon="5.83058">
        <ele>275.61</ele>
        <time>2021-07-09T14:14:58.000Z</time>
      </trkpt>
      <trkpt lat="45.23681" lon="5.83093">
        <ele>275.86</ele>
        <time>2021-07-09T14:15:03.000Z</time>
      </trkpt>
      <trkpt lat="45.23703" lon="5.83127">
        <ele>278.03</ele>
        <time>2021-07-09T14:15:08.000Z</time>
      </trkpt>
      <trkpt lat="45.23718" lon="5.83163">
        <ele>278.28</ele>
        <time>2021-07-09T14:15:13.000Z</time>
      </trkpt>
      <trkpt lat="45.23736" lon="5.83195">
        <ele>279.35</ele>
        <time>2021-07-09T14:15:18.000Z</time>
      </trkpt>
      <trkpt lat="45.23759" lon="5.83225">
        <ele>274.94</ele>
        <time>2021-07-09T14:15:23.000Z</time>
      </trkpt>
      <trkpt lat="45.23778" lon="5.83247">
        <ele>276.74</ele>
        <time>2021-07-09T14:15:28.000Z</time>
      </trkpt>
      <trkpt lat="45.23798" lon="5.83273">
        <ele>276.29</ele>
        <time>2021-07-09T14:15:33.000Z</time>
      </trkpt>
      <trkpt lat="45.23791" lon="5.83286">
        <ele>280.4</ele>
        <time>2021-07-09T14:15:38.000Z</time>
      </trkpt>
      <trkpt lat="45.238" lon="5.83311">
        <ele>277.26</ele>
        <time>2021-07-09T14:15:43.000Z</time>
      </trkpt>
      <trkpt lat="45.23811" lon="5.83312">
        <ele>276.62</ele>
        <time>2021-07-09T14:15:48.000Z</time>
      </trkpt>
      <trkpt lat="45.23813" lon="5.83328">
        <ele>274.92</ele>
        <time>2021-07-09T14:16:19.000Z</time>
      </trkpt>
      <trkpt lat="45.2382" lon="5.83357">
        <ele>271.6</ele>
        <time>2021-07-09T14:16:24.000Z</time>
      </trkpt>
      <trkpt lat="45.23835" lon="5.83388">
        <ele>271.52</ele>
        <time>2021-07-09T14:16:29.000Z</time>
      </trkpt>
      <trkpt lat="45.23849" lon="5.83414">
        <ele>270.45</ele>
        <time>2021-07-09T14:16:34.000Z</time>
      </trkpt>
      <trkpt lat="45.23863" lon="5.83444">
        <ele>270.51</ele>
        <time>2021-07-09T14:16:39.000Z</time>
      </trkpt>
      <trkpt lat="45.2388" lon="5.83468">
        <ele>268.5</ele>
        <time>2021-07-09T14:16:44.000Z</time>
      </trkpt>
      <trkpt lat="45.23897" lon="5.83493">
        <ele>270.08</ele>
        <time>2021-07-09T14:16:49.000Z</time>
      </trkpt>
      <trkpt lat="45.23914" lon="5.83521">
        <ele>268.82</ele>
        <time>2021-07-09T14:16:54.000Z</time>
      </trkpt>
      <trkpt lat="45.23927" lon="5.83544">
        <ele>269.54</ele>
        <time>2021-07-09T14:16:59.000Z</time>
      </trkpt>
      <trkpt lat="45.23939" lon="5.83572">
        <ele>267.82</ele>
        <time>2021-07-09T14:17:04.000Z</time>
      </trkpt>
      <trkpt lat="45.23954" lon="5.83607">
        <ele>266.69</ele>
        <time>2021-07-09T14:17:09.000Z</time>
      </trkpt>
      <trkpt lat="45.23969" lon="5.83631">
        <ele>267.28</ele>
        <time>2021-07-09T14:17:14.000Z</time>
      </trkpt>
      <trkpt lat="45.23982" lon="5.83651">
        <ele>266.07</ele>
        <time>2021-07-09T14:17:19.000Z</time>
      </trkpt>
      <trkpt lat="45.23998" lon="5.83675">
        <ele>266.53</ele>
        <time>2021-07-09T14:17:24.000Z</time>
      </trkpt>
      <trkpt lat="45.24011" lon="5.83702">
        <ele>268.34</ele>
        <time>2021-07-09T14:17:29.000Z</time>
      </trkpt>
      <trkpt lat="45.24022" lon="5.83725">
        <ele>270.16</ele>
        <time>2021-07-09T14:17:34.000Z</time>
      </trkpt>
      <trkpt lat="45.24042" lon="5.83754">
        <ele>268.59</ele>
        <time>2021-07-09T14:17:39.000Z</time>
      </trkpt>
      <trkpt lat="45.24056" lon="5.83782">
        <ele>266.04</ele>
        <time>2021-07-09T14:17:44.000Z</time>
      </trkpt>
      <trkpt lat="45.24068" lon="5.83811">
        <ele>267.09</ele>
        <time>2021-07-09T14:17:49.000Z</time>
      </trkpt>
      <trkpt lat="45.24081" lon="5.83842">
        <ele>269.92</ele>
        <time>2021-07-09T14:17:54.000Z</time>
      </trkpt>
      <trkpt lat="45.24092" lon="5.83874">
        <ele>269.47</ele>
        <time>2021-07-09T14:17:59.000Z</time>
      </trkpt>
      <trkpt lat="45.24106" lon="5.83907">
        <ele>264.46</ele>
        <time>2021-07-09T14:18:04.000Z</time>
      </trkpt>
      <trkpt lat="45.24107" lon="5.83939">
        <ele>263.77</ele>
        <time>2021-07-09T14:18:09.000Z</time>
      </trkpt>
      <trkpt lat="45.24102" lon="5.83979">
        <ele>261.19</ele>
        <time>2021-07-09T14:18:14.000Z</time>
      </trkpt>
      <trkpt lat="45.24114" lon="5.84021">
        <ele>258.91</ele>
        <time>2021-07-09T14:18:19.000Z</time>
      </trkpt>
      <trkpt lat="45.24128" lon="5.84036">
        <ele>258.92</ele>
        <time>2021-07-09T14:18:24.000Z</time>
      </trkpt>
      <trkpt lat="45.24143" lon="5.84018">
        <ele>259.13</ele>
        <time>2021-07-09T14:18:29.000Z</time>
      </trkpt>
      <trkpt lat="45.24162" lon="5.84001">
        <ele>260.22</ele>
        <time>2021-07-09T14:18:34.000Z</time>
      </trkpt>
      <trkpt lat="45.24184" lon="5.83987">
        <ele>258.95</ele>
        <time>2021-07-09T14:18:39.000Z</time>
      </trkpt>
      <trkpt lat="45.24207" lon="5.83977">
        <ele>260.92</ele>
        <time>2021-07-09T14:18:44.000Z</time>
      </trkpt>
      <trkpt lat="45.24229" lon="5.83964">
        <ele>260.69</ele>
        <time>2021-07-09T14:18:49.000Z</time>
      </trkpt>
      <trkpt lat="45.24251" lon="5.83952">
        <ele>258.91</ele>
        <time>2021-07-09T14:18:54.000Z</time>
      </trkpt>
      <trkpt lat="45.24271" lon="5.83942">
        <ele>261.39</ele>
        <time>2021-07-09T14:18:59.000Z</time>
      </trkpt>
      <trkpt lat="45.2429" lon="5.83937">
        <ele>265.66</ele>
        <time>2021-07-09T14:19:04.000Z</time>
      </trkpt>
      <trkpt lat="45.24319" lon="5.83928">
        <ele>266.25</ele>
        <time>2021-07-09T14:19:09.000Z</time>
      </trkpt>
      <trkpt lat="45.24339" lon="5.83926">
        <ele>265.46</ele>
        <time>2021-07-09T14:19:14.000Z</time>
      </trkpt>
      <trkpt lat="45.24365" lon="5.83912">
        <ele>271.63</ele>
        <time>2021-07-09T14:19:19.000Z</time>
      </trkpt>
      <trkpt lat="45.24388" lon="5.83899">
        <ele>273.38</ele>
        <time>2021-07-09T14:19:24.000Z</time>
      </trkpt>
      <trkpt lat="45.244" lon="5.839">
        <ele>273.68</ele>
        <time>2021-07-09T14:19:29.000Z</time>
      </trkpt>
      <trkpt lat="45.24411" lon="5.8393">
        <ele>273.36</ele>
        <time>2021-07-09T14:19:34.000Z</time>
      </trkpt>
      <trkpt lat="45.24422" lon="5.83956">
        <ele>274.6</ele>
        <time>2021-07-09T14:19:39.000Z</time>
      </trkpt>
      <trkpt lat="45.24435" lon="5.83985">
        <ele>273.02</ele>
        <time>2021-07-09T14:19:44.000Z</time>
      </trkpt>
      <trkpt lat="45.2445" lon="5.84014">
        <ele>279.28</ele>
        <time>2021-07-09T14:19:49.000Z</time>
      </trkpt>
      <trkpt lat="45.24463" lon="5.84046">
        <ele>276.83</ele>
        <time>2021-07-09T14:19:54.000Z</time>
      </trkpt>
      <trkpt lat="45.24478" lon="5.84083">
        <ele>275.03</ele>
        <time>2021-07-09T14:19:59.000Z</time>
      </trkpt>
      <trkpt lat="45.24494" lon="5.84117">
        <ele>275.84</ele>
        <time>2021-07-09T14:20:04.000Z</time>
      </trkpt>
      <trkpt lat="45.24505" lon="5.84139">
        <ele>276.92</ele>
        <time>2021-07-09T14:20:09.000Z</time>
      </trkpt>
      <trkpt lat="45.24514" lon="5.8413">
        <ele>278.28</ele>
        <time>2021-07-09T14:20:14.000Z</time>
      </trkpt>
      <trkpt lat="45.24524" lon="5.84102">
        <ele>279.36</ele>
        <time>2021-07-09T14:20:19.000Z</time>
      </trkpt>
      <trkpt lat="45.24532" lon="5.84075">
        <ele>281.32</ele>
        <time>2021-07-09T14:20:24.000Z</time>
      </trkpt>
      <trkpt lat="45.24541" lon="5.84049">
        <ele>285.77</ele>
        <time>2021-07-09T14:20:29.000Z</time>
      </trkpt>
      <trkpt lat="45.24552" lon="5.8402">
        <ele>287.8</ele>
        <time>2021-07-09T14:20:34.000Z</time>
      </trkpt>
      <trkpt lat="45.24564" lon="5.83992">
        <ele>288.26</ele>
        <time>2021-07-09T14:20:39.000Z</time>
      </trkpt>
      <trkpt lat="45.24573" lon="5.83967">
        <ele>289.08</ele>
        <time>2021-07-09T14:20:44.000Z</time>
      </trkpt>
      <trkpt lat="45.24587" lon="5.83971">
        <ele>289.47</ele>
        <time>2021-07-09T14:20:49.000Z</time>
      </trkpt>
      <trkpt lat="45.24598" lon="5.83995">
        <ele>291.25</ele>
        <time>2021-07-09T14:20:54.000Z</time>
      </trkpt>
      <trkpt lat="45.24608" lon="5.84016">
        <ele>289.49</ele>
        <time>2021-07-09T14:20:59.000Z</time>
      </trkpt>
      <trkpt lat="45.24619" lon="5.84039">
        <ele>288.91</ele>
        <time>2021-07-09T14:21:04.000Z</time>
      </trkpt>
      <trkpt lat="45.24626" lon="5.84062">
        <ele>288.2</ele>
        <time>2021-07-09T14:21:09.000Z</time>
      </trkpt>
      <trkpt lat="45.2464" lon="5.84089">
        <ele>289.19</ele>
        <time>2021-07-09T14:21:14.000Z</time>
      </trkpt>
      <trkpt lat="45.24655" lon="5.84114">
        <ele>289.28</ele>
        <time>2021-07-09T14:21:19.000Z</time>
      </trkpt>
      <trkpt lat="45.24674" lon="5.84133">
        <ele>290.84</ele>
        <time>2021-07-09T14:21:24.000Z</time>
      </trkpt>
      <trkpt lat="45.24691" lon="5.84157">
        <ele>289.38</ele>
        <time>2021-07-09T14:21:29.000Z</time>
      </trkpt>
      <trkpt lat="45.247" lon="5.84175">
        <ele>288.04</ele>
        <time>2021-07-09T14:21:34.000Z</time>
      </trkpt>
      <trkpt lat="45.24713" lon="5.84194">
        <ele>289.5</ele>
        <time>2021-07-09T14:21:39.000Z</time>
      </trkpt>
      <trkpt lat="45.24729" lon="5.8422">
        <ele>289.71</ele>
        <time>2021-07-09T14:21:44.000Z</time>
      </trkpt>
      <trkpt lat="45.24745" lon="5.84251">
        <ele>291.47</ele>
        <time>2021-07-09T14:21:49.000Z</time>
      </trkpt>
      <trkpt lat="45.24769" lon="5.84283">
        <ele>291.7</ele>
        <time>2021-07-09T14:21:54.000Z</time>
      </trkpt>
      <trkpt lat="45.24782" lon="5.84315">
        <ele>290.95</ele>
        <time>2021-07-09T14:21:59.000Z</time>
      </trkpt>
      <trkpt lat="45.24791" lon="5.84333">
        <ele>291.03</ele>
        <time>2021-07-09T14:22:04.000Z</time>
      </trkpt>
      <trkpt lat="45.24805" lon="5.84355">
        <ele>291.6</ele>
        <time>2021-07-09T14:22:09.000Z</time>
      </trkpt>
      <trkpt lat="45.2482" lon="5.84374">
        <ele>291.98</ele>
        <time>2021-07-09T14:22:14.000Z</time>
      </trkpt>
      <trkpt lat="45.24841" lon="5.84362">
        <ele>289.35</ele>
        <time>2021-07-09T14:22:19.000Z</time>
      </trkpt>
      <trkpt lat="45.24859" lon="5.84343">
        <ele>289.7</ele>
        <time>2021-07-09T14:22:24.000Z</time>
      </trkpt>
      <trkpt lat="45.24878" lon="5.84334">
        <ele>293.55</ele>
        <time>2021-07-09T14:22:29.000Z</time>
      </trkpt>
      <trkpt lat="45.24899" lon="5.84332">
        <ele>291.71</ele>
        <time>2021-07-09T14:22:34.000Z</time>
      </trkpt>
      <trkpt lat="45.24921" lon="5.84321">
        <ele>295.57</ele>
        <time>2021-07-09T14:22:39.000Z</time>
      </trkpt>
      <trkpt lat="45.24946" lon="5.84314">
        <ele>296.71</ele>
        <time>2021-07-09T14:22:44.000Z</time>
      </trkpt>
      <trkpt lat="45.24964" lon="5.84308">
        <ele>296.26</ele>
        <time>2021-07-09T14:22:49.000Z</time>
      </trkpt>
      <trkpt lat="45.24981" lon="5.84305">
        <ele>299.37</ele>
        <time>2021-07-09T14:22:54.000Z</time>
      </trkpt>
      <trkpt lat="45.24991" lon="5.84301">
        <ele>302.06</ele>
        <time>2021-07-09T14:22:59.000Z</time>
      </trkpt>
      <trkpt lat="45.25004" lon="5.84296">
        <ele>303.3</ele>
        <time>2021-07-09T14:23:04.000Z</time>
      </trkpt>
      <trkpt lat="45.25017" lon="5.84302">
        <ele>300.67</ele>
        <time>2021-07-09T14:23:09.000Z</time>
      </trkpt>
      <trkpt lat="45.25028" lon="5.84293">
        <ele>303.94</ele>
        <time>2021-07-09T14:23:29.000Z</time>
      </trkpt>
      <trkpt lat="45.25043" lon="5.84281">
        <ele>302.74</ele>
        <time>2021-07-09T14:23:34.000Z</time>
      </trkpt>
      <trkpt lat="45.25054" lon="5.84272">
        <ele>303.33</ele>
        <time>2021-07-09T14:23:39.000Z</time>
      </trkpt>
      <trkpt lat="45.25063" lon="5.84265">
        <ele>305.69</ele>
        <time>2021-07-09T14:23:53.000Z</time>
      </trkpt>
      <trkpt lat="45.2506" lon="5.84279">
        <ele>307.96</ele>
        <time>2021-07-09T14:24:03.000Z</time>
      </trkpt>
      <trkpt lat="45.25042" lon="5.84309">
        <ele>307.37</ele>
        <time>2021-07-09T14:24:08.000Z</time>
      </trkpt>
      <trkpt lat="45.25029" lon="5.84348">
        <ele>308.04</ele>
        <time>2021-07-09T14:24:13.000Z</time>
      </trkpt>
      <trkpt lat="45.25034" lon="5.84383">
        <ele>311.62</ele>
        <time>2021-07-09T14:24:18.000Z</time>
      </trkpt>
      <trkpt lat="45.25044" lon="5.84405">
        <ele>311.95</ele>
        <time>2021-07-09T14:24:23.000Z</time>
      </trkpt>
      <trkpt lat="45.25045" lon="5.84427">
        <ele>310.65</ele>
        <time>2021-07-09T14:24:28.000Z</time>
      </trkpt>
      <trkpt lat="45.25049" lon="5.84452">
        <ele>311.75</ele>
        <time>2021-07-09T14:24:33.000Z</time>
      </trkpt>
      <trkpt lat="45.25055" lon="5.84474">
        <ele>311.96</ele>
        <time>2021-07-09T14:24:38.000Z</time>
      </trkpt>
      <trkpt lat="45.25067" lon="5.84496">
        <ele>310.48</ele>
        <time>2021-07-09T14:24:43.000Z</time>
      </trkpt>
      <trkpt lat="45.25081" lon="5.84522">
        <ele>309.6</ele>
        <time>2021-07-09T14:24:48.000Z</time>
      </trkpt>
      <trkpt lat="45.25086" lon="5.84554">
        <ele>309.5</ele>
        <time>2021-07-09T14:24:53.000Z</time>
      </trkpt>
      <trkpt lat="45.25088" lon="5.84586">
        <ele>311.27</ele>
        <time>2021-07-09T14:24:58.000Z</time>
      </trkpt>
      <trkpt lat="45.25096" lon="5.84627">
        <ele>308.33</ele>
        <time>2021-07-09T14:25:03.000Z</time>
      </trkpt>
      <trkpt lat="45.25096" lon="5.84666">
        <ele>303.63</ele>
        <time>2021-07-09T14:25:08.000Z</time>
      </trkpt>
      <trkpt lat="45.25095" lon="5.84699">
        <ele>303.05</ele>
        <time>2021-07-09T14:25:13.000Z</time>
      </trkpt>
      <trkpt lat="45.25081" lon="5.84734">
        <ele>303.68</ele>
        <time>2021-07-09T14:25:18.000Z</time>
      </trkpt>
      <trkpt lat="45.25068" lon="5.84765">
        <ele>304.07</ele>
        <time>2021-07-09T14:25:23.000Z</time>
      </trkpt>
      <trkpt lat="45.25069" lon="5.84791">
        <ele>302.46</ele>
        <time>2021-07-09T14:25:28.000Z</time>
      </trkpt>
      <trkpt lat="45.2506" lon="5.84818">
        <ele>304.58</ele>
        <time>2021-07-09T14:25:33.000Z</time>
      </trkpt>
      <trkpt lat="45.25051" lon="5.84847">
        <ele>303.97</ele>
        <time>2021-07-09T14:25:38.000Z</time>
      </trkpt>
      <trkpt lat="45.2504" lon="5.84879">
        <ele>300.7</ele>
        <time>2021-07-09T14:25:43.000Z</time>
      </trkpt>
      <trkpt lat="45.2503" lon="5.84908">
        <ele>298.73</ele>
        <time>2021-07-09T14:25:48.000Z</time>
      </trkpt>
      <trkpt lat="45.25025" lon="5.84941">
        <ele>299.17</ele>
        <time>2021-07-09T14:25:53.000Z</time>
      </trkpt>
      <trkpt lat="45.25025" lon="5.84986">
        <ele>299.05</ele>
        <time>2021-07-09T14:25:58.000Z</time>
      </trkpt>
      <trkpt lat="45.25038" lon="5.85016">
        <ele>298.81</ele>
        <time>2021-07-09T14:26:03.000Z</time>
      </trkpt>
      <trkpt lat="45.25057" lon="5.8504">
        <ele>302.31</ele>
        <time>2021-07-09T14:26:08.000Z</time>
      </trkpt>
      <trkpt lat="45.25073" lon="5.85064">
        <ele>301.67</ele>
        <time>2021-07-09T14:26:13.000Z</time>
      </trkpt>
      <trkpt lat="45.25094" lon="5.85092">
        <ele>300</ele>
        <time>2021-07-09T14:26:18.000Z</time>
      </trkpt>
      <trkpt lat="45.25103" lon="5.85128">
        <ele>299.18</ele>
        <time>2021-07-09T14:26:23.000Z</time>
      </trkpt>
      <trkpt lat="45.25104" lon="5.85161">
        <ele>296.92</ele>
        <time>2021-07-09T14:26:28.000Z</time>
      </trkpt>
      <trkpt lat="45.25097" lon="5.85195">
        <ele>297.17</ele>
        <time>2021-07-09T14:26:33.000Z</time>
      </trkpt>
      <trkpt lat="45.25086" lon="5.85229">
        <ele>300.4</ele>
        <time>2021-07-09T14:26:38.000Z</time>
      </trkpt>
      <trkpt lat="45.25077" lon="5.8526">
        <ele>299.42</ele>
        <time>2021-07-09T14:26:43.000Z</time>
      </trkpt>
      <trkpt lat="45.2507" lon="5.85302">
        <ele>298.3</ele>
        <time>2021-07-09T14:26:48.000Z</time>
      </trkpt>
      <trkpt lat="45.25078" lon="5.85344">
        <ele>299.72</ele>
        <time>2021-07-09T14:26:53.000Z</time>
      </trkpt>
      <trkpt lat="45.25078" lon="5.85381">
        <ele>298.34</ele>
        <time>2021-07-09T14:26:58.000Z</time>
      </trkpt>
      <trkpt lat="45.25072" lon="5.85417">
        <ele>298.37</ele>
        <time>2021-07-09T14:27:03.000Z</time>
      </trkpt>
      <trkpt lat="45.25055" lon="5.85451">
        <ele>299.43</ele>
        <time>2021-07-09T14:27:08.000Z</time>
      </trkpt>
      <trkpt lat="45.25041" lon="5.85477">
        <ele>297.65</ele>
        <time>2021-07-09T14:27:13.000Z</time>
      </trkpt>
      <trkpt lat="45.25028" lon="5.85483">
        <ele>299.49</ele>
        <time>2021-07-09T14:27:18.000Z</time>
      </trkpt>
      <trkpt lat="45.25025" lon="5.855">
        <ele>298.68</ele>
        <time>2021-07-09T14:27:23.000Z</time>
      </trkpt>
      <trkpt lat="45.25016" lon="5.85522">
        <ele>300.18</ele>
        <time>2021-07-09T14:27:28.000Z</time>
      </trkpt>
      <trkpt lat="45.25011" lon="5.85561">
        <ele>301.51</ele>
        <time>2021-07-09T14:27:33.000Z</time>
      </trkpt>
      <trkpt lat="45.25019" lon="5.85597">
        <ele>299.37</ele>
        <time>2021-07-09T14:27:38.000Z</time>
      </trkpt>
      <trkpt lat="45.25032" lon="5.8563">
        <ele>302.57</ele>
        <time>2021-07-09T14:27:43.000Z</time>
      </trkpt>
      <trkpt lat="45.25048" lon="5.85664">
        <ele>298.82</ele>
        <time>2021-07-09T14:27:48.000Z</time>
      </trkpt>
      <trkpt lat="45.25075" lon="5.85696">
        <ele>294.25</ele>
        <time>2021-07-09T14:27:53.000Z</time>
      </trkpt>
      <trkpt lat="45.25096" lon="5.8572">
        <ele>291.53</ele>
        <time>2021-07-09T14:27:58.000Z</time>
      </trkpt>
      <trkpt lat="45.2512" lon="5.85749">
        <ele>290.52</ele>
        <time>2021-07-09T14:28:03.000Z</time>
      </trkpt>
      <trkpt lat="45.25139" lon="5.85774">
        <ele>286.02</ele>
        <time>2021-07-09T14:28:08.000Z</time>
      </trkpt>
      <trkpt lat="45.25156" lon="5.85811">
        <ele>285.83</ele>
        <time>2021-07-09T14:28:13.000Z</time>
      </trkpt>
      <trkpt lat="45.2517" lon="5.85846">
        <ele>288.17</ele>
        <time>2021-07-09T14:28:18.000Z</time>
      </trkpt>
      <trkpt lat="45.25183" lon="5.85874">
        <ele>286.86</ele>
        <time>2021-07-09T14:28:23.000Z</time>
      </trkpt>
      <trkpt lat="45.25196" lon="5.85906">
        <ele>284.19</ele>
        <time>2021-07-09T14:28:28.000Z</time>
      </trkpt>
      <trkpt lat="45.25214" lon="5.85941">
        <ele>288.37</ele>
        <time>2021-07-09T14:28:33.000Z</time>
      </trkpt>
      <trkpt lat="45.2523" lon="5.85969">
        <ele>290.72</ele>
        <time>2021-07-09T14:28:38.000Z</time>
      </trkpt>
      <trkpt lat="45.25248" lon="5.86007">
        <ele>292.21</ele>
        <time>2021-07-09T14:28:43.000Z</time>
      </trkpt>
      <trkpt lat="45.25267" lon="5.86038">
        <ele>292.8</ele>
        <time>2021-07-09T14:28:48.000Z</time>
      </trkpt>
      <trkpt lat="45.25283" lon="5.86068">
        <ele>292.05</ele>
        <time>2021-07-09T14:28:53.000Z</time>
      </trkpt>
      <trkpt lat="45.25298" lon="5.86104">
        <ele>290.77</ele>
        <time>2021-07-09T14:28:58.000Z</time>
      </trkpt>
      <trkpt lat="45.25314" lon="5.8614">
        <ele>291.92</ele>
        <time>2021-07-09T14:29:03.000Z</time>
      </trkpt>
      <trkpt lat="45.25325" lon="5.86173">
        <ele>290.26</ele>
        <time>2021-07-09T14:29:08.000Z</time>
      </trkpt>
      <trkpt lat="45.25337" lon="5.86217">
        <ele>286.78</ele>
        <time>2021-07-09T14:29:13.000Z</time>
      </trkpt>
      <trkpt lat="45.25342" lon="5.86258">
        <ele>288.79</ele>
        <time>2021-07-09T14:29:18.000Z</time>
      </trkpt>
      <trkpt lat="45.25349" lon="5.86293">
        <ele>290.56</ele>
        <time>2021-07-09T14:29:23.000Z</time>
      </trkpt>
      <trkpt lat="45.25363" lon="5.86312">
        <ele>292.74</ele>
        <time>2021-07-09T14:29:28.000Z</time>
      </trkpt>
      <trkpt lat="45.25375" lon="5.86324">
        <ele>295.66</ele>
        <time>2021-07-09T14:29:33.000Z</time>
      </trkpt>
      <trkpt lat="45.25393" lon="5.86339">
        <ele>296.32</ele>
        <time>2021-07-09T14:29:38.000Z</time>
      </trkpt>
      <trkpt lat="45.25412" lon="5.8636">
        <ele>296.4</ele>
        <time>2021-07-09T14:29:43.000Z</time>
      </trkpt>
      <trkpt lat="45.25433" lon="5.86379">
        <ele>295.37</ele>
        <time>2021-07-09T14:29:48.000Z</time>
      </trkpt>
      <trkpt lat="45.25453" lon="5.86382">
        <ele>296.88</ele>
        <time>2021-07-09T14:29:53.000Z</time>
      </trkpt>
      <trkpt lat="45.25474" lon="5.86388">
        <ele>297.08</ele>
        <time>2021-07-09T14:29:58.000Z</time>
      </trkpt>
      <trkpt lat="45.25582" lon="5.86403">
        <ele>300.47</ele>
        <time>2021-07-09T14:30:24.000Z</time>
      </trkpt>
      <trkpt lat="45.25611" lon="5.86407">
        <ele>302.96</ele>
        <time>2021-07-09T14:30:29.000Z</time>
      </trkpt>
      <trkpt lat="45.25638" lon="5.86419">
        <ele>301.27</ele>
        <time>2021-07-09T14:30:34.000Z</time>
      </trkpt>
      <trkpt lat="45.25667" lon="5.86433">
        <ele>299.33</ele>
        <time>2021-07-09T14:30:39.000Z</time>
      </trkpt>
      <trkpt lat="45.25699" lon="5.86453">
        <ele>302.02</ele>
        <time>2021-07-09T14:30:44.000Z</time>
      </trkpt>
      <trkpt lat="45.25727" lon="5.86491">
        <ele>301.11</ele>
        <time>2021-07-09T14:30:49.000Z</time>
      </trkpt>
      <trkpt lat="45.25755" lon="5.86517">
        <ele>299.37</ele>
        <time>2021-07-09T14:30:54.000Z</time>
      </trkpt>
      <trkpt lat="45.25788" lon="5.86533">
        <ele>297.66</ele>
        <time>2021-07-09T14:30:59.000Z</time>
      </trkpt>
      <trkpt lat="45.25829" lon="5.86546">
        <ele>297.06</ele>
        <time>2021-07-09T14:31:04.000Z</time>
      </trkpt>
      <trkpt lat="45.25861" lon="5.86555">
        <ele>300.83</ele>
        <time>2021-07-09T14:31:09.000Z</time>
      </trkpt>
      <trkpt lat="45.25943" lon="5.8656">
        <ele>301.47</ele>
        <time>2021-07-09T14:31:20.000Z</time>
      </trkpt>
      <trkpt lat="45.25978" lon="5.86554">
        <ele>300.79</ele>
        <time>2021-07-09T14:31:25.000Z</time>
      </trkpt>
      <trkpt lat="45.26011" lon="5.86548">
        <ele>303.98</ele>
        <time>2021-07-09T14:31:30.000Z</time>
      </trkpt>
      <trkpt lat="45.26054" lon="5.86529">
        <ele>295.97</ele>
        <time>2021-07-09T14:31:36.000Z</time>
      </trkpt>
      <trkpt lat="45.26095" lon="5.86515">
        <ele>285.83</ele>
        <time>2021-07-09T14:31:41.000Z</time>
      </trkpt>
      <trkpt lat="45.26147" lon="5.86505">
        <ele>278.5</ele>
        <time>2021-07-09T14:31:50.000Z</time>
      </trkpt>
      <trkpt lat="45.26169" lon="5.86505">
        <ele>271.03</ele>
        <time>2021-07-09T14:31:55.000Z</time>
      </trkpt>
      <trkpt lat="45.26191" lon="5.86513">
        <ele>271.04</ele>
        <time>2021-07-09T14:32:00.000Z</time>
      </trkpt>
      <trkpt lat="45.26214" lon="5.86529">
        <ele>275.77</ele>
        <time>2021-07-09T14:32:05.000Z</time>
      </trkpt>
      <trkpt lat="45.26237" lon="5.86541">
        <ele>275.54</ele>
        <time>2021-07-09T14:32:10.000Z</time>
      </trkpt>
      <trkpt lat="45.2626" lon="5.86552">
        <ele>271.03</ele>
        <time>2021-07-09T14:32:15.000Z</time>
      </trkpt>
      <trkpt lat="45.2628" lon="5.86563">
        <ele>269.28</ele>
        <time>2021-07-09T14:32:20.000Z</time>
      </trkpt>
      <trkpt lat="45.26295" lon="5.86571">
        <ele>269.36</ele>
        <time>2021-07-09T14:32:25.000Z</time>
      </trkpt>
      <trkpt lat="45.26314" lon="5.86577">
        <ele>273.64</ele>
        <time>2021-07-09T14:32:30.000Z</time>
      </trkpt>
      <trkpt lat="45.26334" lon="5.86582">
        <ele>274.23</ele>
        <time>2021-07-09T14:32:35.000Z</time>
      </trkpt>
      <trkpt lat="45.26352" lon="5.86589">
        <ele>275.51</ele>
        <time>2021-07-09T14:32:40.000Z</time>
      </trkpt>
      <trkpt lat="45.26371" lon="5.86597">
        <ele>278.88</ele>
        <time>2021-07-09T14:32:45.000Z</time>
      </trkpt>
      <trkpt lat="45.2639" lon="5.86606">
        <ele>275.51</ele>
        <time>2021-07-09T14:32:50.000Z</time>
      </trkpt>
      <trkpt lat="45.26408" lon="5.86613">
        <ele>277.12</ele>
        <time>2021-07-09T14:32:55.000Z</time>
      </trkpt>
      <trkpt lat="45.26426" lon="5.86621">
        <ele>277.02</ele>
        <time>2021-07-09T14:33:00.000Z</time>
      </trkpt>
      <trkpt lat="45.2645" lon="5.86629">
        <ele>273.31</ele>
        <time>2021-07-09T14:33:05.000Z</time>
      </trkpt>
      <trkpt lat="45.26474" lon="5.86637">
        <ele>277.46</ele>
        <time>2021-07-09T14:33:10.000Z</time>
      </trkpt>
      <trkpt lat="45.26495" lon="5.86655">
        <ele>278.86</ele>
        <time>2021-07-09T14:33:15.000Z</time>
      </trkpt>
      <trkpt lat="45.26519" lon="5.86662">
        <ele>274.66</ele>
        <time>2021-07-09T14:33:20.000Z</time>
      </trkpt>
      <trkpt lat="45.26546" lon="5.86672">
        <ele>277.24</ele>
        <time>2021-07-09T14:33:25.000Z</time>
      </trkpt>
      <trkpt lat="45.2657" lon="5.86685">
        <ele>277.11</ele>
        <time>2021-07-09T14:33:30.000Z</time>
      </trkpt>
      <trkpt lat="45.26594" lon="5.86696">
        <ele>276.38</ele>
        <time>2021-07-09T14:33:35.000Z</time>
      </trkpt>
      <trkpt lat="45.26617" lon="5.86706">
        <ele>276.19</ele>
        <time>2021-07-09T14:33:40.000Z</time>
      </trkpt>
      <trkpt lat="45.26616" lon="5.86728">
        <ele>277.7</ele>
        <time>2021-07-09T14:33:45.000Z</time>
      </trkpt>
      <trkpt lat="45.26604" lon="5.86757">
        <ele>278.55</ele>
        <time>2021-07-09T14:33:50.000Z</time>
      </trkpt>
      <trkpt lat="45.2659" lon="5.86797">
        <ele>279.14</ele>
        <time>2021-07-09T14:33:56.000Z</time>
      </trkpt>
      <trkpt lat="45.26581" lon="5.86825">
        <ele>277.72</ele>
        <time>2021-07-09T14:34:01.000Z</time>
      </trkpt>
      <trkpt lat="45.26587" lon="5.86838">
        <ele>277.33</ele>
        <time>2021-07-09T14:34:08.000Z</time>
      </trkpt>
      <trkpt lat="45.26602" lon="5.86852">
        <ele>276.98</ele>
        <time>2021-07-09T14:34:13.000Z</time>
      </trkpt>
      <trkpt lat="45.26622" lon="5.86873">
        <ele>275.51</ele>
        <time>2021-07-09T14:34:18.000Z</time>
      </trkpt>
      <trkpt lat="45.26646" lon="5.86895">
        <ele>272.51</ele>
        <time>2021-07-09T14:34:23.000Z</time>
      </trkpt>
      <trkpt lat="45.26675" lon="5.8691">
        <ele>277.67</ele>
        <time>2021-07-09T14:34:28.000Z</time>
      </trkpt>
      <trkpt lat="45.26698" lon="5.86927">
        <ele>274.55</ele>
        <time>2021-07-09T14:34:33.000Z</time>
      </trkpt>
      <trkpt lat="45.26716" lon="5.86943">
        <ele>268.02</ele>
        <time>2021-07-09T14:34:38.000Z</time>
      </trkpt>
      <trkpt lat="45.26734" lon="5.86956">
        <ele>268.35</ele>
        <time>2021-07-09T14:34:43.000Z</time>
      </trkpt>
      <trkpt lat="45.26751" lon="5.86981">
        <ele>270.42</ele>
        <time>2021-07-09T14:34:48.000Z</time>
      </trkpt>
      <trkpt lat="45.26777" lon="5.87">
        <ele>268.76</ele>
        <time>2021-07-09T14:34:53.000Z</time>
      </trkpt>
      <trkpt lat="45.268" lon="5.87024">
        <ele>268.79</ele>
        <time>2021-07-09T14:34:58.000Z</time>
      </trkpt>
      <trkpt lat="45.26826" lon="5.8705">
        <ele>266.38</ele>
        <time>2021-07-09T14:35:03.000Z</time>
      </trkpt>
      <trkpt lat="45.26855" lon="5.8707">
        <ele>266.45</ele>
        <time>2021-07-09T14:35:08.000Z</time>
      </trkpt>
      <trkpt lat="45.26884" lon="5.87093">
        <ele>268.87</ele>
        <time>2021-07-09T14:35:13.000Z</time>
      </trkpt>
      <trkpt lat="45.26918" lon="5.87115">
        <ele>271.19</ele>
        <time>2021-07-09T14:35:18.000Z</time>
      </trkpt>
      <trkpt lat="45.26951" lon="5.87141">
        <ele>268.24</ele>
        <time>2021-07-09T14:35:23.000Z</time>
      </trkpt>
      <trkpt lat="45.26995" lon="5.87165">
        <ele>268.47</ele>
        <time>2021-07-09T14:35:28.000Z</time>
      </trkpt>
      <trkpt lat="45.27016" lon="5.87186">
        <ele>267.14</ele>
        <time>2021-07-09T14:35:33.000Z</time>
      </trkpt>
      <trkpt lat="45.27045" lon="5.87211">
        <ele>264.9</ele>
        <time>2021-07-09T14:35:38.000Z</time>
      </trkpt>
      <trkpt lat="45.27065" lon="5.87233">
        <ele>264.59</ele>
        <time>2021-07-09T14:35:43.000Z</time>
      </trkpt>
      <trkpt lat="45.27086" lon="5.87253">
        <ele>264.42</ele>
        <time>2021-07-09T14:35:48.000Z</time>
      </trkpt>
      <trkpt lat="45.27096" lon="5.87263">
        <ele>262.49</ele>
        <time>2021-07-09T14:35:53.000Z</time>
      </trkpt>
      <trkpt lat="45.27112" lon="5.87276">
        <ele>264.12</ele>
        <time>2021-07-09T14:35:58.000Z</time>
      </trkpt>
      <trkpt lat="45.2712" lon="5.87295">
        <ele>266.44</ele>
        <time>2021-07-09T14:36:03.000Z</time>
      </trkpt>
      <trkpt lat="45.27138" lon="5.87315">
        <ele>266.66</ele>
        <time>2021-07-09T14:36:08.000Z</time>
      </trkpt>
      <trkpt lat="45.27143" lon="5.87337">
        <ele>268.98</ele>
        <time>2021-07-09T14:36:13.000Z</time>
      </trkpt>
      <trkpt lat="45.27156" lon="5.8736">
        <ele>268.47</ele>
        <time>2021-07-09T14:36:18.000Z</time>
      </trkpt>
      <trkpt lat="45.27182" lon="5.87399">
        <ele>270.82</ele>
        <time>2021-07-09T14:36:23.000Z</time>
      </trkpt>
      <trkpt lat="45.27204" lon="5.87429">
        <ele>272.87</ele>
        <time>2021-07-09T14:36:28.000Z</time>
      </trkpt>
      <trkpt lat="45.27227" lon="5.87452">
        <ele>272.39</ele>
        <time>2021-07-09T14:36:33.000Z</time>
      </trkpt>
      <trkpt lat="45.27259" lon="5.87467">
        <ele>268.34</ele>
        <time>2021-07-09T14:36:38.000Z</time>
      </trkpt>
      <trkpt lat="45.27283" lon="5.87483">
        <ele>265.44</ele>
        <time>2021-07-09T14:36:43.000Z</time>
      </trkpt>
      <trkpt lat="45.27315" lon="5.87508">
        <ele>263.45</ele>
        <time>2021-07-09T14:36:48.000Z</time>
      </trkpt>
      <trkpt lat="45.27344" lon="5.87519">
        <ele>264.63</ele>
        <time>2021-07-09T14:36:53.000Z</time>
      </trkpt>
      <trkpt lat="45.27369" lon="5.87533">
        <ele>266.02</ele>
        <time>2021-07-09T14:36:58.000Z</time>
      </trkpt>
      <trkpt lat="45.27396" lon="5.87549">
        <ele>266.86</ele>
        <time>2021-07-09T14:37:03.000Z</time>
      </trkpt>
      <trkpt lat="45.2743" lon="5.87569">
        <ele>263.45</ele>
        <time>2021-07-09T14:37:08.000Z</time>
      </trkpt>
      <trkpt lat="45.27459" lon="5.87581">
        <ele>261.74</ele>
        <time>2021-07-09T14:37:13.000Z</time>
      </trkpt>
      <trkpt lat="45.27491" lon="5.87593">
        <ele>262.12</ele>
        <time>2021-07-09T14:37:18.000Z</time>
      </trkpt>
      <trkpt lat="45.27521" lon="5.87615">
        <ele>260.01</ele>
        <time>2021-07-09T14:37:23.000Z</time>
      </trkpt>
      <trkpt lat="45.27544" lon="5.87629">
        <ele>256.89</ele>
        <time>2021-07-09T14:37:28.000Z</time>
      </trkpt>
      <trkpt lat="45.27556" lon="5.87633">
        <ele>254.34</ele>
        <time>2021-07-09T14:38:06.000Z</time>
      </trkpt>
      <trkpt lat="45.27583" lon="5.87646">
        <ele>257.98</ele>
        <time>2021-07-09T14:38:11.000Z</time>
      </trkpt>
      <trkpt lat="45.27601" lon="5.87652">
        <ele>258.78</ele>
        <time>2021-07-09T14:38:16.000Z</time>
      </trkpt>
      <trkpt lat="45.2762" lon="5.87665">
        <ele>259.36</ele>
        <time>2021-07-09T14:38:21.000Z</time>
      </trkpt>
      <trkpt lat="45.27644" lon="5.87675">
        <ele>255.74</ele>
        <time>2021-07-09T14:38:26.000Z</time>
      </trkpt>
      <trkpt lat="45.27668" lon="5.87692">
        <ele>255.95</ele>
        <time>2021-07-09T14:38:31.000Z</time>
      </trkpt>
      <trkpt lat="45.27692" lon="5.87703">
        <ele>255.57</ele>
        <time>2021-07-09T14:38:36.000Z</time>
      </trkpt>
      <trkpt lat="45.27711" lon="5.87717">
        <ele>256.39</ele>
        <time>2021-07-09T14:38:41.000Z</time>
      </trkpt>
      <trkpt lat="45.27736" lon="5.87736">
        <ele>258.52</ele>
        <time>2021-07-09T14:38:46.000Z</time>
      </trkpt>
      <trkpt lat="45.27761" lon="5.87758">
        <ele>258.51</ele>
        <time>2021-07-09T14:38:51.000Z</time>
      </trkpt>
      <trkpt lat="45.27782" lon="5.87769">
        <ele>254.82</ele>
        <time>2021-07-09T14:38:56.000Z</time>
      </trkpt>
      <trkpt lat="45.27798" lon="5.87786">
        <ele>253.54</ele>
        <time>2021-07-09T14:39:01.000Z</time>
      </trkpt>
      <trkpt lat="45.27817" lon="5.87809">
        <ele>258.71</ele>
        <time>2021-07-09T14:39:06.000Z</time>
      </trkpt>
      <trkpt lat="45.27839" lon="5.87834">
        <ele>257.05</ele>
        <time>2021-07-09T14:39:11.000Z</time>
      </trkpt>
      <trkpt lat="45.27861" lon="5.87865">
        <ele>256.09</ele>
        <time>2021-07-09T14:39:16.000Z</time>
      </trkpt>
      <trkpt lat="45.27887" lon="5.87894">
        <ele>255.68</ele>
        <time>2021-07-09T14:39:21.000Z</time>
      </trkpt>
      <trkpt lat="45.27907" lon="5.8792">
        <ele>253.8</ele>
        <time>2021-07-09T14:39:26.000Z</time>
      </trkpt>
      <trkpt lat="45.27927" lon="5.87947">
        <ele>254.72</ele>
        <time>2021-07-09T14:39:31.000Z</time>
      </trkpt>
      <trkpt lat="45.2795" lon="5.8797">
        <ele>253.76</ele>
        <time>2021-07-09T14:39:36.000Z</time>
      </trkpt>
      <trkpt lat="45.2797" lon="5.8798">
        <ele>252.66</ele>
        <time>2021-07-09T14:39:41.000Z</time>
      </trkpt>
      <trkpt lat="45.2798" lon="5.87985">
        <ele>252.3</ele>
        <time>2021-07-09T14:39:46.000Z</time>
      </trkpt>
      <trkpt lat="45.27989" lon="5.88">
        <ele>249.67</ele>
        <time>2021-07-09T14:39:51.000Z</time>
      </trkpt>
      <trkpt lat="45.27991" lon="5.88028">
        <ele>249.51</ele>
        <time>2021-07-09T14:39:56.000Z</time>
      </trkpt>
      <trkpt lat="45.28009" lon="5.88048">
        <ele>250.71</ele>
        <time>2021-07-09T14:40:01.000Z</time>
      </trkpt>
      <trkpt lat="45.28032" lon="5.88053">
        <ele>250.91</ele>
        <time>2021-07-09T14:40:06.000Z</time>
      </trkpt>
      <trkpt lat="45.2805" lon="5.88084">
        <ele>250.28</ele>
        <time>2021-07-09T14:40:11.000Z</time>
      </trkpt>
      <trkpt lat="45.28067" lon="5.88112">
        <ele>250.26</ele>
        <time>2021-07-09T14:40:16.000Z</time>
      </trkpt>
      <trkpt lat="45.28088" lon="5.88132">
        <ele>251.77</ele>
        <time>2021-07-09T14:40:21.000Z</time>
      </trkpt>
      <trkpt lat="45.28101" lon="5.88158">
        <ele>251.95</ele>
        <time>2021-07-09T14:40:26.000Z</time>
      </trkpt>
      <trkpt lat="45.2812" lon="5.88186">
        <ele>248.08</ele>
        <time>2021-07-09T14:40:31.000Z</time>
      </trkpt>
      <trkpt lat="45.28143" lon="5.88211">
        <ele>247.36</ele>
        <time>2021-07-09T14:40:36.000Z</time>
      </trkpt>
      <trkpt lat="45.28162" lon="5.88237">
        <ele>249.34</ele>
        <time>2021-07-09T14:40:41.000Z</time>
      </trkpt>
      <trkpt lat="45.28181" lon="5.88262">
        <ele>250.32</ele>
        <time>2021-07-09T14:40:46.000Z</time>
      </trkpt>
      <trkpt lat="45.282" lon="5.88285">
        <ele>250.83</ele>
        <time>2021-07-09T14:40:51.000Z</time>
      </trkpt>
      <trkpt lat="45.2822" lon="5.8831">
        <ele>253.1</ele>
        <time>2021-07-09T14:40:56.000Z</time>
      </trkpt>
      <trkpt lat="45.28238" lon="5.88332">
        <ele>255.71</ele>
        <time>2021-07-09T14:41:01.000Z</time>
      </trkpt>
      <trkpt lat="45.28261" lon="5.8835">
        <ele>251.03</ele>
        <time>2021-07-09T14:41:06.000Z</time>
      </trkpt>
      <trkpt lat="45.28285" lon="5.88371">
        <ele>253.86</ele>
        <time>2021-07-09T14:41:11.000Z</time>
      </trkpt>
      <trkpt lat="45.28293" lon="5.88413">
        <ele>254.59</ele>
        <time>2021-07-09T14:41:16.000Z</time>
      </trkpt>
      <trkpt lat="45.28319" lon="5.88425">
        <ele>256.49</ele>
        <time>2021-07-09T14:41:21.000Z</time>
      </trkpt>
      <trkpt lat="45.2834" lon="5.8845">
        <ele>250.31</ele>
        <time>2021-07-09T14:41:26.000Z</time>
      </trkpt>
      <trkpt lat="45.28364" lon="5.88478">
        <ele>248.46</ele>
        <time>2021-07-09T14:41:31.000Z</time>
      </trkpt>
      <trkpt lat="45.28387" lon="5.88501">
        <ele>247.11</ele>
        <time>2021-07-09T14:41:36.000Z</time>
      </trkpt>
      <trkpt lat="45.28411" lon="5.8853">
        <ele>243.71</ele>
        <time>2021-07-09T14:41:41.000Z</time>
      </trkpt>
      <trkpt lat="45.28432" lon="5.88559">
        <ele>245.07</ele>
        <time>2021-07-09T14:41:46.000Z</time>
      </trkpt>
      <trkpt lat="45.28451" lon="5.88579">
        <ele>244.84</ele>
        <time>2021-07-09T14:41:51.000Z</time>
      </trkpt>
      <trkpt lat="45.28468" lon="5.88585">
        <ele>244.96</ele>
        <time>2021-07-09T14:41:56.000Z</time>
      </trkpt>
      <trkpt lat="45.28477" lon="5.88597">
        <ele>248.36</ele>
        <time>2021-07-09T14:42:01.000Z</time>
      </trkpt>
      <trkpt lat="45.28484" lon="5.88611">
        <ele>249.06</ele>
        <time>2021-07-09T14:42:06.000Z</time>
      </trkpt>
      <trkpt lat="45.28495" lon="5.8862">
        <ele>250.86</ele>
        <time>2021-07-09T14:42:11.000Z</time>
      </trkpt>
      <trkpt lat="45.28502" lon="5.88628">
        <ele>254.37</ele>
        <time>2021-07-09T14:42:40.000Z</time>
      </trkpt>
      <trkpt lat="45.28516" lon="5.88651">
        <ele>252.5</ele>
        <time>2021-07-09T14:42:45.000Z</time>
      </trkpt>
      <trkpt lat="45.2852" lon="5.88664">
        <ele>249.94</ele>
        <time>2021-07-09T14:42:50.000Z</time>
      </trkpt>
      <trkpt lat="45.28528" lon="5.88674">
        <ele>248.63</ele>
        <time>2021-07-09T14:43:01.000Z</time>
      </trkpt>
      <trkpt lat="45.2854" lon="5.88689">
        <ele>253.02</ele>
        <time>2021-07-09T14:43:06.000Z</time>
      </trkpt>
      <trkpt lat="45.2856" lon="5.88713">
        <ele>248.59</ele>
        <time>2021-07-09T14:43:11.000Z</time>
      </trkpt>
      <trkpt lat="45.28586" lon="5.88741">
        <ele>248.38</ele>
        <time>2021-07-09T14:43:16.000Z</time>
      </trkpt>
      <trkpt lat="45.28613" lon="5.88773">
        <ele>245.72</ele>
        <time>2021-07-09T14:43:21.000Z</time>
      </trkpt>
      <trkpt lat="45.28633" lon="5.88789">
        <ele>244.29</ele>
        <time>2021-07-09T14:43:26.000Z</time>
      </trkpt>
      <trkpt lat="45.28657" lon="5.88817">
        <ele>243.05</ele>
        <time>2021-07-09T14:43:31.000Z</time>
      </trkpt>
      <trkpt lat="45.28677" lon="5.88848">
        <ele>240.73</ele>
        <time>2021-07-09T14:43:39.000Z</time>
      </trkpt>
      <trkpt lat="45.28691" lon="5.88882">
        <ele>240.22</ele>
        <time>2021-07-09T14:43:44.000Z</time>
      </trkpt>
      <trkpt lat="45.28705" lon="5.8891">
        <ele>241.44</ele>
        <time>2021-07-09T14:43:49.000Z</time>
      </trkpt>
      <trkpt lat="45.28722" lon="5.88929">
        <ele>240.25</ele>
        <time>2021-07-09T14:43:54.000Z</time>
      </trkpt>
      <trkpt lat="45.28736" lon="5.88956">
        <ele>242.25</ele>
        <time>2021-07-09T14:43:59.000Z</time>
      </trkpt>
      <trkpt lat="45.28752" lon="5.88978">
        <ele>241.74</ele>
        <time>2021-07-09T14:44:04.000Z</time>
      </trkpt>
      <trkpt lat="45.28769" lon="5.89005">
        <ele>240.13</ele>
        <time>2021-07-09T14:44:09.000Z</time>
      </trkpt>
      <trkpt lat="45.2878" lon="5.89029">
        <ele>240.34</ele>
        <time>2021-07-09T14:44:14.000Z</time>
      </trkpt>
      <trkpt lat="45.28792" lon="5.89053">
        <ele>242.15</ele>
        <time>2021-07-09T14:44:19.000Z</time>
      </trkpt>
      <trkpt lat="45.28803" lon="5.89086">
        <ele>243.92</ele>
        <time>2021-07-09T14:44:24.000Z</time>
      </trkpt>
      <trkpt lat="45.28811" lon="5.891">
        <ele>243.46</ele>
        <time>2021-07-09T14:44:29.000Z</time>
      </trkpt>
      <trkpt lat="45.28816" lon="5.89114">
        <ele>244.31</ele>
        <time>2021-07-09T14:44:41.000Z</time>
      </trkpt>
      <trkpt lat="45.28815" lon="5.89143">
        <ele>244.56</ele>
        <time>2021-07-09T14:44:46.000Z</time>
      </trkpt>
      <trkpt lat="45.28833" lon="5.89172">
        <ele>243.52</ele>
        <time>2021-07-09T14:44:51.000Z</time>
      </trkpt>
      <trkpt lat="45.28865" lon="5.89184">
        <ele>240.87</ele>
        <time>2021-07-09T14:44:56.000Z</time>
      </trkpt>
      <trkpt lat="45.28894" lon="5.89192">
        <ele>240.2</ele>
        <time>2021-07-09T14:45:01.000Z</time>
      </trkpt>
      <trkpt lat="45.28913" lon="5.8922">
        <ele>236.76</ele>
        <time>2021-07-09T14:45:06.000Z</time>
      </trkpt>
      <trkpt lat="45.28924" lon="5.89265">
        <ele>236.42</ele>
        <time>2021-07-09T14:45:11.000Z</time>
      </trkpt>
      <trkpt lat="45.28941" lon="5.89301">
        <ele>236.01</ele>
        <time>2021-07-09T14:45:16.000Z</time>
      </trkpt>
      <trkpt lat="45.28966" lon="5.89325">
        <ele>237.6</ele>
        <time>2021-07-09T14:45:21.000Z</time>
      </trkpt>
      <trkpt lat="45.28991" lon="5.89333">
        <ele>238.98</ele>
        <time>2021-07-09T14:45:26.000Z</time>
      </trkpt>
      <trkpt lat="45.29017" lon="5.89332">
        <ele>239.46</ele>
        <time>2021-07-09T14:45:31.000Z</time>
      </trkpt>
      <trkpt lat="45.29037" lon="5.89323">
        <ele>238.56</ele>
        <time>2021-07-09T14:45:36.000Z</time>
      </trkpt>
      <trkpt lat="45.29047" lon="5.89341">
        <ele>237.14</ele>
        <time>2021-07-09T14:45:41.000Z</time>
      </trkpt>
      <trkpt lat="45.29052" lon="5.8937">
        <ele>231.06</ele>
        <time>2021-07-09T14:45:46.000Z</time>
      </trkpt>
      <trkpt lat="45.29052" lon="5.89408">
        <ele>230.52</ele>
        <time>2021-07-09T14:45:51.000Z</time>
      </trkpt>
      <trkpt lat="45.29055" lon="5.8944">
        <ele>230.54</ele>
        <time>2021-07-09T14:45:56.000Z</time>
      </trkpt>
      <trkpt lat="45.29058" lon="5.89481">
        <ele>233.69</ele>
        <time>2021-07-09T14:46:01.000Z</time>
      </trkpt>
      <trkpt lat="45.29057" lon="5.89518">
        <ele>235.95</ele>
        <time>2021-07-09T14:46:06.000Z</time>
      </trkpt>
      <trkpt lat="45.29043" lon="5.89547">
        <ele>232.43</ele>
        <time>2021-07-09T14:46:11.000Z</time>
      </trkpt>
      <trkpt lat="45.2903" lon="5.89578">
        <ele>231.36</ele>
        <time>2021-07-09T14:46:16.000Z</time>
      </trkpt>
      <trkpt lat="45.29015" lon="5.89609">
        <ele>230.09</ele>
        <time>2021-07-09T14:46:21.000Z</time>
      </trkpt>
      <trkpt lat="45.29003" lon="5.89643">
        <ele>227.7</ele>
        <time>2021-07-09T14:46:26.000Z</time>
      </trkpt>
      <trkpt lat="45.28991" lon="5.89675">
        <ele>231.89</ele>
        <time>2021-07-09T14:46:31.000Z</time>
      </trkpt>
      <trkpt lat="45.28986" lon="5.89694">
        <ele>231.26</ele>
        <time>2021-07-09T14:46:36.000Z</time>
      </trkpt>
      <trkpt lat="45.28998" lon="5.89708">
        <ele>235.45</ele>
        <time>2021-07-09T14:46:41.000Z</time>
      </trkpt>
      <trkpt lat="45.29019" lon="5.8971">
        <ele>233.53</ele>
        <time>2021-07-09T14:46:46.000Z</time>
      </trkpt>
      <trkpt lat="45.29046" lon="5.89708">
        <ele>235.21</ele>
        <time>2021-07-09T14:46:51.000Z</time>
      </trkpt>
      <trkpt lat="45.29071" lon="5.8971">
        <ele>235.02</ele>
        <time>2021-07-09T14:46:56.000Z</time>
      </trkpt>
      <trkpt lat="45.29097" lon="5.89708">
        <ele>233.63</ele>
        <time>2021-07-09T14:47:01.000Z</time>
      </trkpt>
      <trkpt lat="45.29125" lon="5.89715">
        <ele>232.92</ele>
        <time>2021-07-09T14:47:06.000Z</time>
      </trkpt>
      <trkpt lat="45.29152" lon="5.89721">
        <ele>232.36</ele>
        <time>2021-07-09T14:47:11.000Z</time>
      </trkpt>
      <trkpt lat="45.29182" lon="5.89726">
        <ele>230.59</ele>
        <time>2021-07-09T14:47:16.000Z</time>
      </trkpt>
      <trkpt lat="45.2921" lon="5.89728">
        <ele>227.66</ele>
        <time>2021-07-09T14:47:21.000Z</time>
      </trkpt>
      <trkpt lat="45.29237" lon="5.89736">
        <ele>226.85</ele>
        <time>2021-07-09T14:47:26.000Z</time>
      </trkpt>
      <trkpt lat="45.29265" lon="5.89737">
        <ele>227.53</ele>
        <time>2021-07-09T14:47:31.000Z</time>
      </trkpt>
      <trkpt lat="45.29291" lon="5.89744">
        <ele>230.72</ele>
        <time>2021-07-09T14:47:36.000Z</time>
      </trkpt>
      <trkpt lat="45.29318" lon="5.89746">
        <ele>226.82</ele>
        <time>2021-07-09T14:47:41.000Z</time>
      </trkpt>
      <trkpt lat="45.29343" lon="5.89751">
        <ele>225.05</ele>
        <time>2021-07-09T14:47:46.000Z</time>
      </trkpt>
      <trkpt lat="45.29369" lon="5.8977">
        <ele>228.34</ele>
        <time>2021-07-09T14:47:51.000Z</time>
      </trkpt>
      <trkpt lat="45.29394" lon="5.8979">
        <ele>227.66</ele>
        <time>2021-07-09T14:47:56.000Z</time>
      </trkpt>
      <trkpt lat="45.29414" lon="5.89821">
        <ele>229.42</ele>
        <time>2021-07-09T14:48:01.000Z</time>
      </trkpt>
      <trkpt lat="45.29437" lon="5.89845">
        <ele>230.85</ele>
        <time>2021-07-09T14:48:06.000Z</time>
      </trkpt>
      <trkpt lat="45.29461" lon="5.89878">
        <ele>234.23</ele>
        <time>2021-07-09T14:48:11.000Z</time>
      </trkpt>
      <trkpt lat="45.2948" lon="5.89899">
        <ele>238.22</ele>
        <time>2021-07-09T14:48:16.000Z</time>
      </trkpt>
      <trkpt lat="45.29502" lon="5.89919">
        <ele>237.97</ele>
        <time>2021-07-09T14:48:21.000Z</time>
      </trkpt>
      <trkpt lat="45.29524" lon="5.89942">
        <ele>237.26</ele>
        <time>2021-07-09T14:48:26.000Z</time>
      </trkpt>
      <trkpt lat="45.29547" lon="5.89962">
        <ele>236.03</ele>
        <time>2021-07-09T14:48:31.000Z</time>
      </trkpt>
      <trkpt lat="45.29566" lon="5.89949">
        <ele>235.25</ele>
        <time>2021-07-09T14:48:36.000Z</time>
      </trkpt>
      <trkpt lat="45.29566" lon="5.89911">
        <ele>238.07</ele>
        <time>2021-07-09T14:48:41.000Z</time>
      </trkpt>
      <trkpt lat="45.29571" lon="5.89878">
        <ele>236.62</ele>
        <time>2021-07-09T14:48:46.000Z</time>
      </trkpt>
      <trkpt lat="45.29566" lon="5.89861">
        <ele>236.95</ele>
        <time>2021-07-09T14:48:51.000Z</time>
      </trkpt>
      <trkpt lat="45.29562" lon="5.89845">
        <ele>234.48</ele>
        <time>2021-07-09T14:49:04.000Z</time>
      </trkpt>
      <trkpt lat="45.29553" lon="5.89818">
        <ele>234.83</ele>
        <time>2021-07-09T14:49:09.000Z</time>
      </trkpt>
      <trkpt lat="45.2955" lon="5.89789">
        <ele>239.51</ele>
        <time>2021-07-09T14:49:14.000Z</time>
      </trkpt>
      <trkpt lat="45.29561" lon="5.89765">
        <ele>241.38</ele>
        <time>2021-07-09T14:49:19.000Z</time>
      </trkpt>
      <trkpt lat="45.2958" lon="5.89749">
        <ele>241.52</ele>
        <time>2021-07-09T14:49:24.000Z</time>
      </trkpt>
      <trkpt lat="45.29599" lon="5.89735">
        <ele>242.33</ele>
        <time>2021-07-09T14:49:29.000Z</time>
      </trkpt>
      <trkpt lat="45.29616" lon="5.89724">
        <ele>245.84</ele>
        <time>2021-07-09T14:49:34.000Z</time>
      </trkpt>
      <trkpt lat="45.29639" lon="5.89739">
        <ele>247.44</ele>
        <time>2021-07-09T14:49:39.000Z</time>
      </trkpt>
      <trkpt lat="45.29663" lon="5.89764">
        <ele>243.75</ele>
        <time>2021-07-09T14:49:44.000Z</time>
      </trkpt>
      <trkpt lat="45.29691" lon="5.89787">
        <ele>241.59</ele>
        <time>2021-07-09T14:49:49.000Z</time>
      </trkpt>
      <trkpt lat="45.29718" lon="5.8981">
        <ele>243.92</ele>
        <time>2021-07-09T14:49:54.000Z</time>
      </trkpt>
      <trkpt lat="45.29746" lon="5.89831">
        <ele>243.58</ele>
        <time>2021-07-09T14:49:59.000Z</time>
      </trkpt>
      <trkpt lat="45.29772" lon="5.89852">
        <ele>244.91</ele>
        <time>2021-07-09T14:50:04.000Z</time>
      </trkpt>
      <trkpt lat="45.29799" lon="5.89879">
        <ele>246.25</ele>
        <time>2021-07-09T14:50:09.000Z</time>
      </trkpt>
      <trkpt lat="45.29824" lon="5.89896">
        <ele>246.27</ele>
        <time>2021-07-09T14:50:14.000Z</time>
      </trkpt>
      <trkpt lat="45.29848" lon="5.89918">
        <ele>247.14</ele>
        <time>2021-07-09T14:50:19.000Z</time>
      </trkpt>
      <trkpt lat="45.29865" lon="5.89937">
        <ele>249.21</ele>
        <time>2021-07-09T14:50:24.000Z</time>
      </trkpt>
      <trkpt lat="45.2988" lon="5.89923">
        <ele>250.86</ele>
        <time>2021-07-09T14:50:29.000Z</time>
      </trkpt>
      <trkpt lat="45.29894" lon="5.89902">
        <ele>251.04</ele>
        <time>2021-07-09T14:50:34.000Z</time>
      </trkpt>
      <trkpt lat="45.29913" lon="5.89883">
        <ele>254.01</ele>
        <time>2021-07-09T14:50:39.000Z</time>
      </trkpt>
      <trkpt lat="45.29931" lon="5.89873">
        <ele>256.31</ele>
        <time>2021-07-09T14:50:44.000Z</time>
      </trkpt>
      <trkpt lat="45.2995" lon="5.89859">
        <ele>254.38</ele>
        <time>2021-07-09T14:50:49.000Z</time>
      </trkpt>
      <trkpt lat="45.29969" lon="5.89846">
        <ele>257.09</ele>
        <time>2021-07-09T14:50:54.000Z</time>
      </trkpt>
      <trkpt lat="45.29983" lon="5.89832">
        <ele>260.12</ele>
        <time>2021-07-09T14:50:59.000Z</time>
      </trkpt>
      <trkpt lat="45.29976" lon="5.89841">
        <ele>265.33</ele>
        <time>2021-07-09T15:10:34.000Z</time>
      </trkpt>
      <trkpt lat="45.2997" lon="5.89831">
        <ele>261.51</ele>
        <time>2021-07-09T15:14:13.000Z</time>
      </trkpt>
      <trkpt lat="45.2996" lon="5.89836">
        <ele>260.19</ele>
        <time>2021-07-09T15:14:35.000Z</time>
      </trkpt>
      <trkpt lat="45.29948" lon="5.89843">
        <ele>256.06</ele>
        <time>2021-07-09T15:14:40.000Z</time>
      </trkpt>
      <trkpt lat="45.29928" lon="5.89854">
        <ele>252.09</ele>
        <time>2021-07-09T15:14:45.000Z</time>
      </trkpt>
      <trkpt lat="45.29907" lon="5.89865">
        <ele>251.72</ele>
        <time>2021-07-09T15:14:50.000Z</time>
      </trkpt>
      <trkpt lat="45.29895" lon="5.89875">
        <ele>249.91</ele>
        <time>2021-07-09T15:14:55.000Z</time>
      </trkpt>
      <trkpt lat="45.29882" lon="5.89884">
        <ele>249.62</ele>
        <time>2021-07-09T15:15:00.000Z</time>
      </trkpt>
      <trkpt lat="45.2986" lon="5.89894">
        <ele>244.37</ele>
        <time>2021-07-09T15:15:05.000Z</time>
      </trkpt>
      <trkpt lat="45.29845" lon="5.899">
        <ele>244.67</ele>
        <time>2021-07-09T15:15:10.000Z</time>
      </trkpt>
      <trkpt lat="45.29834" lon="5.89901">
        <ele>247.57</ele>
        <time>2021-07-09T15:15:17.000Z</time>
      </trkpt>
      <trkpt lat="45.2982" lon="5.89889">
        <ele>249.7</ele>
        <time>2021-07-09T15:15:22.000Z</time>
      </trkpt>
      <trkpt lat="45.29796" lon="5.89873">
        <ele>249.67</ele>
        <time>2021-07-09T15:15:27.000Z</time>
      </trkpt>
      <trkpt lat="45.29772" lon="5.89849">
        <ele>249.38</ele>
        <time>2021-07-09T15:15:32.000Z</time>
      </trkpt>
      <trkpt lat="45.29743" lon="5.89819">
        <ele>243.53</ele>
        <time>2021-07-09T15:15:37.000Z</time>
      </trkpt>
      <trkpt lat="45.29718" lon="5.89793">
        <ele>240.98</ele>
        <time>2021-07-09T15:15:42.000Z</time>
      </trkpt>
      <trkpt lat="45.29689" lon="5.89768">
        <ele>243.62</ele>
        <time>2021-07-09T15:15:47.000Z</time>
      </trkpt>
      <trkpt lat="45.29659" lon="5.89749">
        <ele>248.52</ele>
        <time>2021-07-09T15:15:52.000Z</time>
      </trkpt>
      <trkpt lat="45.29633" lon="5.89726">
        <ele>251.22</ele>
        <time>2021-07-09T15:15:57.000Z</time>
      </trkpt>
      <trkpt lat="45.29614" lon="5.89693">
        <ele>247.14</ele>
        <time>2021-07-09T15:16:02.000Z</time>
      </trkpt>
      <trkpt lat="45.29589" lon="5.89693">
        <ele>244.05</ele>
        <time>2021-07-09T15:16:07.000Z</time>
      </trkpt>
      <trkpt lat="45.29587" lon="5.8973">
        <ele>242.25</ele>
        <time>2021-07-09T15:16:12.000Z</time>
      </trkpt>
      <trkpt lat="45.29565" lon="5.89755">
        <ele>243.2</ele>
        <time>2021-07-09T15:16:17.000Z</time>
      </trkpt>
      <trkpt lat="45.29541" lon="5.89797">
        <ele>236.44</ele>
        <time>2021-07-09T15:16:22.000Z</time>
      </trkpt>
      <trkpt lat="45.29559" lon="5.8985">
        <ele>232.71</ele>
        <time>2021-07-09T15:16:27.000Z</time>
      </trkpt>
      <trkpt lat="45.29565" lon="5.89909">
        <ele>233.07</ele>
        <time>2021-07-09T15:16:32.000Z</time>
      </trkpt>
      <trkpt lat="45.29562" lon="5.89943">
        <ele>235.04</ele>
        <time>2021-07-09T15:16:37.000Z</time>
      </trkpt>
      <trkpt lat="45.29546" lon="5.89962">
        <ele>236.06</ele>
        <time>2021-07-09T15:16:42.000Z</time>
      </trkpt>
      <trkpt lat="45.29524" lon="5.89937">
        <ele>235</ele>
        <time>2021-07-09T15:16:47.000Z</time>
      </trkpt>
      <trkpt lat="45.29501" lon="5.89917">
        <ele>233.1</ele>
        <time>2021-07-09T15:16:52.000Z</time>
      </trkpt>
      <trkpt lat="45.2948" lon="5.89892">
        <ele>232.8</ele>
        <time>2021-07-09T15:16:57.000Z</time>
      </trkpt>
      <trkpt lat="45.29455" lon="5.89867">
        <ele>231.07</ele>
        <time>2021-07-09T15:17:02.000Z</time>
      </trkpt>
      <trkpt lat="45.29432" lon="5.89839">
        <ele>230.85</ele>
        <time>2021-07-09T15:17:07.000Z</time>
      </trkpt>
      <trkpt lat="45.29408" lon="5.89815">
        <ele>229.64</ele>
        <time>2021-07-09T15:17:12.000Z</time>
      </trkpt>
      <trkpt lat="45.29387" lon="5.89794">
        <ele>231.13</ele>
        <time>2021-07-09T15:17:17.000Z</time>
      </trkpt>
      <trkpt lat="45.29363" lon="5.89775">
        <ele>231.27</ele>
        <time>2021-07-09T15:17:22.000Z</time>
      </trkpt>
      <trkpt lat="45.29336" lon="5.89761">
        <ele>230.37</ele>
        <time>2021-07-09T15:17:27.000Z</time>
      </trkpt>
      <trkpt lat="45.29308" lon="5.89753">
        <ele>231.09</ele>
        <time>2021-07-09T15:17:32.000Z</time>
      </trkpt>
      <trkpt lat="45.29279" lon="5.89746">
        <ele>232.16</ele>
        <time>2021-07-09T15:17:37.000Z</time>
      </trkpt>
      <trkpt lat="45.29254" lon="5.8974">
        <ele>230.61</ele>
        <time>2021-07-09T15:17:42.000Z</time>
      </trkpt>
      <trkpt lat="45.29223" lon="5.89734">
        <ele>229.83</ele>
        <time>2021-07-09T15:17:47.000Z</time>
      </trkpt>
      <trkpt lat="45.29194" lon="5.89728">
        <ele>230.62</ele>
        <time>2021-07-09T15:17:52.000Z</time>
      </trkpt>
      <trkpt lat="45.29163" lon="5.8972">
        <ele>227.94</ele>
        <time>2021-07-09T15:17:57.000Z</time>
      </trkpt>
      <trkpt lat="45.29134" lon="5.89713">
        <ele>229.14</ele>
        <time>2021-07-09T15:18:02.000Z</time>
      </trkpt>
      <trkpt lat="45.29106" lon="5.89707">
        <ele>228.57</ele>
        <time>2021-07-09T15:18:07.000Z</time>
      </trkpt>
      <trkpt lat="45.29074" lon="5.89703">
        <ele>227.78</ele>
        <time>2021-07-09T15:18:12.000Z</time>
      </trkpt>
      <trkpt lat="45.29047" lon="5.89699">
        <ele>228.59</ele>
        <time>2021-07-09T15:18:17.000Z</time>
      </trkpt>
      <trkpt lat="45.29019" lon="5.89702">
        <ele>224</ele>
        <time>2021-07-09T15:18:22.000Z</time>
      </trkpt>
      <trkpt lat="45.2899" lon="5.89698">
        <ele>221.92</ele>
        <time>2021-07-09T15:18:27.000Z</time>
      </trkpt>
      <trkpt lat="45.28977" lon="5.89697">
        <ele>218.84</ele>
        <time>2021-07-09T15:18:32.000Z</time>
      </trkpt>
      <trkpt lat="45.28985" lon="5.89687">
        <ele>225.22</ele>
        <time>2021-07-09T15:18:39.000Z</time>
      </trkpt>
      <trkpt lat="45.28993" lon="5.89678">
        <ele>227.86</ele>
        <time>2021-07-09T15:18:44.000Z</time>
      </trkpt>
      <trkpt lat="45.29001" lon="5.89661">
        <ele>228.59</ele>
        <time>2021-07-09T15:18:49.000Z</time>
      </trkpt>
      <trkpt lat="45.29007" lon="5.89648">
        <ele>227.82</ele>
        <time>2021-07-09T15:18:54.000Z</time>
      </trkpt>
      <trkpt lat="45.29012" lon="5.89635">
        <ele>226.45</ele>
        <time>2021-07-09T15:18:59.000Z</time>
      </trkpt>
      <trkpt lat="45.29019" lon="5.89618">
        <ele>224.85</ele>
        <time>2021-07-09T15:19:04.000Z</time>
      </trkpt>
      <trkpt lat="45.29028" lon="5.89604">
        <ele>227.42</ele>
        <time>2021-07-09T15:19:09.000Z</time>
      </trkpt>
      <trkpt lat="45.29037" lon="5.89583">
        <ele>229.24</ele>
        <time>2021-07-09T15:19:14.000Z</time>
      </trkpt>
      <trkpt lat="45.2905" lon="5.89556">
        <ele>230.11</ele>
        <time>2021-07-09T15:19:19.000Z</time>
      </trkpt>
      <trkpt lat="45.29059" lon="5.89527">
        <ele>229.72</ele>
        <time>2021-07-09T15:19:24.000Z</time>
      </trkpt>
      <trkpt lat="45.2906" lon="5.89497">
        <ele>230.51</ele>
        <time>2021-07-09T15:19:29.000Z</time>
      </trkpt>
      <trkpt lat="45.29057" lon="5.89467">
        <ele>231.72</ele>
        <time>2021-07-09T15:19:34.000Z</time>
      </trkpt>
      <trkpt lat="45.29055" lon="5.89432">
        <ele>232.85</ele>
        <time>2021-07-09T15:19:39.000Z</time>
      </trkpt>
      <trkpt lat="45.2905" lon="5.89398">
        <ele>232.18</ele>
        <time>2021-07-09T15:19:44.000Z</time>
      </trkpt>
      <trkpt lat="45.29041" lon="5.89366">
        <ele>230.98</ele>
        <time>2021-07-09T15:19:49.000Z</time>
      </trkpt>
      <trkpt lat="45.2904" lon="5.89328">
        <ele>231.73</ele>
        <time>2021-07-09T15:19:54.000Z</time>
      </trkpt>
      <trkpt lat="45.29032" lon="5.89287">
        <ele>234.07</ele>
        <time>2021-07-09T15:19:59.000Z</time>
      </trkpt>
      <trkpt lat="45.29026" lon="5.8925">
        <ele>237.33</ele>
        <time>2021-07-09T15:20:04.000Z</time>
      </trkpt>
      <trkpt lat="45.29013" lon="5.89216">
        <ele>236.67</ele>
        <time>2021-07-09T15:20:09.000Z</time>
      </trkpt>
      <trkpt lat="45.29001" lon="5.89183">
        <ele>236.79</ele>
        <time>2021-07-09T15:20:14.000Z</time>
      </trkpt>
      <trkpt lat="45.28984" lon="5.89153">
        <ele>237.73</ele>
        <time>2021-07-09T15:20:19.000Z</time>
      </trkpt>
      <trkpt lat="45.2897" lon="5.89127">
        <ele>237.11</ele>
        <time>2021-07-09T15:20:24.000Z</time>
      </trkpt>
      <trkpt lat="45.28963" lon="5.89119">
        <ele>235.1</ele>
        <time>2021-07-09T15:20:29.000Z</time>
      </trkpt>
      <trkpt lat="45.28972" lon="5.89139">
        <ele>237.49</ele>
        <time>2021-07-09T15:20:34.000Z</time>
      </trkpt>
      <trkpt lat="45.28982" lon="5.89157">
        <ele>241.01</ele>
        <time>2021-07-09T15:20:39.000Z</time>
      </trkpt>
      <trkpt lat="45.28992" lon="5.89179">
        <ele>239.98</ele>
        <time>2021-07-09T15:20:44.000Z</time>
      </trkpt>
      <trkpt lat="45.29011" lon="5.89208">
        <ele>236.28</ele>
        <time>2021-07-09T15:20:49.000Z</time>
      </trkpt>
      <trkpt lat="45.29026" lon="5.89237">
        <ele>237.65</ele>
        <time>2021-07-09T15:20:54.000Z</time>
      </trkpt>
      <trkpt lat="45.29027" lon="5.89276">
        <ele>236.82</ele>
        <time>2021-07-09T15:20:59.000Z</time>
      </trkpt>
      <trkpt lat="45.29029" lon="5.89304">
        <ele>236.28</ele>
        <time>2021-07-09T15:21:04.000Z</time>
      </trkpt>
      <trkpt lat="45.29021" lon="5.89315">
        <ele>233.1</ele>
        <time>2021-07-09T15:21:19.000Z</time>
      </trkpt>
      <trkpt lat="45.28999" lon="5.8932">
        <ele>230.9</ele>
        <time>2021-07-09T15:21:24.000Z</time>
      </trkpt>
      <trkpt lat="45.28975" lon="5.89309">
        <ele>231.25</ele>
        <time>2021-07-09T15:21:29.000Z</time>
      </trkpt>
      <trkpt lat="45.28949" lon="5.89292">
        <ele>231.93</ele>
        <time>2021-07-09T15:21:34.000Z</time>
      </trkpt>
      <trkpt lat="45.28926" lon="5.89256">
        <ele>232.39</ele>
        <time>2021-07-09T15:21:39.000Z</time>
      </trkpt>
      <trkpt lat="45.28915" lon="5.89218">
        <ele>232.4</ele>
        <time>2021-07-09T15:21:44.000Z</time>
      </trkpt>
      <trkpt lat="45.28899" lon="5.89187">
        <ele>229.63</ele>
        <time>2021-07-09T15:21:49.000Z</time>
      </trkpt>
      <trkpt lat="45.2887" lon="5.89175">
        <ele>230.36</ele>
        <time>2021-07-09T15:21:54.000Z</time>
      </trkpt>
      <trkpt lat="45.2884" lon="5.89157">
        <ele>230.26</ele>
        <time>2021-07-09T15:21:59.000Z</time>
      </trkpt>
      <trkpt lat="45.28819" lon="5.89134">
        <ele>230.23</ele>
        <time>2021-07-09T15:22:04.000Z</time>
      </trkpt>
      <trkpt lat="45.28812" lon="5.89116">
        <ele>231.47</ele>
        <time>2021-07-09T15:22:09.000Z</time>
      </trkpt>
      <trkpt lat="45.28818" lon="5.89098">
        <ele>231.99</ele>
        <time>2021-07-09T15:22:14.000Z</time>
      </trkpt>
      <trkpt lat="45.2881" lon="5.8908">
        <ele>231.41</ele>
        <time>2021-07-09T15:22:19.000Z</time>
      </trkpt>
      <trkpt lat="45.28797" lon="5.89054">
        <ele>231.33</ele>
        <time>2021-07-09T15:22:24.000Z</time>
      </trkpt>
      <trkpt lat="45.28779" lon="5.89025">
        <ele>231.93</ele>
        <time>2021-07-09T15:22:29.000Z</time>
      </trkpt>
      <trkpt lat="45.28765" lon="5.88998">
        <ele>233.51</ele>
        <time>2021-07-09T15:22:34.000Z</time>
      </trkpt>
      <trkpt lat="45.28749" lon="5.88972">
        <ele>234.67</ele>
        <time>2021-07-09T15:22:39.000Z</time>
      </trkpt>
      <trkpt lat="45.28737" lon="5.88945">
        <ele>235.56</ele>
        <time>2021-07-09T15:22:44.000Z</time>
      </trkpt>
      <trkpt lat="45.28725" lon="5.88921">
        <ele>235.91</ele>
        <time>2021-07-09T15:22:49.000Z</time>
      </trkpt>
      <trkpt lat="45.28707" lon="5.88895">
        <ele>236.01</ele>
        <time>2021-07-09T15:22:54.000Z</time>
      </trkpt>
      <trkpt lat="45.28688" lon="5.88864">
        <ele>237.53</ele>
        <time>2021-07-09T15:22:59.000Z</time>
      </trkpt>
      <trkpt lat="45.28669" lon="5.88836">
        <ele>236.22</ele>
        <time>2021-07-09T15:23:04.000Z</time>
      </trkpt>
      <trkpt lat="45.28656" lon="5.88813">
        <ele>237.63</ele>
        <time>2021-07-09T15:23:09.000Z</time>
      </trkpt>
      <trkpt lat="45.28642" lon="5.88791">
        <ele>238.4</ele>
        <time>2021-07-09T15:23:14.000Z</time>
      </trkpt>
      <trkpt lat="45.2862" lon="5.88772">
        <ele>240.59</ele>
        <time>2021-07-09T15:23:19.000Z</time>
      </trkpt>
      <trkpt lat="45.28608" lon="5.88752">
        <ele>240.26</ele>
        <time>2021-07-09T15:23:24.000Z</time>
      </trkpt>
      <trkpt lat="45.28585" lon="5.88737">
        <ele>245.14</ele>
        <time>2021-07-09T15:23:29.000Z</time>
      </trkpt>
      <trkpt lat="45.28566" lon="5.88715">
        <ele>244.65</ele>
        <time>2021-07-09T15:23:34.000Z</time>
      </trkpt>
      <trkpt lat="45.28542" lon="5.88693">
        <ele>248.39</ele>
        <time>2021-07-09T15:23:39.000Z</time>
      </trkpt>
      <trkpt lat="45.28536" lon="5.88674">
        <ele>245.76</ele>
        <time>2021-07-09T15:23:44.000Z</time>
      </trkpt>
      <trkpt lat="45.2852" lon="5.88669">
        <ele>245.62</ele>
        <time>2021-07-09T15:23:49.000Z</time>
      </trkpt>
      <trkpt lat="45.28511" lon="5.88672">
        <ele>245.61</ele>
        <time>2021-07-09T15:23:54.000Z</time>
      </trkpt>
      <trkpt lat="45.28508" lon="5.88655">
        <ele>245.92</ele>
        <time>2021-07-09T15:23:59.000Z</time>
      </trkpt>
      <trkpt lat="45.285" lon="5.88637">
        <ele>246.12</ele>
        <time>2021-07-09T15:24:04.000Z</time>
      </trkpt>
      <trkpt lat="45.2849" lon="5.88623">
        <ele>249.18</ele>
        <time>2021-07-09T15:24:09.000Z</time>
      </trkpt>
      <trkpt lat="45.2848" lon="5.88605">
        <ele>250.96</ele>
        <time>2021-07-09T15:24:14.000Z</time>
      </trkpt>
      <trkpt lat="45.28472" lon="5.88586">
        <ele>251.24</ele>
        <time>2021-07-09T15:24:19.000Z</time>
      </trkpt>
      <trkpt lat="45.28454" lon="5.88569">
        <ele>249.07</ele>
        <time>2021-07-09T15:24:24.000Z</time>
      </trkpt>
      <trkpt lat="45.28432" lon="5.88548">
        <ele>249.88</ele>
        <time>2021-07-09T15:24:29.000Z</time>
      </trkpt>
      <trkpt lat="45.28411" lon="5.88526">
        <ele>250.63</ele>
        <time>2021-07-09T15:24:34.000Z</time>
      </trkpt>
      <trkpt lat="45.28395" lon="5.88511">
        <ele>251.25</ele>
        <time>2021-07-09T15:24:39.000Z</time>
      </trkpt>
      <trkpt lat="45.28381" lon="5.88503">
        <ele>251.35</ele>
        <time>2021-07-09T15:24:44.000Z</time>
      </trkpt>
      <trkpt lat="45.28371" lon="5.88499">
        <ele>249.41</ele>
        <time>2021-07-09T15:24:50.000Z</time>
      </trkpt>
      <trkpt lat="45.28358" lon="5.88482">
        <ele>251.42</ele>
        <time>2021-07-09T15:24:55.000Z</time>
      </trkpt>
      <trkpt lat="45.28343" lon="5.88461">
        <ele>249.69</ele>
        <time>2021-07-09T15:25:00.000Z</time>
      </trkpt>
      <trkpt lat="45.28324" lon="5.88439">
        <ele>251.47</ele>
        <time>2021-07-09T15:25:05.000Z</time>
      </trkpt>
      <trkpt lat="45.28311" lon="5.88422">
        <ele>252.15</ele>
        <time>2021-07-09T15:25:10.000Z</time>
      </trkpt>
      <trkpt lat="45.28292" lon="5.88414">
        <ele>251.48</ele>
        <time>2021-07-09T15:25:15.000Z</time>
      </trkpt>
      <trkpt lat="45.2827" lon="5.88388">
        <ele>250.2</ele>
        <time>2021-07-09T15:25:20.000Z</time>
      </trkpt>
      <trkpt lat="45.28268" lon="5.88356">
        <ele>248.58</ele>
        <time>2021-07-09T15:25:25.000Z</time>
      </trkpt>
      <trkpt lat="45.28254" lon="5.8834">
        <ele>249.81</ele>
        <time>2021-07-09T15:25:30.000Z</time>
      </trkpt>
      <trkpt lat="45.28238" lon="5.8832">
        <ele>250.3</ele>
        <time>2021-07-09T15:25:35.000Z</time>
      </trkpt>
      <trkpt lat="45.28216" lon="5.88299">
        <ele>251.42</ele>
        <time>2021-07-09T15:25:40.000Z</time>
      </trkpt>
      <trkpt lat="45.28193" lon="5.88278">
        <ele>249.64</ele>
        <time>2021-07-09T15:25:45.000Z</time>
      </trkpt>
      <trkpt lat="45.28173" lon="5.88246">
        <ele>250.48</ele>
        <time>2021-07-09T15:25:50.000Z</time>
      </trkpt>
      <trkpt lat="45.28152" lon="5.88218">
        <ele>248.54</ele>
        <time>2021-07-09T15:25:55.000Z</time>
      </trkpt>
      <trkpt lat="45.28131" lon="5.88192">
        <ele>248.47</ele>
        <time>2021-07-09T15:26:00.000Z</time>
      </trkpt>
      <trkpt lat="45.28107" lon="5.88176">
        <ele>247.58</ele>
        <time>2021-07-09T15:26:05.000Z</time>
      </trkpt>
      <trkpt lat="45.28084" lon="5.88165">
        <ele>246.33</ele>
        <time>2021-07-09T15:26:10.000Z</time>
      </trkpt>
      <trkpt lat="45.28077" lon="5.88139">
        <ele>250.88</ele>
        <time>2021-07-09T15:26:15.000Z</time>
      </trkpt>
      <trkpt lat="45.28071" lon="5.88126">
        <ele>252.01</ele>
        <time>2021-07-09T15:26:21.000Z</time>
      </trkpt>
      <trkpt lat="45.28059" lon="5.88106">
        <ele>251.31</ele>
        <time>2021-07-09T15:26:26.000Z</time>
      </trkpt>
      <trkpt lat="45.2805" lon="5.88075">
        <ele>250.22</ele>
        <time>2021-07-09T15:26:31.000Z</time>
      </trkpt>
      <trkpt lat="45.28041" lon="5.88054">
        <ele>249.35</ele>
        <time>2021-07-09T15:26:36.000Z</time>
      </trkpt>
      <trkpt lat="45.28026" lon="5.8805">
        <ele>251.77</ele>
        <time>2021-07-09T15:26:41.000Z</time>
      </trkpt>
      <trkpt lat="45.28009" lon="5.88047">
        <ele>249.3</ele>
        <time>2021-07-09T15:26:46.000Z</time>
      </trkpt>
      <trkpt lat="45.28003" lon="5.88036">
        <ele>246.68</ele>
        <time>2021-07-09T15:27:31.000Z</time>
      </trkpt>
      <trkpt lat="45.27991" lon="5.88015">
        <ele>245.81</ele>
        <time>2021-07-09T15:27:36.000Z</time>
      </trkpt>
      <trkpt lat="45.27987" lon="5.87991">
        <ele>248.06</ele>
        <time>2021-07-09T15:27:41.000Z</time>
      </trkpt>
      <trkpt lat="45.27979" lon="5.87973">
        <ele>250</ele>
        <time>2021-07-09T15:27:46.000Z</time>
      </trkpt>
      <trkpt lat="45.27963" lon="5.87973">
        <ele>250.46</ele>
        <time>2021-07-09T15:27:51.000Z</time>
      </trkpt>
      <trkpt lat="45.27938" lon="5.87959">
        <ele>253.55</ele>
        <time>2021-07-09T15:27:56.000Z</time>
      </trkpt>
      <trkpt lat="45.27912" lon="5.87936">
        <ele>255.06</ele>
        <time>2021-07-09T15:28:01.000Z</time>
      </trkpt>
      <trkpt lat="45.27898" lon="5.87911">
        <ele>256.21</ele>
        <time>2021-07-09T15:28:06.000Z</time>
      </trkpt>
      <trkpt lat="45.27874" lon="5.87883">
        <ele>255.79</ele>
        <time>2021-07-09T15:28:11.000Z</time>
      </trkpt>
      <trkpt lat="45.27858" lon="5.87852">
        <ele>253.95</ele>
        <time>2021-07-09T15:28:16.000Z</time>
      </trkpt>
      <trkpt lat="45.2783" lon="5.87828">
        <ele>252.24</ele>
        <time>2021-07-09T15:28:21.000Z</time>
      </trkpt>
      <trkpt lat="45.27801" lon="5.87797">
        <ele>251.44</ele>
        <time>2021-07-09T15:28:26.000Z</time>
      </trkpt>
      <trkpt lat="45.27787" lon="5.87779">
        <ele>252.25</ele>
        <time>2021-07-09T15:28:31.000Z</time>
      </trkpt>
      <trkpt lat="45.27776" lon="5.87765">
        <ele>253.56</ele>
        <time>2021-07-09T15:28:36.000Z</time>
      </trkpt>
      <trkpt lat="45.27764" lon="5.8775">
        <ele>254</ele>
        <time>2021-07-09T15:28:41.000Z</time>
      </trkpt>
      <trkpt lat="45.27738" lon="5.87733">
        <ele>252.22</ele>
        <time>2021-07-09T15:28:46.000Z</time>
      </trkpt>
      <trkpt lat="45.27716" lon="5.87715">
        <ele>252.45</ele>
        <time>2021-07-09T15:28:51.000Z</time>
      </trkpt>
      <trkpt lat="45.27694" lon="5.87698">
        <ele>251.27</ele>
        <time>2021-07-09T15:28:56.000Z</time>
      </trkpt>
      <trkpt lat="45.27671" lon="5.87681">
        <ele>250.24</ele>
        <time>2021-07-09T15:29:01.000Z</time>
      </trkpt>
      <trkpt lat="45.27639" lon="5.87668">
        <ele>253.51</ele>
        <time>2021-07-09T15:29:06.000Z</time>
      </trkpt>
      <trkpt lat="45.27614" lon="5.87656">
        <ele>255.82</ele>
        <time>2021-07-09T15:29:11.000Z</time>
      </trkpt>
      <trkpt lat="45.27598" lon="5.87637">
        <ele>252.92</ele>
        <time>2021-07-09T15:29:16.000Z</time>
      </trkpt>
      <trkpt lat="45.27584" lon="5.87629">
        <ele>259.34</ele>
        <time>2021-07-09T15:29:21.000Z</time>
      </trkpt>
      <trkpt lat="45.27574" lon="5.87625">
        <ele>260.93</ele>
        <time>2021-07-09T15:29:26.000Z</time>
      </trkpt>
      <trkpt lat="45.27565" lon="5.87619">
        <ele>258.75</ele>
        <time>2021-07-09T15:29:41.000Z</time>
      </trkpt>
      <trkpt lat="45.2754" lon="5.87613">
        <ele>259.3</ele>
        <time>2021-07-09T15:29:46.000Z</time>
      </trkpt>
      <trkpt lat="45.27518" lon="5.87601">
        <ele>259.27</ele>
        <time>2021-07-09T15:29:51.000Z</time>
      </trkpt>
      <trkpt lat="45.27494" lon="5.87586">
        <ele>259.86</ele>
        <time>2021-07-09T15:29:56.000Z</time>
      </trkpt>
      <trkpt lat="45.2747" lon="5.87573">
        <ele>258.49</ele>
        <time>2021-07-09T15:30:01.000Z</time>
      </trkpt>
      <trkpt lat="45.27442" lon="5.87557">
        <ele>256.92</ele>
        <time>2021-07-09T15:30:06.000Z</time>
      </trkpt>
      <trkpt lat="45.27416" lon="5.8754">
        <ele>258.42</ele>
        <time>2021-07-09T15:30:11.000Z</time>
      </trkpt>
      <trkpt lat="45.27387" lon="5.87527">
        <ele>256.52</ele>
        <time>2021-07-09T15:30:16.000Z</time>
      </trkpt>
      <trkpt lat="45.27364" lon="5.87511">
        <ele>255.67</ele>
        <time>2021-07-09T15:30:21.000Z</time>
      </trkpt>
      <trkpt lat="45.27347" lon="5.875">
        <ele>255.24</ele>
        <time>2021-07-09T15:30:26.000Z</time>
      </trkpt>
      <trkpt lat="45.27326" lon="5.87484">
        <ele>254.98</ele>
        <time>2021-07-09T15:30:31.000Z</time>
      </trkpt>
      <trkpt lat="45.27292" lon="5.87472">
        <ele>256.72</ele>
        <time>2021-07-09T15:30:36.000Z</time>
      </trkpt>
      <trkpt lat="45.27263" lon="5.8746">
        <ele>257.24</ele>
        <time>2021-07-09T15:30:41.000Z</time>
      </trkpt>
      <trkpt lat="45.27234" lon="5.87443">
        <ele>258.09</ele>
        <time>2021-07-09T15:30:46.000Z</time>
      </trkpt>
      <trkpt lat="45.27209" lon="5.87418">
        <ele>258.73</ele>
        <time>2021-07-09T15:30:51.000Z</time>
      </trkpt>
      <trkpt lat="45.27195" lon="5.87384">
        <ele>259.2</ele>
        <time>2021-07-09T15:30:56.000Z</time>
      </trkpt>
      <trkpt lat="45.27164" lon="5.87357">
        <ele>259.52</ele>
        <time>2021-07-09T15:31:01.000Z</time>
      </trkpt>
      <trkpt lat="45.27151" lon="5.87329">
        <ele>259.2</ele>
        <time>2021-07-09T15:31:06.000Z</time>
      </trkpt>
      <trkpt lat="45.2715" lon="5.87311">
        <ele>261.68</ele>
        <time>2021-07-09T15:31:11.000Z</time>
      </trkpt>
      <trkpt lat="45.27133" lon="5.87297">
        <ele>262.84</ele>
        <time>2021-07-09T15:31:16.000Z</time>
      </trkpt>
      <trkpt lat="45.27118" lon="5.87276">
        <ele>263</ele>
        <time>2021-07-09T15:31:21.000Z</time>
      </trkpt>
      <trkpt lat="45.27097" lon="5.87258">
        <ele>262.89</ele>
        <time>2021-07-09T15:31:26.000Z</time>
      </trkpt>
      <trkpt lat="45.27078" lon="5.87243">
        <ele>261.95</ele>
        <time>2021-07-09T15:31:31.000Z</time>
      </trkpt>
      <trkpt lat="45.27058" lon="5.87225">
        <ele>262.59</ele>
        <time>2021-07-09T15:31:36.000Z</time>
      </trkpt>
      <trkpt lat="45.27035" lon="5.87198">
        <ele>262.73</ele>
        <time>2021-07-09T15:31:41.000Z</time>
      </trkpt>
      <trkpt lat="45.27008" lon="5.87181">
        <ele>265.67</ele>
        <time>2021-07-09T15:31:46.000Z</time>
      </trkpt>
      <trkpt lat="45.26986" lon="5.87151">
        <ele>265</ele>
        <time>2021-07-09T15:31:51.000Z</time>
      </trkpt>
      <trkpt lat="45.26957" lon="5.87128">
        <ele>263.86</ele>
        <time>2021-07-09T15:31:56.000Z</time>
      </trkpt>
      <trkpt lat="45.26933" lon="5.87105">
        <ele>263.45</ele>
        <time>2021-07-09T15:32:01.000Z</time>
      </trkpt>
      <trkpt lat="45.26904" lon="5.87093">
        <ele>264.2</ele>
        <time>2021-07-09T15:32:06.000Z</time>
      </trkpt>
      <trkpt lat="45.2688" lon="5.87075">
        <ele>265.03</ele>
        <time>2021-07-09T15:32:11.000Z</time>
      </trkpt>
      <trkpt lat="45.26856" lon="5.87055">
        <ele>267.38</ele>
        <time>2021-07-09T15:32:16.000Z</time>
      </trkpt>
      <trkpt lat="45.26832" lon="5.8703">
        <ele>267.2</ele>
        <time>2021-07-09T15:32:21.000Z</time>
      </trkpt>
      <trkpt lat="45.26808" lon="5.87">
        <ele>263.84</ele>
        <time>2021-07-09T15:32:26.000Z</time>
      </trkpt>
      <trkpt lat="45.26783" lon="5.86974">
        <ele>264.58</ele>
        <time>2021-07-09T15:32:31.000Z</time>
      </trkpt>
      <trkpt lat="45.26753" lon="5.86949">
        <ele>264.07</ele>
        <time>2021-07-09T15:32:36.000Z</time>
      </trkpt>
      <trkpt lat="45.26732" lon="5.86927">
        <ele>264.14</ele>
        <time>2021-07-09T15:32:41.000Z</time>
      </trkpt>
      <trkpt lat="45.26708" lon="5.86917">
        <ele>262.19</ele>
        <time>2021-07-09T15:32:46.000Z</time>
      </trkpt>
      <trkpt lat="45.26682" lon="5.869">
        <ele>262.12</ele>
        <time>2021-07-09T15:32:51.000Z</time>
      </trkpt>
      <trkpt lat="45.2666" lon="5.86883">
        <ele>261.5</ele>
        <time>2021-07-09T15:32:56.000Z</time>
      </trkpt>
      <trkpt lat="45.26635" lon="5.86876">
        <ele>264.84</ele>
        <time>2021-07-09T15:33:01.000Z</time>
      </trkpt>
      <trkpt lat="45.26615" lon="5.86854">
        <ele>266.04</ele>
        <time>2021-07-09T15:33:06.000Z</time>
      </trkpt>
      <trkpt lat="45.26599" lon="5.86836">
        <ele>264.98</ele>
        <time>2021-07-09T15:33:11.000Z</time>
      </trkpt>
      <trkpt lat="45.26574" lon="5.86824">
        <ele>264.51</ele>
        <time>2021-07-09T15:33:16.000Z</time>
      </trkpt>
      <trkpt lat="45.26557" lon="5.86816">
        <ele>268.01</ele>
        <time>2021-07-09T15:33:21.000Z</time>
      </trkpt>
      <trkpt lat="45.26532" lon="5.86806">
        <ele>270.8</ele>
        <time>2021-07-09T15:33:26.000Z</time>
      </trkpt>
      <trkpt lat="45.2651" lon="5.86791">
        <ele>267.02</ele>
        <time>2021-07-09T15:33:31.000Z</time>
      </trkpt>
      <trkpt lat="45.26483" lon="5.86775">
        <ele>265.65</ele>
        <time>2021-07-09T15:33:36.000Z</time>
      </trkpt>
      <trkpt lat="45.26466" lon="5.86757">
        <ele>268.4</ele>
        <time>2021-07-09T15:33:41.000Z</time>
      </trkpt>
      <trkpt lat="45.26445" lon="5.86739">
        <ele>273.14</ele>
        <time>2021-07-09T15:33:46.000Z</time>
      </trkpt>
      <trkpt lat="45.26427" lon="5.86723">
        <ele>278.68</ele>
        <time>2021-07-09T15:33:51.000Z</time>
      </trkpt>
      <trkpt lat="45.26397" lon="5.86702">
        <ele>278.74</ele>
        <time>2021-07-09T15:33:56.000Z</time>
      </trkpt>
      <trkpt lat="45.26372" lon="5.86691">
        <ele>280.22</ele>
        <time>2021-07-09T15:34:01.000Z</time>
      </trkpt>
      <trkpt lat="45.26348" lon="5.86674">
        <ele>283.61</ele>
        <time>2021-07-09T15:34:06.000Z</time>
      </trkpt>
      <trkpt lat="45.26328" lon="5.8665">
        <ele>281.68</ele>
        <time>2021-07-09T15:34:11.000Z</time>
      </trkpt>
      <trkpt lat="45.26305" lon="5.86633">
        <ele>278.64</ele>
        <time>2021-07-09T15:34:16.000Z</time>
      </trkpt>
      <trkpt lat="45.26286" lon="5.86623">
        <ele>276.92</ele>
        <time>2021-07-09T15:34:21.000Z</time>
      </trkpt>
      <trkpt lat="45.26267" lon="5.86622">
        <ele>275.51</ele>
        <time>2021-07-09T15:34:26.000Z</time>
      </trkpt>
      <trkpt lat="45.26255" lon="5.86616">
        <ele>275.48</ele>
        <time>2021-07-09T15:34:31.000Z</time>
      </trkpt>
      <trkpt lat="45.26246" lon="5.86618">
        <ele>275.89</ele>
        <time>2021-07-09T15:34:39.000Z</time>
      </trkpt>
      <trkpt lat="45.26233" lon="5.86621">
        <ele>272.29</ele>
        <time>2021-07-09T15:36:04.000Z</time>
      </trkpt>
      <trkpt lat="45.26196" lon="5.86625">
        <ele>266.72</ele>
        <time>2021-07-09T15:36:09.000Z</time>
      </trkpt>
      <trkpt lat="45.2617" lon="5.86612">
        <ele>267</ele>
        <time>2021-07-09T15:36:14.000Z</time>
      </trkpt>
      <trkpt lat="45.26146" lon="5.86597">
        <ele>269.34</ele>
        <time>2021-07-09T15:36:19.000Z</time>
      </trkpt>
      <trkpt lat="45.26123" lon="5.86581">
        <ele>270.08</ele>
        <time>2021-07-09T15:36:24.000Z</time>
      </trkpt>
      <trkpt lat="45.26096" lon="5.86584">
        <ele>276.26</ele>
        <time>2021-07-09T15:36:29.000Z</time>
      </trkpt>
      <trkpt lat="45.26078" lon="5.86603">
        <ele>276.3</ele>
        <time>2021-07-09T15:36:34.000Z</time>
      </trkpt>
      <trkpt lat="45.26057" lon="5.86629">
        <ele>271.22</ele>
        <time>2021-07-09T15:36:39.000Z</time>
      </trkpt>
      <trkpt lat="45.26039" lon="5.86661">
        <ele>269.49</ele>
        <time>2021-07-09T15:36:44.000Z</time>
      </trkpt>
      <trkpt lat="45.26027" lon="5.86699">
        <ele>268.41</ele>
        <time>2021-07-09T15:36:49.000Z</time>
      </trkpt>
      <trkpt lat="45.2603" lon="5.86742">
        <ele>269.03</ele>
        <time>2021-07-09T15:36:54.000Z</time>
      </trkpt>
      <trkpt lat="45.26027" lon="5.86788">
        <ele>268.67</ele>
        <time>2021-07-09T15:36:59.000Z</time>
      </trkpt>
      <trkpt lat="45.26002" lon="5.86819">
        <ele>265.1</ele>
        <time>2021-07-09T15:37:04.000Z</time>
      </trkpt>
      <trkpt lat="45.25981" lon="5.8686">
        <ele>261.92</ele>
        <time>2021-07-09T15:37:09.000Z</time>
      </trkpt>
      <trkpt lat="45.25956" lon="5.86899">
        <ele>256.7</ele>
        <time>2021-07-09T15:37:14.000Z</time>
      </trkpt>
      <trkpt lat="45.25927" lon="5.86933">
        <ele>255.09</ele>
        <time>2021-07-09T15:37:19.000Z</time>
      </trkpt>
      <trkpt lat="45.25902" lon="5.86973">
        <ele>253.28</ele>
        <time>2021-07-09T15:37:24.000Z</time>
      </trkpt>
      <trkpt lat="45.25863" lon="5.86985">
        <ele>249.32</ele>
        <time>2021-07-09T15:37:29.000Z</time>
      </trkpt>
      <trkpt lat="45.25819" lon="5.8698">
        <ele>246.86</ele>
        <time>2021-07-09T15:37:34.000Z</time>
      </trkpt>
      <trkpt lat="45.25778" lon="5.86994">
        <ele>241.8</ele>
        <time>2021-07-09T15:37:39.000Z</time>
      </trkpt>
      <trkpt lat="45.25733" lon="5.87028">
        <ele>239.74</ele>
        <time>2021-07-09T15:37:44.000Z</time>
      </trkpt>
      <trkpt lat="45.25688" lon="5.8705">
        <ele>239.24</ele>
        <time>2021-07-09T15:37:49.000Z</time>
      </trkpt>
      <trkpt lat="45.25644" lon="5.87074">
        <ele>237.1</ele>
        <time>2021-07-09T15:37:54.000Z</time>
      </trkpt>
      <trkpt lat="45.256" lon="5.87098">
        <ele>236.48</ele>
        <time>2021-07-09T15:37:59.000Z</time>
      </trkpt>
      <trkpt lat="45.25561" lon="5.87092">
        <ele>235.16</ele>
        <time>2021-07-09T15:38:04.000Z</time>
      </trkpt>
      <trkpt lat="45.25521" lon="5.87089">
        <ele>234.54</ele>
        <time>2021-07-09T15:38:09.000Z</time>
      </trkpt>
      <trkpt lat="45.25486" lon="5.87087">
        <ele>235.82</ele>
        <time>2021-07-09T15:38:14.000Z</time>
      </trkpt>
      <trkpt lat="45.25451" lon="5.87078">
        <ele>235.73</ele>
        <time>2021-07-09T15:38:19.000Z</time>
      </trkpt>
      <trkpt lat="45.2542" lon="5.87071">
        <ele>235.57</ele>
        <time>2021-07-09T15:38:24.000Z</time>
      </trkpt>
      <trkpt lat="45.25388" lon="5.87077">
        <ele>232.52</ele>
        <time>2021-07-09T15:38:29.000Z</time>
      </trkpt>
      <trkpt lat="45.25358" lon="5.87082">
        <ele>232.39</ele>
        <time>2021-07-09T15:38:34.000Z</time>
      </trkpt>
      <trkpt lat="45.25323" lon="5.87091">
        <ele>232.24</ele>
        <time>2021-07-09T15:38:39.000Z</time>
      </trkpt>
      <trkpt lat="45.25295" lon="5.87118">
        <ele>229.13</ele>
        <time>2021-07-09T15:38:44.000Z</time>
      </trkpt>
      <trkpt lat="45.25275" lon="5.87149">
        <ele>229.93</ele>
        <time>2021-07-09T15:38:49.000Z</time>
      </trkpt>
      <trkpt lat="45.25253" lon="5.87183">
        <ele>229.54</ele>
        <time>2021-07-09T15:38:54.000Z</time>
      </trkpt>
      <trkpt lat="45.25231" lon="5.87217">
        <ele>228.99</ele>
        <time>2021-07-09T15:38:59.000Z</time>
      </trkpt>
      <trkpt lat="45.25207" lon="5.87244">
        <ele>226.52</ele>
        <time>2021-07-09T15:39:04.000Z</time>
      </trkpt>
      <trkpt lat="45.25182" lon="5.87272">
        <ele>227.71</ele>
        <time>2021-07-09T15:39:09.000Z</time>
      </trkpt>
      <trkpt lat="45.25154" lon="5.87297">
        <ele>229.79</ele>
        <time>2021-07-09T15:39:14.000Z</time>
      </trkpt>
      <trkpt lat="45.25138" lon="5.87316">
        <ele>230.58</ele>
        <time>2021-07-09T15:39:19.000Z</time>
      </trkpt>
      <trkpt lat="45.25128" lon="5.87331">
        <ele>232.49</ele>
        <time>2021-07-09T15:39:24.000Z</time>
      </trkpt>
      <trkpt lat="45.25118" lon="5.87342">
        <ele>230.76</ele>
        <time>2021-07-09T15:39:29.000Z</time>
      </trkpt>
      <trkpt lat="45.25107" lon="5.8735">
        <ele>229.85</ele>
        <time>2021-07-09T15:39:34.000Z</time>
      </trkpt>
      <trkpt lat="45.25097" lon="5.87364">
        <ele>230.96</ele>
        <time>2021-07-09T15:39:39.000Z</time>
      </trkpt>
      <trkpt lat="45.25081" lon="5.87384">
        <ele>232.07</ele>
        <time>2021-07-09T15:39:44.000Z</time>
      </trkpt>
      <trkpt lat="45.25069" lon="5.874">
        <ele>235.21</ele>
        <time>2021-07-09T15:39:49.000Z</time>
      </trkpt>
      <trkpt lat="45.25057" lon="5.87417">
        <ele>236.02</ele>
        <time>2021-07-09T15:39:54.000Z</time>
      </trkpt>
      <trkpt lat="45.25044" lon="5.87436">
        <ele>241.45</ele>
        <time>2021-07-09T15:39:59.000Z</time>
      </trkpt>
      <trkpt lat="45.25026" lon="5.87456">
        <ele>243.81</ele>
        <time>2021-07-09T15:40:04.000Z</time>
      </trkpt>
      <trkpt lat="45.25006" lon="5.87476">
        <ele>240.32</ele>
        <time>2021-07-09T15:40:09.000Z</time>
      </trkpt>
      <trkpt lat="45.24983" lon="5.87498">
        <ele>238.58</ele>
        <time>2021-07-09T15:40:14.000Z</time>
      </trkpt>
      <trkpt lat="45.24952" lon="5.87515">
        <ele>235.01</ele>
        <time>2021-07-09T15:40:19.000Z</time>
      </trkpt>
      <trkpt lat="45.24914" lon="5.87519">
        <ele>233.79</ele>
        <time>2021-07-09T15:40:24.000Z</time>
      </trkpt>
      <trkpt lat="45.24874" lon="5.87512">
        <ele>232.88</ele>
        <time>2021-07-09T15:40:29.000Z</time>
      </trkpt>
      <trkpt lat="45.24833" lon="5.87512">
        <ele>231.78</ele>
        <time>2021-07-09T15:40:34.000Z</time>
      </trkpt>
      <trkpt lat="45.24812" lon="5.87497">
        <ele>230.67</ele>
        <time>2021-07-09T15:40:39.000Z</time>
      </trkpt>
      <trkpt lat="45.24828" lon="5.87475">
        <ele>231.14</ele>
        <time>2021-07-09T15:40:44.000Z</time>
      </trkpt>
      <trkpt lat="45.24847" lon="5.87446">
        <ele>231.31</ele>
        <time>2021-07-09T15:40:49.000Z</time>
      </trkpt>
      <trkpt lat="45.24871" lon="5.87411">
        <ele>232.1</ele>
        <time>2021-07-09T15:40:54.000Z</time>
      </trkpt>
      <trkpt lat="45.24888" lon="5.87379">
        <ele>232.58</ele>
        <time>2021-07-09T15:40:59.000Z</time>
      </trkpt>
      <trkpt lat="45.24909" lon="5.87357">
        <ele>232.42</ele>
        <time>2021-07-09T15:41:04.000Z</time>
      </trkpt>
      <trkpt lat="45.24928" lon="5.87328">
        <ele>232.51</ele>
        <time>2021-07-09T15:41:09.000Z</time>
      </trkpt>
      <trkpt lat="45.24916" lon="5.87289">
        <ele>232.16</ele>
        <time>2021-07-09T15:41:14.000Z</time>
      </trkpt>
      <trkpt lat="45.24893" lon="5.87249">
        <ele>229.77</ele>
        <time>2021-07-09T15:41:19.000Z</time>
      </trkpt>
      <trkpt lat="45.24875" lon="5.87216">
        <ele>228.28</ele>
        <time>2021-07-09T15:41:24.000Z</time>
      </trkpt>
      <trkpt lat="45.24857" lon="5.87181">
        <ele>225.83</ele>
        <time>2021-07-09T15:41:29.000Z</time>
      </trkpt>
      <trkpt lat="45.24839" lon="5.87142">
        <ele>225.19</ele>
        <time>2021-07-09T15:41:34.000Z</time>
      </trkpt>
      <trkpt lat="45.24819" lon="5.87109">
        <ele>226.53</ele>
        <time>2021-07-09T15:41:39.000Z</time>
      </trkpt>
      <trkpt lat="45.24802" lon="5.87073">
        <ele>226.82</ele>
        <time>2021-07-09T15:41:44.000Z</time>
      </trkpt>
      <trkpt lat="45.24783" lon="5.87043">
        <ele>227.02</ele>
        <time>2021-07-09T15:41:49.000Z</time>
      </trkpt>
      <trkpt lat="45.24764" lon="5.87004">
        <ele>225.22</ele>
        <time>2021-07-09T15:41:54.000Z</time>
      </trkpt>
      <trkpt lat="45.24747" lon="5.86967">
        <ele>225.16</ele>
        <time>2021-07-09T15:41:59.000Z</time>
      </trkpt>
      <trkpt lat="45.24729" lon="5.8693">
        <ele>227.42</ele>
        <time>2021-07-09T15:42:04.000Z</time>
      </trkpt>
      <trkpt lat="45.24711" lon="5.86892">
        <ele>222.87</ele>
        <time>2021-07-09T15:42:09.000Z</time>
      </trkpt>
      <trkpt lat="45.24692" lon="5.86858">
        <ele>226.5</ele>
        <time>2021-07-09T15:42:14.000Z</time>
      </trkpt>
      <trkpt lat="45.24676" lon="5.86819">
        <ele>228.1</ele>
        <time>2021-07-09T15:42:19.000Z</time>
      </trkpt>
      <trkpt lat="45.24662" lon="5.86778">
        <ele>229.76</ele>
        <time>2021-07-09T15:42:24.000Z</time>
      </trkpt>
      <trkpt lat="45.24643" lon="5.86741">
        <ele>229.81</ele>
        <time>2021-07-09T15:42:29.000Z</time>
      </trkpt>
      <trkpt lat="45.24627" lon="5.86702">
        <ele>226.39</ele>
        <time>2021-07-09T15:42:34.000Z</time>
      </trkpt>
      <trkpt lat="45.24611" lon="5.86664">
        <ele>227.2</ele>
        <time>2021-07-09T15:42:39.000Z</time>
      </trkpt>
      <trkpt lat="45.24595" lon="5.86624">
        <ele>228.05</ele>
        <time>2021-07-09T15:42:44.000Z</time>
      </trkpt>
      <trkpt lat="45.24577" lon="5.86581">
        <ele>228.87</ele>
        <time>2021-07-09T15:42:49.000Z</time>
      </trkpt>
      <trkpt lat="45.24562" lon="5.86544">
        <ele>229.98</ele>
        <time>2021-07-09T15:42:54.000Z</time>
      </trkpt>
      <trkpt lat="45.24545" lon="5.86504">
        <ele>230.98</ele>
        <time>2021-07-09T15:42:59.000Z</time>
      </trkpt>
      <trkpt lat="45.24521" lon="5.86476">
        <ele>231.33</ele>
        <time>2021-07-09T15:43:04.000Z</time>
      </trkpt>
      <trkpt lat="45.24482" lon="5.86449">
        <ele>230.75</ele>
        <time>2021-07-09T15:43:09.000Z</time>
      </trkpt>
      <trkpt lat="45.24465" lon="5.8642">
        <ele>231.17</ele>
        <time>2021-07-09T15:43:14.000Z</time>
      </trkpt>
      <trkpt lat="45.24445" lon="5.8639">
        <ele>233.75</ele>
        <time>2021-07-09T15:43:19.000Z</time>
      </trkpt>
      <trkpt lat="45.24422" lon="5.86352">
        <ele>232.93</ele>
        <time>2021-07-09T15:43:24.000Z</time>
      </trkpt>
      <trkpt lat="45.24403" lon="5.86313">
        <ele>229.67</ele>
        <time>2021-07-09T15:43:29.000Z</time>
      </trkpt>
      <trkpt lat="45.24381" lon="5.86279">
        <ele>228.77</ele>
        <time>2021-07-09T15:43:34.000Z</time>
      </trkpt>
      <trkpt lat="45.24363" lon="5.86242">
        <ele>230.98</ele>
        <time>2021-07-09T15:43:39.000Z</time>
      </trkpt>
      <trkpt lat="45.24346" lon="5.86208">
        <ele>227.48</ele>
        <time>2021-07-09T15:43:44.000Z</time>
      </trkpt>
      <trkpt lat="45.24325" lon="5.86174">
        <ele>226.95</ele>
        <time>2021-07-09T15:43:49.000Z</time>
      </trkpt>
      <trkpt lat="45.24297" lon="5.86145">
        <ele>221.66</ele>
        <time>2021-07-09T15:43:54.000Z</time>
      </trkpt>
      <trkpt lat="45.24284" lon="5.86106">
        <ele>223.93</ele>
        <time>2021-07-09T15:43:59.000Z</time>
      </trkpt>
      <trkpt lat="45.24233" lon="5.85987">
        <ele>222.4</ele>
        <time>2021-07-09T15:44:13.000Z</time>
      </trkpt>
      <trkpt lat="45.24217" lon="5.85956">
        <ele>224.26</ele>
        <time>2021-07-09T15:44:18.000Z</time>
      </trkpt>
      <trkpt lat="45.24199" lon="5.85928">
        <ele>224.75</ele>
        <time>2021-07-09T15:44:23.000Z</time>
      </trkpt>
      <trkpt lat="45.24174" lon="5.85891">
        <ele>222.36</ele>
        <time>2021-07-09T15:44:28.000Z</time>
      </trkpt>
      <trkpt lat="45.24159" lon="5.85853">
        <ele>227.53</ele>
        <time>2021-07-09T15:44:33.000Z</time>
      </trkpt>
      <trkpt lat="45.24144" lon="5.85811">
        <ele>234.37</ele>
        <time>2021-07-09T15:44:38.000Z</time>
      </trkpt>
      <trkpt lat="45.24122" lon="5.85775">
        <ele>229.4</ele>
        <time>2021-07-09T15:44:43.000Z</time>
      </trkpt>
      <trkpt lat="45.24116" lon="5.85734">
        <ele>231.39</ele>
        <time>2021-07-09T15:44:48.000Z</time>
      </trkpt>
      <trkpt lat="45.24131" lon="5.85702">
        <ele>231.91</ele>
        <time>2021-07-09T15:44:53.000Z</time>
      </trkpt>
      <trkpt lat="45.24142" lon="5.85659">
        <ele>234.51</ele>
        <time>2021-07-09T15:44:58.000Z</time>
      </trkpt>
      <trkpt lat="45.24163" lon="5.8563">
        <ele>234.09</ele>
        <time>2021-07-09T15:45:03.000Z</time>
      </trkpt>
      <trkpt lat="45.2419" lon="5.85616">
        <ele>236.6</ele>
        <time>2021-07-09T15:45:08.000Z</time>
      </trkpt>
      <trkpt lat="45.24215" lon="5.85593">
        <ele>235.71</ele>
        <time>2021-07-09T15:45:13.000Z</time>
      </trkpt>
      <trkpt lat="45.24213" lon="5.85538">
        <ele>234.59</ele>
        <time>2021-07-09T15:45:19.000Z</time>
      </trkpt>
      <trkpt lat="45.24201" lon="5.85499">
        <ele>234.98</ele>
        <time>2021-07-09T15:45:24.000Z</time>
      </trkpt>
      <trkpt lat="45.24192" lon="5.85459">
        <ele>237.8</ele>
        <time>2021-07-09T15:45:29.000Z</time>
      </trkpt>
      <trkpt lat="45.2418" lon="5.85414">
        <ele>241.06</ele>
        <time>2021-07-09T15:45:34.000Z</time>
      </trkpt>
      <trkpt lat="45.24169" lon="5.85369">
        <ele>240.34</ele>
        <time>2021-07-09T15:45:39.000Z</time>
      </trkpt>
      <trkpt lat="45.24156" lon="5.85325">
        <ele>240.21</ele>
        <time>2021-07-09T15:45:44.000Z</time>
      </trkpt>
      <trkpt lat="45.24149" lon="5.8528">
        <ele>238.08</ele>
        <time>2021-07-09T15:45:49.000Z</time>
      </trkpt>
      <trkpt lat="45.24137" lon="5.85241">
        <ele>237.16</ele>
        <time>2021-07-09T15:45:54.000Z</time>
      </trkpt>
      <trkpt lat="45.24129" lon="5.85206">
        <ele>235.59</ele>
        <time>2021-07-09T15:45:59.000Z</time>
      </trkpt>
      <trkpt lat="45.24115" lon="5.85189">
        <ele>234.38</ele>
        <time>2021-07-09T15:46:04.000Z</time>
      </trkpt>
      <trkpt lat="45.24124" lon="5.85206">
        <ele>236.22</ele>
        <time>2021-07-09T15:46:09.000Z</time>
      </trkpt>
      <trkpt lat="45.24126" lon="5.85241">
        <ele>236.44</ele>
        <time>2021-07-09T15:46:14.000Z</time>
      </trkpt>
      <trkpt lat="45.24127" lon="5.8527">
        <ele>237.94</ele>
        <time>2021-07-09T15:46:19.000Z</time>
      </trkpt>
      <trkpt lat="45.24129" lon="5.85302">
        <ele>241.55</ele>
        <time>2021-07-09T15:46:24.000Z</time>
      </trkpt>
      <trkpt lat="45.24122" lon="5.85332">
        <ele>241.82</ele>
        <time>2021-07-09T15:46:29.000Z</time>
      </trkpt>
      <trkpt lat="45.24113" lon="5.85359">
        <ele>240.31</ele>
        <time>2021-07-09T15:46:34.000Z</time>
      </trkpt>
      <trkpt lat="45.24109" lon="5.85393">
        <ele>239.87</ele>
        <time>2021-07-09T15:46:39.000Z</time>
      </trkpt>
      <trkpt lat="45.241" lon="5.85426">
        <ele>237.99</ele>
        <time>2021-07-09T15:46:44.000Z</time>
      </trkpt>
      <trkpt lat="45.24076" lon="5.85408">
        <ele>238.22</ele>
        <time>2021-07-09T15:46:49.000Z</time>
      </trkpt>
      <trkpt lat="45.24048" lon="5.85363">
        <ele>230.9</ele>
        <time>2021-07-09T15:46:54.000Z</time>
      </trkpt>
      <trkpt lat="45.24027" lon="5.85325">
        <ele>231.33</ele>
        <time>2021-07-09T15:46:59.000Z</time>
      </trkpt>
      <trkpt lat="45.24015" lon="5.85304">
        <ele>231.74</ele>
        <time>2021-07-09T15:47:04.000Z</time>
      </trkpt>
      <trkpt lat="45.24004" lon="5.85305">
        <ele>233.56</ele>
        <time>2021-07-09T15:47:23.000Z</time>
      </trkpt>
      <trkpt lat="45.23984" lon="5.85328">
        <ele>230.82</ele>
        <time>2021-07-09T15:47:28.000Z</time>
      </trkpt>
      <trkpt lat="45.2396" lon="5.85363">
        <ele>229.4</ele>
        <time>2021-07-09T15:47:33.000Z</time>
      </trkpt>
      <trkpt lat="45.23928" lon="5.8539">
        <ele>228.47</ele>
        <time>2021-07-09T15:47:38.000Z</time>
      </trkpt>
      <trkpt lat="45.2389" lon="5.85395">
        <ele>230.52</ele>
        <time>2021-07-09T15:47:43.000Z</time>
      </trkpt>
      <trkpt lat="45.23858" lon="5.854">
        <ele>231.79</ele>
        <time>2021-07-09T15:47:48.000Z</time>
      </trkpt>
      <trkpt lat="45.23825" lon="5.85404">
        <ele>231.78</ele>
        <time>2021-07-09T15:47:53.000Z</time>
      </trkpt>
      <trkpt lat="45.2379" lon="5.85407">
        <ele>232.28</ele>
        <time>2021-07-09T15:47:58.000Z</time>
      </trkpt>
      <trkpt lat="45.23755" lon="5.85413">
        <ele>233.06</ele>
        <time>2021-07-09T15:48:03.000Z</time>
      </trkpt>
      <trkpt lat="45.23722" lon="5.85418">
        <ele>234.22</ele>
        <time>2021-07-09T15:48:08.000Z</time>
      </trkpt>
      <trkpt lat="45.23687" lon="5.85422">
        <ele>234.21</ele>
        <time>2021-07-09T15:48:13.000Z</time>
      </trkpt>
      <trkpt lat="45.23655" lon="5.85427">
        <ele>234.86</ele>
        <time>2021-07-09T15:48:18.000Z</time>
      </trkpt>
      <trkpt lat="45.23622" lon="5.85432">
        <ele>235.08</ele>
        <time>2021-07-09T15:48:23.000Z</time>
      </trkpt>
      <trkpt lat="45.23587" lon="5.85435">
        <ele>234.42</ele>
        <time>2021-07-09T15:48:28.000Z</time>
      </trkpt>
      <trkpt lat="45.23554" lon="5.8544">
        <ele>234.45</ele>
        <time>2021-07-09T15:48:33.000Z</time>
      </trkpt>
      <trkpt lat="45.23522" lon="5.85436">
        <ele>233.01</ele>
        <time>2021-07-09T15:48:38.000Z</time>
      </trkpt>
      <trkpt lat="45.2349" lon="5.85431">
        <ele>231.84</ele>
        <time>2021-07-09T15:48:43.000Z</time>
      </trkpt>
      <trkpt lat="45.23459" lon="5.85419">
        <ele>231.01</ele>
        <time>2021-07-09T15:48:48.000Z</time>
      </trkpt>
      <trkpt lat="45.23426" lon="5.85405">
        <ele>233.35</ele>
        <time>2021-07-09T15:48:53.000Z</time>
      </trkpt>
      <trkpt lat="45.23391" lon="5.85394">
        <ele>234.57</ele>
        <time>2021-07-09T15:48:58.000Z</time>
      </trkpt>
      <trkpt lat="45.23357" lon="5.85382">
        <ele>236.74</ele>
        <time>2021-07-09T15:49:03.000Z</time>
      </trkpt>
      <trkpt lat="45.23324" lon="5.85372">
        <ele>236.84</ele>
        <time>2021-07-09T15:49:08.000Z</time>
      </trkpt>
      <trkpt lat="45.23289" lon="5.85358">
        <ele>237.93</ele>
        <time>2021-07-09T15:49:13.000Z</time>
      </trkpt>
      <trkpt lat="45.23255" lon="5.85348">
        <ele>235.16</ele>
        <time>2021-07-09T15:49:18.000Z</time>
      </trkpt>
      <trkpt lat="45.23224" lon="5.85338">
        <ele>232.13</ele>
        <time>2021-07-09T15:49:23.000Z</time>
      </trkpt>
      <trkpt lat="45.23192" lon="5.8533">
        <ele>228.75</ele>
        <time>2021-07-09T15:49:28.000Z</time>
      </trkpt>
      <trkpt lat="45.23161" lon="5.85326">
        <ele>227.59</ele>
        <time>2021-07-09T15:49:33.000Z</time>
      </trkpt>
      <trkpt lat="45.23131" lon="5.85328">
        <ele>228.07</ele>
        <time>2021-07-09T15:49:38.000Z</time>
      </trkpt>
      <trkpt lat="45.23103" lon="5.8534">
        <ele>228.82</ele>
        <time>2021-07-09T15:49:43.000Z</time>
      </trkpt>
      <trkpt lat="45.23081" lon="5.85349">
        <ele>229.75</ele>
        <time>2021-07-09T15:49:48.000Z</time>
      </trkpt>
      <trkpt lat="45.23058" lon="5.85354">
        <ele>229.46</ele>
        <time>2021-07-09T15:49:53.000Z</time>
      </trkpt>
      <trkpt lat="45.23047" lon="5.85343">
        <ele>228.97</ele>
        <time>2021-07-09T15:49:58.000Z</time>
      </trkpt>
      <trkpt lat="45.23035" lon="5.85326">
        <ele>227.88</ele>
        <time>2021-07-09T15:50:03.000Z</time>
      </trkpt>
      <trkpt lat="45.2302" lon="5.85306">
        <ele>227.36</ele>
        <time>2021-07-09T15:50:08.000Z</time>
      </trkpt>
      <trkpt lat="45.23009" lon="5.85291">
        <ele>229.49</ele>
        <time>2021-07-09T15:50:13.000Z</time>
      </trkpt>
      <trkpt lat="45.23001" lon="5.85277">
        <ele>230.51</ele>
        <time>2021-07-09T15:51:01.000Z</time>
      </trkpt>
      <trkpt lat="45.22979" lon="5.85256">
        <ele>232.63</ele>
        <time>2021-07-09T15:51:06.000Z</time>
      </trkpt>
      <trkpt lat="45.22956" lon="5.85228">
        <ele>231.59</ele>
        <time>2021-07-09T15:51:11.000Z</time>
      </trkpt>
      <trkpt lat="45.22934" lon="5.852">
        <ele>229.94</ele>
        <time>2021-07-09T15:51:16.000Z</time>
      </trkpt>
      <trkpt lat="45.22908" lon="5.85166">
        <ele>226.03</ele>
        <time>2021-07-09T15:51:21.000Z</time>
      </trkpt>
      <trkpt lat="45.22882" lon="5.85138">
        <ele>224.43</ele>
        <time>2021-07-09T15:51:26.000Z</time>
      </trkpt>
      <trkpt lat="45.22858" lon="5.85107">
        <ele>225.22</ele>
        <time>2021-07-09T15:51:31.000Z</time>
      </trkpt>
      <trkpt lat="45.22838" lon="5.8508">
        <ele>224.81</ele>
        <time>2021-07-09T15:51:36.000Z</time>
      </trkpt>
      <trkpt lat="45.22816" lon="5.85047">
        <ele>225.19</ele>
        <time>2021-07-09T15:51:41.000Z</time>
      </trkpt>
      <trkpt lat="45.22788" lon="5.85019">
        <ele>225.59</ele>
        <time>2021-07-09T15:51:46.000Z</time>
      </trkpt>
      <trkpt lat="45.22761" lon="5.84987">
        <ele>224.07</ele>
        <time>2021-07-09T15:51:51.000Z</time>
      </trkpt>
      <trkpt lat="45.22738" lon="5.84958">
        <ele>223.63</ele>
        <time>2021-07-09T15:51:56.000Z</time>
      </trkpt>
      <trkpt lat="45.22714" lon="5.84929">
        <ele>224.57</ele>
        <time>2021-07-09T15:52:01.000Z</time>
      </trkpt>
      <trkpt lat="45.22689" lon="5.849">
        <ele>226.36</ele>
        <time>2021-07-09T15:52:06.000Z</time>
      </trkpt>
      <trkpt lat="45.22666" lon="5.84869">
        <ele>226.59</ele>
        <time>2021-07-09T15:52:11.000Z</time>
      </trkpt>
      <trkpt lat="45.22642" lon="5.84839">
        <ele>229.36</ele>
        <time>2021-07-09T15:52:16.000Z</time>
      </trkpt>
      <trkpt lat="45.2261" lon="5.84809">
        <ele>227.2</ele>
        <time>2021-07-09T15:52:21.000Z</time>
      </trkpt>
      <trkpt lat="45.22586" lon="5.84778">
        <ele>227.79</ele>
        <time>2021-07-09T15:52:26.000Z</time>
      </trkpt>
      <trkpt lat="45.22564" lon="5.84746">
        <ele>226.6</ele>
        <time>2021-07-09T15:52:31.000Z</time>
      </trkpt>
      <trkpt lat="45.22539" lon="5.84716">
        <ele>226.38</ele>
        <time>2021-07-09T15:52:36.000Z</time>
      </trkpt>
      <trkpt lat="45.22517" lon="5.84685">
        <ele>225.32</ele>
        <time>2021-07-09T15:52:41.000Z</time>
      </trkpt>
      <trkpt lat="45.22491" lon="5.84656">
        <ele>225.8</ele>
        <time>2021-07-09T15:52:46.000Z</time>
      </trkpt>
      <trkpt lat="45.22465" lon="5.84626">
        <ele>225.48</ele>
        <time>2021-07-09T15:52:51.000Z</time>
      </trkpt>
      <trkpt lat="45.22441" lon="5.84598">
        <ele>226.5</ele>
        <time>2021-07-09T15:52:56.000Z</time>
      </trkpt>
      <trkpt lat="45.2242" lon="5.84566">
        <ele>225.95</ele>
        <time>2021-07-09T15:53:01.000Z</time>
      </trkpt>
      <trkpt lat="45.22394" lon="5.84537">
        <ele>226.07</ele>
        <time>2021-07-09T15:53:06.000Z</time>
      </trkpt>
      <trkpt lat="45.22375" lon="5.84514">
        <ele>227.14</ele>
        <time>2021-07-09T15:53:11.000Z</time>
      </trkpt>
      <trkpt lat="45.22364" lon="5.84495">
        <ele>229</ele>
        <time>2021-07-09T15:53:16.000Z</time>
      </trkpt>
      <trkpt lat="45.22349" lon="5.84479">
        <ele>226.92</ele>
        <time>2021-07-09T15:53:21.000Z</time>
      </trkpt>
      <trkpt lat="45.22335" lon="5.8446">
        <ele>223.72</ele>
        <time>2021-07-09T15:53:26.000Z</time>
      </trkpt>
      <trkpt lat="45.22319" lon="5.84437">
        <ele>224.39</ele>
        <time>2021-07-09T15:53:31.000Z</time>
      </trkpt>
      <trkpt lat="45.22297" lon="5.8441">
        <ele>223.3</ele>
        <time>2021-07-09T15:53:36.000Z</time>
      </trkpt>
      <trkpt lat="45.22284" lon="5.84392">
        <ele>223.87</ele>
        <time>2021-07-09T15:53:41.000Z</time>
      </trkpt>
      <trkpt lat="45.22269" lon="5.84372">
        <ele>222.08</ele>
        <time>2021-07-09T15:53:46.000Z</time>
      </trkpt>
      <trkpt lat="45.2224" lon="5.84347">
        <ele>221.65</ele>
        <time>2021-07-09T15:53:51.000Z</time>
      </trkpt>
      <trkpt lat="45.22216" lon="5.84313">
        <ele>217.97</ele>
        <time>2021-07-09T15:53:56.000Z</time>
      </trkpt>
      <trkpt lat="45.22193" lon="5.84282">
        <ele>217.08</ele>
        <time>2021-07-09T15:54:01.000Z</time>
      </trkpt>
      <trkpt lat="45.2217" lon="5.84251">
        <ele>218.87</ele>
        <time>2021-07-09T15:54:06.000Z</time>
      </trkpt>
      <trkpt lat="45.22148" lon="5.84217">
        <ele>218.67</ele>
        <time>2021-07-09T15:54:11.000Z</time>
      </trkpt>
      <trkpt lat="45.22122" lon="5.84189">
        <ele>220.07</ele>
        <time>2021-07-09T15:54:16.000Z</time>
      </trkpt>
      <trkpt lat="45.22095" lon="5.84166">
        <ele>222.56</ele>
        <time>2021-07-09T15:54:21.000Z</time>
      </trkpt>
      <trkpt lat="45.22064" lon="5.84148">
        <ele>222.08</ele>
        <time>2021-07-09T15:54:26.000Z</time>
      </trkpt>
      <trkpt lat="45.22038" lon="5.84125">
        <ele>223.08</ele>
        <time>2021-07-09T15:54:31.000Z</time>
      </trkpt>
      <trkpt lat="45.22013" lon="5.84102">
        <ele>227</ele>
        <time>2021-07-09T15:54:36.000Z</time>
      </trkpt>
      <trkpt lat="45.21994" lon="5.84071">
        <ele>227.44</ele>
        <time>2021-07-09T15:54:41.000Z</time>
      </trkpt>
      <trkpt lat="45.21974" lon="5.8404">
        <ele>227.38</ele>
        <time>2021-07-09T15:54:46.000Z</time>
      </trkpt>
      <trkpt lat="45.21953" lon="5.84005">
        <ele>224.71</ele>
        <time>2021-07-09T15:54:51.000Z</time>
      </trkpt>
      <trkpt lat="45.21929" lon="5.83973">
        <ele>224.33</ele>
        <time>2021-07-09T15:54:56.000Z</time>
      </trkpt>
      <trkpt lat="45.21909" lon="5.83935">
        <ele>223.58</ele>
        <time>2021-07-09T15:55:01.000Z</time>
      </trkpt>
      <trkpt lat="45.2189" lon="5.839">
        <ele>219.67</ele>
        <time>2021-07-09T15:55:06.000Z</time>
      </trkpt>
      <trkpt lat="45.2187" lon="5.83866">
        <ele>220.51</ele>
        <time>2021-07-09T15:55:11.000Z</time>
      </trkpt>
      <trkpt lat="45.21847" lon="5.83833">
        <ele>223.1</ele>
        <time>2021-07-09T15:55:16.000Z</time>
      </trkpt>
      <trkpt lat="45.2182" lon="5.83805">
        <ele>222.77</ele>
        <time>2021-07-09T15:55:21.000Z</time>
      </trkpt>
      <trkpt lat="45.21796" lon="5.83775">
        <ele>221.9</ele>
        <time>2021-07-09T15:55:26.000Z</time>
      </trkpt>
      <trkpt lat="45.21775" lon="5.83737">
        <ele>219.73</ele>
        <time>2021-07-09T15:55:31.000Z</time>
      </trkpt>
      <trkpt lat="45.21756" lon="5.83701">
        <ele>223.02</ele>
        <time>2021-07-09T15:55:36.000Z</time>
      </trkpt>
      <trkpt lat="45.21739" lon="5.83667">
        <ele>220.75</ele>
        <time>2021-07-09T15:55:41.000Z</time>
      </trkpt>
      <trkpt lat="45.2172" lon="5.83631">
        <ele>223.46</ele>
        <time>2021-07-09T15:55:46.000Z</time>
      </trkpt>
      <trkpt lat="45.21701" lon="5.83593">
        <ele>223.65</ele>
        <time>2021-07-09T15:55:51.000Z</time>
      </trkpt>
      <trkpt lat="45.21683" lon="5.83559">
        <ele>224.68</ele>
        <time>2021-07-09T15:55:56.000Z</time>
      </trkpt>
      <trkpt lat="45.21664" lon="5.83521">
        <ele>225.32</ele>
        <time>2021-07-09T15:56:01.000Z</time>
      </trkpt>
      <trkpt lat="45.21642" lon="5.83479">
        <ele>222.13</ele>
        <time>2021-07-09T15:56:06.000Z</time>
      </trkpt>
      <trkpt lat="45.21626" lon="5.83442">
        <ele>222.97</ele>
        <time>2021-07-09T15:56:11.000Z</time>
      </trkpt>
      <trkpt lat="45.216" lon="5.83404">
        <ele>226.6</ele>
        <time>2021-07-09T15:56:16.000Z</time>
      </trkpt>
      <trkpt lat="45.21579" lon="5.8337">
        <ele>227.49</ele>
        <time>2021-07-09T15:56:21.000Z</time>
      </trkpt>
      <trkpt lat="45.21557" lon="5.83336">
        <ele>225.42</ele>
        <time>2021-07-09T15:56:26.000Z</time>
      </trkpt>
      <trkpt lat="45.21533" lon="5.83304">
        <ele>225.22</ele>
        <time>2021-07-09T15:56:31.000Z</time>
      </trkpt>
      <trkpt lat="45.2151" lon="5.83272">
        <ele>223.91</ele>
        <time>2021-07-09T15:56:36.000Z</time>
      </trkpt>
      <trkpt lat="45.21488" lon="5.8324">
        <ele>225.67</ele>
        <time>2021-07-09T15:56:41.000Z</time>
      </trkpt>
      <trkpt lat="45.21461" lon="5.83208">
        <ele>225.35</ele>
        <time>2021-07-09T15:56:46.000Z</time>
      </trkpt>
      <trkpt lat="45.21436" lon="5.83177">
        <ele>225.22</ele>
        <time>2021-07-09T15:56:51.000Z</time>
      </trkpt>
      <trkpt lat="45.21413" lon="5.83149">
        <ele>224.02</ele>
        <time>2021-07-09T15:56:56.000Z</time>
      </trkpt>
      <trkpt lat="45.21384" lon="5.83123">
        <ele>223.48</ele>
        <time>2021-07-09T15:57:01.000Z</time>
      </trkpt>
      <trkpt lat="45.21355" lon="5.83096">
        <ele>223.97</ele>
        <time>2021-07-09T15:57:06.000Z</time>
      </trkpt>
      <trkpt lat="45.2133" lon="5.8307">
        <ele>222.45</ele>
        <time>2021-07-09T15:57:11.000Z</time>
      </trkpt>
      <trkpt lat="45.21303" lon="5.83042">
        <ele>221.57</ele>
        <time>2021-07-09T15:57:16.000Z</time>
      </trkpt>
      <trkpt lat="45.21281" lon="5.83017">
        <ele>221.88</ele>
        <time>2021-07-09T15:57:21.000Z</time>
      </trkpt>
      <trkpt lat="45.21264" lon="5.82995">
        <ele>220.48</ele>
        <time>2021-07-09T15:57:26.000Z</time>
      </trkpt>
      <trkpt lat="45.21245" lon="5.82978">
        <ele>220.82</ele>
        <time>2021-07-09T15:57:31.000Z</time>
      </trkpt>
      <trkpt lat="45.21243" lon="5.82962">
        <ele>221.79</ele>
        <time>2021-07-09T15:57:36.000Z</time>
      </trkpt>
      <trkpt lat="45.21231" lon="5.8295">
        <ele>221.83</ele>
        <time>2021-07-09T15:57:41.000Z</time>
      </trkpt>
      <trkpt lat="45.21229" lon="5.82928">
        <ele>221.67</ele>
        <time>2021-07-09T15:57:46.000Z</time>
      </trkpt>
      <trkpt lat="45.21244" lon="5.82903">
        <ele>222.69</ele>
        <time>2021-07-09T15:57:51.000Z</time>
      </trkpt>
      <trkpt lat="45.21257" lon="5.82878">
        <ele>223.59</ele>
        <time>2021-07-09T15:57:56.000Z</time>
      </trkpt>
      <trkpt lat="45.2127" lon="5.82854">
        <ele>226.14</ele>
        <time>2021-07-09T15:58:01.000Z</time>
      </trkpt>
      <trkpt lat="45.21282" lon="5.82828">
        <ele>228.88</ele>
        <time>2021-07-09T15:58:06.000Z</time>
      </trkpt>
      <trkpt lat="45.21288" lon="5.82806">
        <ele>229.1</ele>
        <time>2021-07-09T15:58:11.000Z</time>
      </trkpt>
      <trkpt lat="45.2129" lon="5.82789">
        <ele>230.51</ele>
        <time>2021-07-09T15:58:16.000Z</time>
      </trkpt>
      <trkpt lat="45.21297" lon="5.82774">
        <ele>229.51</ele>
        <time>2021-07-09T15:58:21.000Z</time>
      </trkpt>
      <trkpt lat="45.21306" lon="5.82757">
        <ele>229.41</ele>
        <time>2021-07-09T15:58:26.000Z</time>
      </trkpt>
      <trkpt lat="45.21317" lon="5.82736">
        <ele>228.98</ele>
        <time>2021-07-09T15:58:31.000Z</time>
      </trkpt>
      <trkpt lat="45.21336" lon="5.8272">
        <ele>227.64</ele>
        <time>2021-07-09T15:58:36.000Z</time>
      </trkpt>
      <trkpt lat="45.21354" lon="5.82709">
        <ele>227.8</ele>
        <time>2021-07-09T15:58:41.000Z</time>
      </trkpt>
      <trkpt lat="45.21371" lon="5.82692">
        <ele>227.4</ele>
        <time>2021-07-09T15:58:46.000Z</time>
      </trkpt>
      <trkpt lat="45.21389" lon="5.82665">
        <ele>226.52</ele>
        <time>2021-07-09T15:58:51.000Z</time>
      </trkpt>
      <trkpt lat="45.21409" lon="5.82638">
        <ele>226.06</ele>
        <time>2021-07-09T15:58:56.000Z</time>
      </trkpt>
      <trkpt lat="45.21434" lon="5.82617">
        <ele>228.41</ele>
        <time>2021-07-09T15:59:01.000Z</time>
      </trkpt>
      <trkpt lat="45.21459" lon="5.82603">
        <ele>230.05</ele>
        <time>2021-07-09T15:59:06.000Z</time>
      </trkpt>
      <trkpt lat="45.21485" lon="5.8258">
        <ele>234.01</ele>
        <time>2021-07-09T15:59:11.000Z</time>
      </trkpt>
      <trkpt lat="45.21511" lon="5.82558">
        <ele>230.65</ele>
        <time>2021-07-09T15:59:16.000Z</time>
      </trkpt>
      <trkpt lat="45.21539" lon="5.82539">
        <ele>228.39</ele>
        <time>2021-07-09T15:59:21.000Z</time>
      </trkpt>
      <trkpt lat="45.21569" lon="5.82519">
        <ele>227.05</ele>
        <time>2021-07-09T15:59:26.000Z</time>
      </trkpt>
      <trkpt lat="45.21597" lon="5.82499">
        <ele>225.92</ele>
        <time>2021-07-09T15:59:31.000Z</time>
      </trkpt>
      <trkpt lat="45.21625" lon="5.82478">
        <ele>229.29</ele>
        <time>2021-07-09T15:59:36.000Z</time>
      </trkpt>
      <trkpt lat="45.21656" lon="5.82465">
        <ele>225.1</ele>
        <time>2021-07-09T15:59:41.000Z</time>
      </trkpt>
      <trkpt lat="45.21685" lon="5.82442">
        <ele>226.6</ele>
        <time>2021-07-09T15:59:46.000Z</time>
      </trkpt>
      <trkpt lat="45.21716" lon="5.82419">
        <ele>227.08</ele>
        <time>2021-07-09T15:59:51.000Z</time>
      </trkpt>
      <trkpt lat="45.21743" lon="5.82396">
        <ele>225.45</ele>
        <time>2021-07-09T15:59:56.000Z</time>
      </trkpt>
      <trkpt lat="45.21771" lon="5.82381">
        <ele>223.9</ele>
        <time>2021-07-09T16:00:01.000Z</time>
      </trkpt>
      <trkpt lat="45.21794" lon="5.82375">
        <ele>224.26</ele>
        <time>2021-07-09T16:00:06.000Z</time>
      </trkpt>
      <trkpt lat="45.21814" lon="5.82378">
        <ele>225.98</ele>
        <time>2021-07-09T16:00:11.000Z</time>
      </trkpt>
      <trkpt lat="45.21828" lon="5.82405">
        <ele>227.56</ele>
        <time>2021-07-09T16:00:16.000Z</time>
      </trkpt>
      <trkpt lat="45.21842" lon="5.82443">
        <ele>228.08</ele>
        <time>2021-07-09T16:00:21.000Z</time>
      </trkpt>
      <trkpt lat="45.21856" lon="5.82479">
        <ele>226.13</ele>
        <time>2021-07-09T16:00:26.000Z</time>
      </trkpt>
      <trkpt lat="45.21846" lon="5.82515">
        <ele>226.71</ele>
        <time>2021-07-09T16:00:31.000Z</time>
      </trkpt>
      <trkpt lat="45.2186" lon="5.82546">
        <ele>226.16</ele>
        <time>2021-07-09T16:00:36.000Z</time>
      </trkpt>
      <trkpt lat="45.21883" lon="5.82571">
        <ele>224.97</ele>
        <time>2021-07-09T16:00:41.000Z</time>
      </trkpt>
      <trkpt lat="45.21909" lon="5.82594">
        <ele>224.24</ele>
        <time>2021-07-09T16:00:46.000Z</time>
      </trkpt>
      <trkpt lat="45.21935" lon="5.8262">
        <ele>225.09</ele>
        <time>2021-07-09T16:00:51.000Z</time>
      </trkpt>
      <trkpt lat="45.21956" lon="5.82641">
        <ele>225.65</ele>
        <time>2021-07-09T16:00:56.000Z</time>
      </trkpt>
      <trkpt lat="45.21979" lon="5.82664">
        <ele>225.51</ele>
        <time>2021-07-09T16:01:01.000Z</time>
      </trkpt>
      <trkpt lat="45.22003" lon="5.8269">
        <ele>223.23</ele>
        <time>2021-07-09T16:01:06.000Z</time>
      </trkpt>
      <trkpt lat="45.22031" lon="5.82707">
        <ele>220.08</ele>
        <time>2021-07-09T16:01:11.000Z</time>
      </trkpt>
      <trkpt lat="45.22055" lon="5.82689">
        <ele>221.93</ele>
        <time>2021-07-09T16:01:16.000Z</time>
      </trkpt>
      <trkpt lat="45.22078" lon="5.82672">
        <ele>221.96</ele>
        <time>2021-07-09T16:01:21.000Z</time>
      </trkpt>
      <trkpt lat="45.22102" lon="5.82654">
        <ele>223</ele>
        <time>2021-07-09T16:01:26.000Z</time>
      </trkpt>
      <trkpt lat="45.22123" lon="5.82638">
        <ele>225.27</ele>
        <time>2021-07-09T16:01:31.000Z</time>
      </trkpt>
      <trkpt lat="45.22136" lon="5.82617">
        <ele>226.28</ele>
        <time>2021-07-09T16:01:36.000Z</time>
      </trkpt>
      <trkpt lat="45.22133" lon="5.82605">
        <ele>226.96</ele>
        <time>2021-07-09T16:01:55.000Z</time>
      </trkpt>
      <trkpt lat="45.22129" lon="5.82619">
        <ele>227.96</ele>
        <time>2021-07-09T16:15:49.000Z</time>
      </trkpt>
      <trkpt lat="45.22123" lon="5.82638">
        <ele>224.83</ele>
        <time>2021-07-09T16:15:54.000Z</time>
      </trkpt>
      <trkpt lat="45.22106" lon="5.82649">
        <ele>230.08</ele>
        <time>2021-07-09T16:15:59.000Z</time>
      </trkpt>
      <trkpt lat="45.22087" lon="5.8266">
        <ele>225.32</ele>
        <time>2021-07-09T16:16:04.000Z</time>
      </trkpt>
      <trkpt lat="45.22068" lon="5.82673">
        <ele>227.36</ele>
        <time>2021-07-09T16:16:09.000Z</time>
      </trkpt>
      <trkpt lat="45.22047" lon="5.82686">
        <ele>223.87</ele>
        <time>2021-07-09T16:16:14.000Z</time>
      </trkpt>
      <trkpt lat="45.22025" lon="5.82694">
        <ele>221.62</ele>
        <time>2021-07-09T16:16:19.000Z</time>
      </trkpt>
      <trkpt lat="45.22003" lon="5.82687">
        <ele>219.81</ele>
        <time>2021-07-09T16:16:24.000Z</time>
      </trkpt>
      <trkpt lat="45.21988" lon="5.8267">
        <ele>222.67</ele>
        <time>2021-07-09T16:16:29.000Z</time>
      </trkpt>
      <trkpt lat="45.21965" lon="5.82647">
        <ele>224.38</ele>
        <time>2021-07-09T16:16:34.000Z</time>
      </trkpt>
      <trkpt lat="45.21937" lon="5.8262">
        <ele>225.12</ele>
        <time>2021-07-09T16:16:39.000Z</time>
      </trkpt>
      <trkpt lat="45.21915" lon="5.82597">
        <ele>223.08</ele>
        <time>2021-07-09T16:16:44.000Z</time>
      </trkpt>
      <trkpt lat="45.21894" lon="5.82573">
        <ele>220.87</ele>
        <time>2021-07-09T16:16:49.000Z</time>
      </trkpt>
      <trkpt lat="45.21873" lon="5.82549">
        <ele>220.47</ele>
        <time>2021-07-09T16:16:54.000Z</time>
      </trkpt>
      <trkpt lat="45.21851" lon="5.82523">
        <ele>221.4</ele>
        <time>2021-07-09T16:16:59.000Z</time>
      </trkpt>
      <trkpt lat="45.21853" lon="5.8249">
        <ele>221.13</ele>
        <time>2021-07-09T16:17:04.000Z</time>
      </trkpt>
      <trkpt lat="45.21855" lon="5.82456">
        <ele>223.41</ele>
        <time>2021-07-09T16:17:09.000Z</time>
      </trkpt>
      <trkpt lat="45.21841" lon="5.82423">
        <ele>223.43</ele>
        <time>2021-07-09T16:17:14.000Z</time>
      </trkpt>
      <trkpt lat="45.21825" lon="5.82393">
        <ele>220.17</ele>
        <time>2021-07-09T16:17:19.000Z</time>
      </trkpt>
      <trkpt lat="45.21811" lon="5.82371">
        <ele>221.56</ele>
        <time>2021-07-09T16:17:24.000Z</time>
      </trkpt>
      <trkpt lat="45.21789" lon="5.82374">
        <ele>220.54</ele>
        <time>2021-07-09T16:17:29.000Z</time>
      </trkpt>
      <trkpt lat="45.21764" lon="5.82383">
        <ele>222.58</ele>
        <time>2021-07-09T16:17:34.000Z</time>
      </trkpt>
      <trkpt lat="45.2174" lon="5.82401">
        <ele>221.51</ele>
        <time>2021-07-09T16:17:39.000Z</time>
      </trkpt>
      <trkpt lat="45.21714" lon="5.82419">
        <ele>222.53</ele>
        <time>2021-07-09T16:17:44.000Z</time>
      </trkpt>
      <trkpt lat="45.21685" lon="5.82437">
        <ele>228.98</ele>
        <time>2021-07-09T16:17:49.000Z</time>
      </trkpt>
      <trkpt lat="45.21659" lon="5.82458">
        <ele>231.32</ele>
        <time>2021-07-09T16:17:54.000Z</time>
      </trkpt>
      <trkpt lat="45.21635" lon="5.82471">
        <ele>227.2</ele>
        <time>2021-07-09T16:17:59.000Z</time>
      </trkpt>
      <trkpt lat="45.21608" lon="5.82486">
        <ele>225.54</ele>
        <time>2021-07-09T16:18:04.000Z</time>
      </trkpt>
      <trkpt lat="45.21579" lon="5.82504">
        <ele>224.48</ele>
        <time>2021-07-09T16:18:09.000Z</time>
      </trkpt>
      <trkpt lat="45.21554" lon="5.82526">
        <ele>223.28</ele>
        <time>2021-07-09T16:18:14.000Z</time>
      </trkpt>
      <trkpt lat="45.21527" lon="5.82546">
        <ele>224.53</ele>
        <time>2021-07-09T16:18:19.000Z</time>
      </trkpt>
      <trkpt lat="45.21499" lon="5.82569">
        <ele>224.05</ele>
        <time>2021-07-09T16:18:24.000Z</time>
      </trkpt>
      <trkpt lat="45.21471" lon="5.82591">
        <ele>224.43</ele>
        <time>2021-07-09T16:18:29.000Z</time>
      </trkpt>
      <trkpt lat="45.21443" lon="5.82612">
        <ele>227.58</ele>
        <time>2021-07-09T16:18:34.000Z</time>
      </trkpt>
      <trkpt lat="45.21417" lon="5.82637">
        <ele>223.19</ele>
        <time>2021-07-09T16:18:39.000Z</time>
      </trkpt>
      <trkpt lat="45.21393" lon="5.82664">
        <ele>223.44</ele>
        <time>2021-07-09T16:18:44.000Z</time>
      </trkpt>
      <trkpt lat="45.21372" lon="5.82693">
        <ele>221.96</ele>
        <time>2021-07-09T16:18:49.000Z</time>
      </trkpt>
      <trkpt lat="45.21345" lon="5.82716">
        <ele>224.16</ele>
        <time>2021-07-09T16:18:54.000Z</time>
      </trkpt>
      <trkpt lat="45.21318" lon="5.8274">
        <ele>225.55</ele>
        <time>2021-07-09T16:18:59.000Z</time>
      </trkpt>
      <trkpt lat="45.21301" lon="5.82771">
        <ele>223.85</ele>
        <time>2021-07-09T16:19:04.000Z</time>
      </trkpt>
      <trkpt lat="45.21284" lon="5.82803">
        <ele>221.44</ele>
        <time>2021-07-09T16:19:09.000Z</time>
      </trkpt>
      <trkpt lat="45.21268" lon="5.82838">
        <ele>223.1</ele>
        <time>2021-07-09T16:19:14.000Z</time>
      </trkpt>
      <trkpt lat="45.21251" lon="5.82875">
        <ele>223.95</ele>
        <time>2021-07-09T16:19:19.000Z</time>
      </trkpt>
      <trkpt lat="45.21229" lon="5.8291">
        <ele>226.24</ele>
        <time>2021-07-09T16:19:24.000Z</time>
      </trkpt>
      <trkpt lat="45.21213" lon="5.82943">
        <ele>228.19</ele>
        <time>2021-07-09T16:19:29.000Z</time>
      </trkpt>
      <trkpt lat="45.21194" lon="5.82979">
        <ele>228.44</ele>
        <time>2021-07-09T16:19:34.000Z</time>
      </trkpt>
      <trkpt lat="45.21177" lon="5.83013">
        <ele>228.06</ele>
        <time>2021-07-09T16:19:39.000Z</time>
      </trkpt>
      <trkpt lat="45.21161" lon="5.83049">
        <ele>225.22</ele>
        <time>2021-07-09T16:19:44.000Z</time>
      </trkpt>
      <trkpt lat="45.21145" lon="5.83081">
        <ele>224.93</ele>
        <time>2021-07-09T16:19:49.000Z</time>
      </trkpt>
      <trkpt lat="45.21127" lon="5.8311">
        <ele>225.07</ele>
        <time>2021-07-09T16:19:54.000Z</time>
      </trkpt>
      <trkpt lat="45.21111" lon="5.83136">
        <ele>222.22</ele>
        <time>2021-07-09T16:19:59.000Z</time>
      </trkpt>
      <trkpt lat="45.21097" lon="5.8315">
        <ele>222.58</ele>
        <time>2021-07-09T16:20:04.000Z</time>
      </trkpt>
      <trkpt lat="45.21086" lon="5.83158">
        <ele>224.22</ele>
        <time>2021-07-09T16:20:22.000Z</time>
      </trkpt>
      <trkpt lat="45.21063" lon="5.83176">
        <ele>222.93</ele>
        <time>2021-07-09T16:20:27.000Z</time>
      </trkpt>
      <trkpt lat="45.21031" lon="5.83173">
        <ele>221.93</ele>
        <time>2021-07-09T16:20:32.000Z</time>
      </trkpt>
      <trkpt lat="45.21008" lon="5.83201">
        <ele>222.68</ele>
        <time>2021-07-09T16:20:37.000Z</time>
      </trkpt>
      <trkpt lat="45.20979" lon="5.83216">
        <ele>223.58</ele>
        <time>2021-07-09T16:20:42.000Z</time>
      </trkpt>
      <trkpt lat="45.20939" lon="5.83235">
        <ele>226.35</ele>
        <time>2021-07-09T16:20:47.000Z</time>
      </trkpt>
      <trkpt lat="45.20909" lon="5.83253">
        <ele>220.84</ele>
        <time>2021-07-09T16:20:52.000Z</time>
      </trkpt>
      <trkpt lat="45.20881" lon="5.83273">
        <ele>221.71</ele>
        <time>2021-07-09T16:20:57.000Z</time>
      </trkpt>
      <trkpt lat="45.20853" lon="5.83295">
        <ele>220.74</ele>
        <time>2021-07-09T16:21:02.000Z</time>
      </trkpt>
      <trkpt lat="45.20825" lon="5.83315">
        <ele>218.91</ele>
        <time>2021-07-09T16:21:07.000Z</time>
      </trkpt>
      <trkpt lat="45.208" lon="5.83341">
        <ele>215.18</ele>
        <time>2021-07-09T16:21:12.000Z</time>
      </trkpt>
      <trkpt lat="45.20775" lon="5.83361">
        <ele>218.17</ele>
        <time>2021-07-09T16:21:17.000Z</time>
      </trkpt>
      <trkpt lat="45.2075" lon="5.83378">
        <ele>220.91</ele>
        <time>2021-07-09T16:21:22.000Z</time>
      </trkpt>
      <trkpt lat="45.20721" lon="5.83394">
        <ele>224.72</ele>
        <time>2021-07-09T16:21:27.000Z</time>
      </trkpt>
      <trkpt lat="45.20695" lon="5.83415">
        <ele>222.18</ele>
        <time>2021-07-09T16:21:32.000Z</time>
      </trkpt>
      <trkpt lat="45.20672" lon="5.83434">
        <ele>220.8</ele>
        <time>2021-07-09T16:21:37.000Z</time>
      </trkpt>
      <trkpt lat="45.20649" lon="5.83452">
        <ele>225.59</ele>
        <time>2021-07-09T16:21:42.000Z</time>
      </trkpt>
      <trkpt lat="45.20625" lon="5.8347">
        <ele>226.45</ele>
        <time>2021-07-09T16:21:47.000Z</time>
      </trkpt>
      <trkpt lat="45.20602" lon="5.83491">
        <ele>224.63</ele>
        <time>2021-07-09T16:21:52.000Z</time>
      </trkpt>
      <trkpt lat="45.2058" lon="5.83509">
        <ele>231.1</ele>
        <time>2021-07-09T16:21:57.000Z</time>
      </trkpt>
      <trkpt lat="45.20565" lon="5.83523">
        <ele>230.82</ele>
        <time>2021-07-09T16:22:02.000Z</time>
      </trkpt>
      <trkpt lat="45.20554" lon="5.83531">
        <ele>231.26</ele>
        <time>2021-07-09T16:22:07.000Z</time>
      </trkpt>
      <trkpt lat="45.20545" lon="5.83541">
        <ele>233.05</ele>
        <time>2021-07-09T16:22:14.000Z</time>
      </trkpt>
      <trkpt lat="45.20521" lon="5.83556">
        <ele>233.33</ele>
        <time>2021-07-09T16:22:19.000Z</time>
      </trkpt>
      <trkpt lat="45.20498" lon="5.83572">
        <ele>235.55</ele>
        <time>2021-07-09T16:22:24.000Z</time>
      </trkpt>
      <trkpt lat="45.20475" lon="5.83594">
        <ele>234.44</ele>
        <time>2021-07-09T16:22:29.000Z</time>
      </trkpt>
      <trkpt lat="45.20454" lon="5.83616">
        <ele>234.55</ele>
        <time>2021-07-09T16:22:34.000Z</time>
      </trkpt>
      <trkpt lat="45.20433" lon="5.83637">
        <ele>237.12</ele>
        <time>2021-07-09T16:22:39.000Z</time>
      </trkpt>
      <trkpt lat="45.20406" lon="5.83655">
        <ele>235.29</ele>
        <time>2021-07-09T16:22:44.000Z</time>
      </trkpt>
      <trkpt lat="45.20383" lon="5.83675">
        <ele>235.49</ele>
        <time>2021-07-09T16:22:49.000Z</time>
      </trkpt>
      <trkpt lat="45.20371" lon="5.83688">
        <ele>234.7</ele>
        <time>2021-07-09T16:22:54.000Z</time>
      </trkpt>
      <trkpt lat="45.20354" lon="5.83707">
        <ele>236.04</ele>
        <time>2021-07-09T16:22:59.000Z</time>
      </trkpt>
      <trkpt lat="45.20334" lon="5.83727">
        <ele>238.52</ele>
        <time>2021-07-09T16:23:04.000Z</time>
      </trkpt>
      <trkpt lat="45.20318" lon="5.83755">
        <ele>243.07</ele>
        <time>2021-07-09T16:23:09.000Z</time>
      </trkpt>
      <trkpt lat="45.20298" lon="5.83774">
        <ele>246.44</ele>
        <time>2021-07-09T16:23:14.000Z</time>
      </trkpt>
      <trkpt lat="45.2028" lon="5.83789">
        <ele>248.96</ele>
        <time>2021-07-09T16:23:19.000Z</time>
      </trkpt>
      <trkpt lat="45.20258" lon="5.83803">
        <ele>247.27</ele>
        <time>2021-07-09T16:23:24.000Z</time>
      </trkpt>
      <trkpt lat="45.20233" lon="5.83814">
        <ele>247.54</ele>
        <time>2021-07-09T16:23:29.000Z</time>
      </trkpt>
      <trkpt lat="45.20209" lon="5.83823">
        <ele>248.65</ele>
        <time>2021-07-09T16:23:34.000Z</time>
      </trkpt>
      <trkpt lat="45.20187" lon="5.83836">
        <ele>249.46</ele>
        <time>2021-07-09T16:23:39.000Z</time>
      </trkpt>
      <trkpt lat="45.20162" lon="5.83846">
        <ele>250.58</ele>
        <time>2021-07-09T16:23:44.000Z</time>
      </trkpt>
      <trkpt lat="45.20147" lon="5.83863">
        <ele>252.86</ele>
        <time>2021-07-09T16:23:49.000Z</time>
      </trkpt>
      <trkpt lat="45.20148" lon="5.83895">
        <ele>254.33</ele>
        <time>2021-07-09T16:23:54.000Z</time>
      </trkpt>
      <trkpt lat="45.20151" lon="5.83927">
        <ele>251.21</ele>
        <time>2021-07-09T16:23:59.000Z</time>
      </trkpt>
      <trkpt lat="45.20154" lon="5.8396">
        <ele>251.87</ele>
        <time>2021-07-09T16:24:04.000Z</time>
      </trkpt>
      <trkpt lat="45.20149" lon="5.83989">
        <ele>254.35</ele>
        <time>2021-07-09T16:24:09.000Z</time>
      </trkpt>
      <trkpt lat="45.20138" lon="5.84008">
        <ele>254.77</ele>
        <time>2021-07-09T16:24:14.000Z</time>
      </trkpt>
      <trkpt lat="45.20124" lon="5.84035">
        <ele>252.06</ele>
        <time>2021-07-09T16:24:19.000Z</time>
      </trkpt>
      <trkpt lat="45.20108" lon="5.84058">
        <ele>250.34</ele>
        <time>2021-07-09T16:24:24.000Z</time>
      </trkpt>
      <trkpt lat="45.20099" lon="5.8407">
        <ele>250.68</ele>
        <time>2021-07-09T16:24:29.000Z</time>
      </trkpt>
      <trkpt lat="45.20097" lon="5.84083">
        <ele>260.63</ele>
        <time>2021-07-09T16:27:20.000Z</time>
      </trkpt>
      <trkpt lat="45.20095" lon="5.84105">
        <ele>261.9</ele>
        <time>2021-07-09T16:27:25.000Z</time>
      </trkpt>
      <trkpt lat="45.20087" lon="5.84133">
        <ele>260.42</ele>
        <time>2021-07-09T16:27:30.000Z</time>
      </trkpt>
      <trkpt lat="45.20073" lon="5.84161">
        <ele>257.07</ele>
        <time>2021-07-09T16:27:35.000Z</time>
      </trkpt>
      <trkpt lat="45.20052" lon="5.8418">
        <ele>258.28</ele>
        <time>2021-07-09T16:27:40.000Z</time>
      </trkpt>
      <trkpt lat="45.20031" lon="5.84193">
        <ele>257.19</ele>
        <time>2021-07-09T16:27:45.000Z</time>
      </trkpt>
      <trkpt lat="45.20013" lon="5.84211">
        <ele>257.73</ele>
        <time>2021-07-09T16:27:50.000Z</time>
      </trkpt>
      <trkpt lat="45.19994" lon="5.84235">
        <ele>259.73</ele>
        <time>2021-07-09T16:27:55.000Z</time>
      </trkpt>
      <trkpt lat="45.20004" lon="5.84259">
        <ele>264.85</ele>
        <time>2021-07-09T16:28:00.000Z</time>
      </trkpt>
      <trkpt lat="45.20023" lon="5.84257">
        <ele>269.01</ele>
        <time>2021-07-09T16:28:05.000Z</time>
      </trkpt>
      <trkpt lat="45.20043" lon="5.84255">
        <ele>270.54</ele>
        <time>2021-07-09T16:28:10.000Z</time>
      </trkpt>
      <trkpt lat="45.20064" lon="5.84251">
        <ele>273.62</ele>
        <time>2021-07-09T16:28:15.000Z</time>
      </trkpt>
      <trkpt lat="45.20085" lon="5.84248">
        <ele>277.57</ele>
        <time>2021-07-09T16:28:20.000Z</time>
      </trkpt>
      <trkpt lat="45.20106" lon="5.84241">
        <ele>277.35</ele>
        <time>2021-07-09T16:28:25.000Z</time>
      </trkpt>
      <trkpt lat="45.20123" lon="5.84229">
        <ele>279.81</ele>
        <time>2021-07-09T16:28:30.000Z</time>
      </trkpt>
      <trkpt lat="45.20143" lon="5.84226">
        <ele>280.97</ele>
        <time>2021-07-09T16:28:35.000Z</time>
      </trkpt>
      <trkpt lat="45.20163" lon="5.84236">
        <ele>279.82</ele>
        <time>2021-07-09T16:28:40.000Z</time>
      </trkpt>
      <trkpt lat="45.20176" lon="5.84258">
        <ele>277.92</ele>
        <time>2021-07-09T16:28:45.000Z</time>
      </trkpt>
      <trkpt lat="45.20183" lon="5.84285">
        <ele>279.11</ele>
        <time>2021-07-09T16:28:50.000Z</time>
      </trkpt>
      <trkpt lat="45.20188" lon="5.84314">
        <ele>280.2</ele>
        <time>2021-07-09T16:28:55.000Z</time>
      </trkpt>
      <trkpt lat="45.20197" lon="5.8434">
        <ele>281.03</ele>
        <time>2021-07-09T16:29:00.000Z</time>
      </trkpt>
      <trkpt lat="45.20209" lon="5.84362">
        <ele>283.69</ele>
        <time>2021-07-09T16:29:05.000Z</time>
      </trkpt>
      <trkpt lat="45.20214" lon="5.84387">
        <ele>283.35</ele>
        <time>2021-07-09T16:29:10.000Z</time>
      </trkpt>
      <trkpt lat="45.20226" lon="5.84411">
        <ele>286.53</ele>
        <time>2021-07-09T16:29:15.000Z</time>
      </trkpt>
      <trkpt lat="45.20232" lon="5.84435">
        <ele>288.7</ele>
        <time>2021-07-09T16:29:20.000Z</time>
      </trkpt>
      <trkpt lat="45.20234" lon="5.84461">
        <ele>292.05</ele>
        <time>2021-07-09T16:29:25.000Z</time>
      </trkpt>
      <trkpt lat="45.20239" lon="5.84489">
        <ele>295.04</ele>
        <time>2021-07-09T16:29:30.000Z</time>
      </trkpt>
      <trkpt lat="45.20245" lon="5.84515">
        <ele>297.9</ele>
        <time>2021-07-09T16:29:35.000Z</time>
      </trkpt>
      <trkpt lat="45.20249" lon="5.84544">
        <ele>299.87</ele>
        <time>2021-07-09T16:29:40.000Z</time>
      </trkpt>
      <trkpt lat="45.20257" lon="5.8457">
        <ele>304.14</ele>
        <time>2021-07-09T16:29:45.000Z</time>
      </trkpt>
      <trkpt lat="45.20266" lon="5.84595">
        <ele>303.85</ele>
        <time>2021-07-09T16:29:50.000Z</time>
      </trkpt>
      <trkpt lat="45.20272" lon="5.84622">
        <ele>305.09</ele>
        <time>2021-07-09T16:29:55.000Z</time>
      </trkpt>
      <trkpt lat="45.20282" lon="5.84645">
        <ele>306.37</ele>
        <time>2021-07-09T16:30:00.000Z</time>
      </trkpt>
      <trkpt lat="45.2029" lon="5.84668">
        <ele>309.25</ele>
        <time>2021-07-09T16:30:05.000Z</time>
      </trkpt>
      <trkpt lat="45.20299" lon="5.84693">
        <ele>310.65</ele>
        <time>2021-07-09T16:30:10.000Z</time>
      </trkpt>
      <trkpt lat="45.20305" lon="5.8472">
        <ele>311.46</ele>
        <time>2021-07-09T16:30:15.000Z</time>
      </trkpt>
      <trkpt lat="45.2031" lon="5.84746">
        <ele>313.41</ele>
        <time>2021-07-09T16:30:20.000Z</time>
      </trkpt>
      <trkpt lat="45.20316" lon="5.84772">
        <ele>315.68</ele>
        <time>2021-07-09T16:30:25.000Z</time>
      </trkpt>
      <trkpt lat="45.20321" lon="5.84798">
        <ele>315.62</ele>
        <time>2021-07-09T16:30:30.000Z</time>
      </trkpt>
      <trkpt lat="45.20326" lon="5.84826">
        <ele>318.87</ele>
        <time>2021-07-09T16:30:35.000Z</time>
      </trkpt>
      <trkpt lat="45.20328" lon="5.84855">
        <ele>318.73</ele>
        <time>2021-07-09T16:30:40.000Z</time>
      </trkpt>
      <trkpt lat="45.20333" lon="5.84881">
        <ele>321.96</ele>
        <time>2021-07-09T16:30:45.000Z</time>
      </trkpt>
      <trkpt lat="45.20343" lon="5.84905">
        <ele>323.56</ele>
        <time>2021-07-09T16:30:50.000Z</time>
      </trkpt>
      <trkpt lat="45.20355" lon="5.84929">
        <ele>325.24</ele>
        <time>2021-07-09T16:30:55.000Z</time>
      </trkpt>
      <trkpt lat="45.20362" lon="5.84952">
        <ele>326.78</ele>
        <time>2021-07-09T16:31:00.000Z</time>
      </trkpt>
      <trkpt lat="45.20368" lon="5.84978">
        <ele>328.24</ele>
        <time>2021-07-09T16:31:05.000Z</time>
      </trkpt>
      <trkpt lat="45.20376" lon="5.85002">
        <ele>329.74</ele>
        <time>2021-07-09T16:31:10.000Z</time>
      </trkpt>
      <trkpt lat="45.20383" lon="5.85026">
        <ele>330.9</ele>
        <time>2021-07-09T16:31:15.000Z</time>
      </trkpt>
      <trkpt lat="45.20394" lon="5.85052">
        <ele>333.54</ele>
        <time>2021-07-09T16:31:20.000Z</time>
      </trkpt>
      <trkpt lat="45.20406" lon="5.85075">
        <ele>337.26</ele>
        <time>2021-07-09T16:31:25.000Z</time>
      </trkpt>
      <trkpt lat="45.20418" lon="5.85101">
        <ele>342.41</ele>
        <time>2021-07-09T16:31:30.000Z</time>
      </trkpt>
      <trkpt lat="45.20408" lon="5.8512">
        <ele>344.99</ele>
        <time>2021-07-09T16:31:35.000Z</time>
      </trkpt>
      <trkpt lat="45.20393" lon="5.85098">
        <ele>344.89</ele>
        <time>2021-07-09T16:31:40.000Z</time>
      </trkpt>
      <trkpt lat="45.20387" lon="5.85072">
        <ele>347.57</ele>
        <time>2021-07-09T16:31:45.000Z</time>
      </trkpt>
      <trkpt lat="45.20377" lon="5.85053">
        <ele>346.94</ele>
        <time>2021-07-09T16:31:50.000Z</time>
      </trkpt>
      <trkpt lat="45.20363" lon="5.85032">
        <ele>346.43</ele>
        <time>2021-07-09T16:31:55.000Z</time>
      </trkpt>
      <trkpt lat="45.20349" lon="5.85009">
        <ele>348.36</ele>
        <time>2021-07-09T16:32:00.000Z</time>
      </trkpt>
      <trkpt lat="45.20339" lon="5.84986">
        <ele>348.94</ele>
        <time>2021-07-09T16:32:05.000Z</time>
      </trkpt>
      <trkpt lat="45.2033" lon="5.84963">
        <ele>349.82</ele>
        <time>2021-07-09T16:32:10.000Z</time>
      </trkpt>
      <trkpt lat="45.20321" lon="5.84941">
        <ele>351.47</ele>
        <time>2021-07-09T16:32:15.000Z</time>
      </trkpt>
      <trkpt lat="45.20308" lon="5.84921">
        <ele>355.47</ele>
        <time>2021-07-09T16:32:20.000Z</time>
      </trkpt>
      <trkpt lat="45.20294" lon="5.849">
        <ele>355.75</ele>
        <time>2021-07-09T16:32:25.000Z</time>
      </trkpt>
      <trkpt lat="45.20284" lon="5.84878">
        <ele>360.11</ele>
        <time>2021-07-09T16:32:30.000Z</time>
      </trkpt>
      <trkpt lat="45.20276" lon="5.84855">
        <ele>359.57</ele>
        <time>2021-07-09T16:32:35.000Z</time>
      </trkpt>
      <trkpt lat="45.20271" lon="5.84831">
        <ele>360.51</ele>
        <time>2021-07-09T16:32:40.000Z</time>
      </trkpt>
      <trkpt lat="45.20261" lon="5.8481">
        <ele>361.07</ele>
        <time>2021-07-09T16:32:45.000Z</time>
      </trkpt>
      <trkpt lat="45.20255" lon="5.84786">
        <ele>362.38</ele>
        <time>2021-07-09T16:32:50.000Z</time>
      </trkpt>
      <trkpt lat="45.20249" lon="5.84763">
        <ele>366.24</ele>
        <time>2021-07-09T16:32:55.000Z</time>
      </trkpt>
      <trkpt lat="45.20239" lon="5.84742">
        <ele>368.63</ele>
        <time>2021-07-09T16:33:00.000Z</time>
      </trkpt>
      <trkpt lat="45.20224" lon="5.84728">
        <ele>368.66</ele>
        <time>2021-07-09T16:33:05.000Z</time>
      </trkpt>
      <trkpt lat="45.20211" lon="5.84716">
        <ele>371.15</ele>
        <time>2021-07-09T16:33:10.000Z</time>
      </trkpt>
      <trkpt lat="45.20197" lon="5.847">
        <ele>373.58</ele>
        <time>2021-07-09T16:33:15.000Z</time>
      </trkpt>
      <trkpt lat="45.20183" lon="5.84679">
        <ele>377.14</ele>
        <time>2021-07-09T16:33:20.000Z</time>
      </trkpt>
      <trkpt lat="45.20172" lon="5.84654">
        <ele>376.59</ele>
        <time>2021-07-09T16:33:25.000Z</time>
      </trkpt>
      <trkpt lat="45.20163" lon="5.84628">
        <ele>376.71</ele>
        <time>2021-07-09T16:33:30.000Z</time>
      </trkpt>
      <trkpt lat="45.20155" lon="5.84603">
        <ele>379.81</ele>
        <time>2021-07-09T16:33:35.000Z</time>
      </trkpt>
      <trkpt lat="45.20147" lon="5.84581">
        <ele>386.11</ele>
        <time>2021-07-09T16:33:40.000Z</time>
      </trkpt>
      <trkpt lat="45.20138" lon="5.84558">
        <ele>388.54</ele>
        <time>2021-07-09T16:33:45.000Z</time>
      </trkpt>
      <trkpt lat="45.20128" lon="5.84532">
        <ele>391.99</ele>
        <time>2021-07-09T16:33:50.000Z</time>
      </trkpt>
      <trkpt lat="45.20118" lon="5.84511">
        <ele>391.63</ele>
        <time>2021-07-09T16:33:55.000Z</time>
      </trkpt>
      <trkpt lat="45.20104" lon="5.84493">
        <ele>393.47</ele>
        <time>2021-07-09T16:34:00.000Z</time>
      </trkpt>
      <trkpt lat="45.20092" lon="5.84479">
        <ele>392.76</ele>
        <time>2021-07-09T16:34:05.000Z</time>
      </trkpt>
      <trkpt lat="45.20075" lon="5.84471">
        <ele>394.95</ele>
        <time>2021-07-09T16:34:10.000Z</time>
      </trkpt>
      <trkpt lat="45.20058" lon="5.84474">
        <ele>398.78</ele>
        <time>2021-07-09T16:34:15.000Z</time>
      </trkpt>
      <trkpt lat="45.20042" lon="5.84478">
        <ele>402.72</ele>
        <time>2021-07-09T16:34:20.000Z</time>
      </trkpt>
      <trkpt lat="45.20023" lon="5.84485">
        <ele>404.65</ele>
        <time>2021-07-09T16:34:25.000Z</time>
      </trkpt>
      <trkpt lat="45.20004" lon="5.84492">
        <ele>406.28</ele>
        <time>2021-07-09T16:34:30.000Z</time>
      </trkpt>
      <trkpt lat="45.19984" lon="5.84493">
        <ele>413.25</ele>
        <time>2021-07-09T16:34:35.000Z</time>
      </trkpt>
      <trkpt lat="45.19966" lon="5.84497">
        <ele>415.44</ele>
        <time>2021-07-09T16:34:40.000Z</time>
      </trkpt>
      <trkpt lat="45.19951" lon="5.84514">
        <ele>416.07</ele>
        <time>2021-07-09T16:34:45.000Z</time>
      </trkpt>
      <trkpt lat="45.19941" lon="5.84536">
        <ele>416.55</ele>
        <time>2021-07-09T16:34:50.000Z</time>
      </trkpt>
      <trkpt lat="45.19934" lon="5.84561">
        <ele>418.26</ele>
        <time>2021-07-09T16:34:55.000Z</time>
      </trkpt>
      <trkpt lat="45.19927" lon="5.84586">
        <ele>419.52</ele>
        <time>2021-07-09T16:35:00.000Z</time>
      </trkpt>
      <trkpt lat="45.19914" lon="5.84606">
        <ele>422.62</ele>
        <time>2021-07-09T16:35:05.000Z</time>
      </trkpt>
      <trkpt lat="45.199" lon="5.84623">
        <ele>425</ele>
        <time>2021-07-09T16:35:10.000Z</time>
      </trkpt>
      <trkpt lat="45.19885" lon="5.8464">
        <ele>427.53</ele>
        <time>2021-07-09T16:35:15.000Z</time>
      </trkpt>
      <trkpt lat="45.19872" lon="5.84661">
        <ele>430.24</ele>
        <time>2021-07-09T16:35:20.000Z</time>
      </trkpt>
      <trkpt lat="45.19859" lon="5.8468">
        <ele>430.52</ele>
        <time>2021-07-09T16:35:25.000Z</time>
      </trkpt>
      <trkpt lat="45.19849" lon="5.84703">
        <ele>430.95</ele>
        <time>2021-07-09T16:35:30.000Z</time>
      </trkpt>
      <trkpt lat="45.19848" lon="5.84731">
        <ele>433.61</ele>
        <time>2021-07-09T16:35:35.000Z</time>
      </trkpt>
      <trkpt lat="45.19857" lon="5.84757">
        <ele>430.97</ele>
        <time>2021-07-09T16:35:40.000Z</time>
      </trkpt>
      <trkpt lat="45.19867" lon="5.84782">
        <ele>432.35</ele>
        <time>2021-07-09T16:35:45.000Z</time>
      </trkpt>
      <trkpt lat="45.19847" lon="5.84793">
        <ele>433.59</ele>
        <time>2021-07-09T16:35:50.000Z</time>
      </trkpt>
      <trkpt lat="45.19826" lon="5.84789">
        <ele>437.79</ele>
        <time>2021-07-09T16:35:55.000Z</time>
      </trkpt>
      <trkpt lat="45.19809" lon="5.848">
        <ele>437.32</ele>
        <time>2021-07-09T16:36:00.000Z</time>
      </trkpt>
      <trkpt lat="45.19791" lon="5.84813">
        <ele>442.68</ele>
        <time>2021-07-09T16:36:05.000Z</time>
      </trkpt>
      <trkpt lat="45.19775" lon="5.84824">
        <ele>445.61</ele>
        <time>2021-07-09T16:36:10.000Z</time>
      </trkpt>
      <trkpt lat="45.19757" lon="5.84833">
        <ele>447.41</ele>
        <time>2021-07-09T16:36:15.000Z</time>
      </trkpt>
      <trkpt lat="45.19738" lon="5.8484">
        <ele>446.91</ele>
        <time>2021-07-09T16:36:20.000Z</time>
      </trkpt>
      <trkpt lat="45.19721" lon="5.8485">
        <ele>445.66</ele>
        <time>2021-07-09T16:36:25.000Z</time>
      </trkpt>
      <trkpt lat="45.19707" lon="5.84865">
        <ele>445.94</ele>
        <time>2021-07-09T16:36:30.000Z</time>
      </trkpt>
      <trkpt lat="45.19692" lon="5.84879">
        <ele>448.02</ele>
        <time>2021-07-09T16:36:35.000Z</time>
      </trkpt>
      <trkpt lat="45.19672" lon="5.84889">
        <ele>447.15</ele>
        <time>2021-07-09T16:36:40.000Z</time>
      </trkpt>
      <trkpt lat="45.19658" lon="5.84908">
        <ele>451.53</ele>
        <time>2021-07-09T16:36:45.000Z</time>
      </trkpt>
      <trkpt lat="45.19645" lon="5.84927">
        <ele>454.78</ele>
        <time>2021-07-09T16:36:50.000Z</time>
      </trkpt>
      <trkpt lat="45.19632" lon="5.84945">
        <ele>453.52</ele>
        <time>2021-07-09T16:36:55.000Z</time>
      </trkpt>
      <trkpt lat="45.19618" lon="5.84963">
        <ele>454.71</ele>
        <time>2021-07-09T16:37:00.000Z</time>
      </trkpt>
      <trkpt lat="45.19601" lon="5.84971">
        <ele>453.48</ele>
        <time>2021-07-09T16:37:05.000Z</time>
      </trkpt>
      <trkpt lat="45.19585" lon="5.84984">
        <ele>454.74</ele>
        <time>2021-07-09T16:37:10.000Z</time>
      </trkpt>
      <trkpt lat="45.19567" lon="5.85">
        <ele>456.38</ele>
        <time>2021-07-09T16:37:15.000Z</time>
      </trkpt>
      <trkpt lat="45.19549" lon="5.85011">
        <ele>459.01</ele>
        <time>2021-07-09T16:37:20.000Z</time>
      </trkpt>
      <trkpt lat="45.19529" lon="5.85021">
        <ele>463.38</ele>
        <time>2021-07-09T16:37:25.000Z</time>
      </trkpt>
      <trkpt lat="45.19513" lon="5.85033">
        <ele>461.08</ele>
        <time>2021-07-09T16:37:30.000Z</time>
      </trkpt>
      <trkpt lat="45.19498" lon="5.85048">
        <ele>463.2</ele>
        <time>2021-07-09T16:37:35.000Z</time>
      </trkpt>
      <trkpt lat="45.19484" lon="5.85066">
        <ele>466.93</ele>
        <time>2021-07-09T16:37:40.000Z</time>
      </trkpt>
      <trkpt lat="45.19471" lon="5.85087">
        <ele>470.97</ele>
        <time>2021-07-09T16:37:45.000Z</time>
      </trkpt>
      <trkpt lat="45.19467" lon="5.85115">
        <ele>472.71</ele>
        <time>2021-07-09T16:37:50.000Z</time>
      </trkpt>
      <trkpt lat="45.19469" lon="5.85145">
        <ele>473.62</ele>
        <time>2021-07-09T16:37:55.000Z</time>
      </trkpt>
      <trkpt lat="45.19468" lon="5.85173">
        <ele>476.79</ele>
        <time>2021-07-09T16:38:00.000Z</time>
      </trkpt>
      <trkpt lat="45.19454" lon="5.85191">
        <ele>479.14</ele>
        <time>2021-07-09T16:38:05.000Z</time>
      </trkpt>
      <trkpt lat="45.19433" lon="5.85187">
        <ele>480.33</ele>
        <time>2021-07-09T16:38:10.000Z</time>
      </trkpt>
      <trkpt lat="45.19411" lon="5.85184">
        <ele>482.67</ele>
        <time>2021-07-09T16:38:15.000Z</time>
      </trkpt>
      <trkpt lat="45.19394" lon="5.85201">
        <ele>485.69</ele>
        <time>2021-07-09T16:38:20.000Z</time>
      </trkpt>
      <trkpt lat="45.19382" lon="5.85223">
        <ele>486.72</ele>
        <time>2021-07-09T16:38:25.000Z</time>
      </trkpt>
      <trkpt lat="45.19375" lon="5.85247">
        <ele>490.77</ele>
        <time>2021-07-09T16:38:30.000Z</time>
      </trkpt>
      <trkpt lat="45.19377" lon="5.85278">
        <ele>491.6</ele>
        <time>2021-07-09T16:38:35.000Z</time>
      </trkpt>
      <trkpt lat="45.19377" lon="5.85306">
        <ele>495.19</ele>
        <time>2021-07-09T16:38:40.000Z</time>
      </trkpt>
      <trkpt lat="45.19378" lon="5.85334">
        <ele>497.14</ele>
        <time>2021-07-09T16:38:45.000Z</time>
      </trkpt>
      <trkpt lat="45.1938" lon="5.85363">
        <ele>499.13</ele>
        <time>2021-07-09T16:38:50.000Z</time>
      </trkpt>
      <trkpt lat="45.19361" lon="5.8537">
        <ele>499.83</ele>
        <time>2021-07-09T16:38:55.000Z</time>
      </trkpt>
      <trkpt lat="45.19345" lon="5.85342">
        <ele>500.07</ele>
        <time>2021-07-09T16:39:00.000Z</time>
      </trkpt>
      <trkpt lat="45.19323" lon="5.85325">
        <ele>499.94</ele>
        <time>2021-07-09T16:39:05.000Z</time>
      </trkpt>
      <trkpt lat="45.19298" lon="5.85337">
        <ele>500.86</ele>
        <time>2021-07-09T16:39:10.000Z</time>
      </trkpt>
      <trkpt lat="45.19275" lon="5.85346">
        <ele>502.73</ele>
        <time>2021-07-09T16:39:15.000Z</time>
      </trkpt>
      <trkpt lat="45.19255" lon="5.85355">
        <ele>502.68</ele>
        <time>2021-07-09T16:39:20.000Z</time>
      </trkpt>
      <trkpt lat="45.19233" lon="5.85369">
        <ele>505.36</ele>
        <time>2021-07-09T16:39:25.000Z</time>
      </trkpt>
      <trkpt lat="45.19211" lon="5.85374">
        <ele>508.09</ele>
        <time>2021-07-09T16:39:30.000Z</time>
      </trkpt>
      <trkpt lat="45.1919" lon="5.85381">
        <ele>508.9</ele>
        <time>2021-07-09T16:39:35.000Z</time>
      </trkpt>
      <trkpt lat="45.1917" lon="5.85393">
        <ele>508.17</ele>
        <time>2021-07-09T16:39:40.000Z</time>
      </trkpt>
      <trkpt lat="45.19153" lon="5.85414">
        <ele>505.77</ele>
        <time>2021-07-09T16:39:45.000Z</time>
      </trkpt>
      <trkpt lat="45.19135" lon="5.85436">
        <ele>506.59</ele>
        <time>2021-07-09T16:39:50.000Z</time>
      </trkpt>
      <trkpt lat="45.19116" lon="5.85455">
        <ele>507.42</ele>
        <time>2021-07-09T16:39:55.000Z</time>
      </trkpt>
      <trkpt lat="45.19097" lon="5.85477">
        <ele>509.93</ele>
        <time>2021-07-09T16:40:00.000Z</time>
      </trkpt>
      <trkpt lat="45.19077" lon="5.85495">
        <ele>510.85</ele>
        <time>2021-07-09T16:40:05.000Z</time>
      </trkpt>
      <trkpt lat="45.19055" lon="5.85507">
        <ele>511.95</ele>
        <time>2021-07-09T16:40:10.000Z</time>
      </trkpt>
      <trkpt lat="45.19034" lon="5.85516">
        <ele>514.87</ele>
        <time>2021-07-09T16:40:15.000Z</time>
      </trkpt>
      <trkpt lat="45.19012" lon="5.85528">
        <ele>518.84</ele>
        <time>2021-07-09T16:40:20.000Z</time>
      </trkpt>
      <trkpt lat="45.18992" lon="5.85547">
        <ele>521.39</ele>
        <time>2021-07-09T16:40:25.000Z</time>
      </trkpt>
      <trkpt lat="45.18975" lon="5.85569">
        <ele>521.63</ele>
        <time>2021-07-09T16:40:30.000Z</time>
      </trkpt>
      <trkpt lat="45.18966" lon="5.85597">
        <ele>522.82</ele>
        <time>2021-07-09T16:40:35.000Z</time>
      </trkpt>
      <trkpt lat="45.18955" lon="5.85624">
        <ele>524.25</ele>
        <time>2021-07-09T16:40:40.000Z</time>
      </trkpt>
      <trkpt lat="45.18943" lon="5.85646">
        <ele>527.43</ele>
        <time>2021-07-09T16:40:45.000Z</time>
      </trkpt>
      <trkpt lat="45.18938" lon="5.85673">
        <ele>527.37</ele>
        <time>2021-07-09T16:40:50.000Z</time>
      </trkpt>
      <trkpt lat="45.18946" lon="5.85704">
        <ele>531.3</ele>
        <time>2021-07-09T16:40:55.000Z</time>
      </trkpt>
      <trkpt lat="45.18952" lon="5.85732">
        <ele>532.11</ele>
        <time>2021-07-09T16:41:00.000Z</time>
      </trkpt>
      <trkpt lat="45.18958" lon="5.8576">
        <ele>533.58</ele>
        <time>2021-07-09T16:41:05.000Z</time>
      </trkpt>
      <trkpt lat="45.1896" lon="5.85789">
        <ele>533.82</ele>
        <time>2021-07-09T16:41:10.000Z</time>
      </trkpt>
      <trkpt lat="45.18963" lon="5.8582">
        <ele>533.46</ele>
        <time>2021-07-09T16:41:15.000Z</time>
      </trkpt>
      <trkpt lat="45.18964" lon="5.8585">
        <ele>537.13</ele>
        <time>2021-07-09T16:41:20.000Z</time>
      </trkpt>
      <trkpt lat="45.18965" lon="5.85879">
        <ele>540.92</ele>
        <time>2021-07-09T16:41:25.000Z</time>
      </trkpt>
      <trkpt lat="45.18967" lon="5.85912">
        <ele>541.6</ele>
        <time>2021-07-09T16:41:30.000Z</time>
      </trkpt>
      <trkpt lat="45.18972" lon="5.85944">
        <ele>544.58</ele>
        <time>2021-07-09T16:41:35.000Z</time>
      </trkpt>
      <trkpt lat="45.1897" lon="5.85979">
        <ele>547.06</ele>
        <time>2021-07-09T16:41:40.000Z</time>
      </trkpt>
      <trkpt lat="45.18965" lon="5.86011">
        <ele>553.75</ele>
        <time>2021-07-09T16:41:45.000Z</time>
      </trkpt>
      <trkpt lat="45.18957" lon="5.86045">
        <ele>557.59</ele>
        <time>2021-07-09T16:41:50.000Z</time>
      </trkpt>
      <trkpt lat="45.18948" lon="5.86074">
        <ele>560.63</ele>
        <time>2021-07-09T16:41:55.000Z</time>
      </trkpt>
      <trkpt lat="45.18943" lon="5.86105">
        <ele>562.93</ele>
        <time>2021-07-09T16:42:00.000Z</time>
      </trkpt>
      <trkpt lat="45.18941" lon="5.86138">
        <ele>563.83</ele>
        <time>2021-07-09T16:42:05.000Z</time>
      </trkpt>
      <trkpt lat="45.18938" lon="5.86167">
        <ele>565.31</ele>
        <time>2021-07-09T16:42:10.000Z</time>
      </trkpt>
      <trkpt lat="45.18934" lon="5.86195">
        <ele>566.73</ele>
        <time>2021-07-09T16:42:15.000Z</time>
      </trkpt>
      <trkpt lat="45.18927" lon="5.86224">
        <ele>568.21</ele>
        <time>2021-07-09T16:42:20.000Z</time>
      </trkpt>
      <trkpt lat="45.18921" lon="5.86254">
        <ele>570.01</ele>
        <time>2021-07-09T16:42:25.000Z</time>
      </trkpt>
      <trkpt lat="45.18915" lon="5.86283">
        <ele>571.89</ele>
        <time>2021-07-09T16:42:30.000Z</time>
      </trkpt>
      <trkpt lat="45.18909" lon="5.86309">
        <ele>573.9</ele>
        <time>2021-07-09T16:42:35.000Z</time>
      </trkpt>
      <trkpt lat="45.18904" lon="5.86337">
        <ele>575.16</ele>
        <time>2021-07-09T16:42:40.000Z</time>
      </trkpt>
      <trkpt lat="45.18896" lon="5.86365">
        <ele>576.77</ele>
        <time>2021-07-09T16:42:45.000Z</time>
      </trkpt>
      <trkpt lat="45.18883" lon="5.86387">
        <ele>579.19</ele>
        <time>2021-07-09T16:42:50.000Z</time>
      </trkpt>
      <trkpt lat="45.1887" lon="5.86407">
        <ele>582.18</ele>
        <time>2021-07-09T16:42:55.000Z</time>
      </trkpt>
      <trkpt lat="45.18855" lon="5.86427">
        <ele>581.19</ele>
        <time>2021-07-09T16:43:00.000Z</time>
      </trkpt>
      <trkpt lat="45.1884" lon="5.86447">
        <ele>582.59</ele>
        <time>2021-07-09T16:43:05.000Z</time>
      </trkpt>
      <trkpt lat="45.18821" lon="5.86459">
        <ele>585.19</ele>
        <time>2021-07-09T16:43:10.000Z</time>
      </trkpt>
      <trkpt lat="45.18801" lon="5.86459">
        <ele>590.56</ele>
        <time>2021-07-09T16:43:15.000Z</time>
      </trkpt>
      <trkpt lat="45.18782" lon="5.86462">
        <ele>592.78</ele>
        <time>2021-07-09T16:43:20.000Z</time>
      </trkpt>
      <trkpt lat="45.18775" lon="5.86489">
        <ele>592.25</ele>
        <time>2021-07-09T16:43:25.000Z</time>
      </trkpt>
      <trkpt lat="45.18781" lon="5.86519">
        <ele>593.63</ele>
        <time>2021-07-09T16:43:30.000Z</time>
      </trkpt>
      <trkpt lat="45.18791" lon="5.86551">
        <ele>595.07</ele>
        <time>2021-07-09T16:43:35.000Z</time>
      </trkpt>
      <trkpt lat="45.18795" lon="5.86581">
        <ele>596.23</ele>
        <time>2021-07-09T16:43:40.000Z</time>
      </trkpt>
      <trkpt lat="45.18796" lon="5.86608">
        <ele>595.76</ele>
        <time>2021-07-09T16:43:45.000Z</time>
      </trkpt>
      <trkpt lat="45.1879" lon="5.86635">
        <ele>600.38</ele>
        <time>2021-07-09T16:43:50.000Z</time>
      </trkpt>
      <trkpt lat="45.18779" lon="5.86661">
        <ele>602.64</ele>
        <time>2021-07-09T16:43:55.000Z</time>
      </trkpt>
      <trkpt lat="45.18765" lon="5.86682">
        <ele>603.82</ele>
        <time>2021-07-09T16:44:00.000Z</time>
      </trkpt>
      <trkpt lat="45.18749" lon="5.86701">
        <ele>609.41</ele>
        <time>2021-07-09T16:44:05.000Z</time>
      </trkpt>
      <trkpt lat="45.18732" lon="5.86719">
        <ele>606.06</ele>
        <time>2021-07-09T16:44:10.000Z</time>
      </trkpt>
      <trkpt lat="45.18717" lon="5.8674">
        <ele>608.7</ele>
        <time>2021-07-09T16:44:15.000Z</time>
      </trkpt>
      <trkpt lat="45.18705" lon="5.86762">
        <ele>609.45</ele>
        <time>2021-07-09T16:44:20.000Z</time>
      </trkpt>
      <trkpt lat="45.18692" lon="5.86785">
        <ele>615.26</ele>
        <time>2021-07-09T16:44:25.000Z</time>
      </trkpt>
      <trkpt lat="45.18682" lon="5.86808">
        <ele>617.91</ele>
        <time>2021-07-09T16:44:30.000Z</time>
      </trkpt>
      <trkpt lat="45.1867" lon="5.86833">
        <ele>621.92</ele>
        <time>2021-07-09T16:44:35.000Z</time>
      </trkpt>
      <trkpt lat="45.18661" lon="5.86859">
        <ele>624.33</ele>
        <time>2021-07-09T16:44:40.000Z</time>
      </trkpt>
      <trkpt lat="45.18658" lon="5.86889">
        <ele>625.17</ele>
        <time>2021-07-09T16:44:45.000Z</time>
      </trkpt>
      <trkpt lat="45.18652" lon="5.86916">
        <ele>629.4</ele>
        <time>2021-07-09T16:44:50.000Z</time>
      </trkpt>
      <trkpt lat="45.18633" lon="5.86926">
        <ele>630.94</ele>
        <time>2021-07-09T16:44:55.000Z</time>
      </trkpt>
      <trkpt lat="45.18615" lon="5.86916">
        <ele>632.49</ele>
        <time>2021-07-09T16:45:00.000Z</time>
      </trkpt>
      <trkpt lat="45.18603" lon="5.86891">
        <ele>632.26</ele>
        <time>2021-07-09T16:45:05.000Z</time>
      </trkpt>
      <trkpt lat="45.18596" lon="5.86862">
        <ele>633.4</ele>
        <time>2021-07-09T16:45:10.000Z</time>
      </trkpt>
      <trkpt lat="45.18578" lon="5.86861">
        <ele>635.19</ele>
        <time>2021-07-09T16:45:15.000Z</time>
      </trkpt>
      <trkpt lat="45.18574" lon="5.8689">
        <ele>636.28</ele>
        <time>2021-07-09T16:45:20.000Z</time>
      </trkpt>
      <trkpt lat="45.18584" lon="5.86911">
        <ele>638.46</ele>
        <time>2021-07-09T16:45:25.000Z</time>
      </trkpt>
      <trkpt lat="45.1859" lon="5.86936">
        <ele>638.94</ele>
        <time>2021-07-09T16:45:30.000Z</time>
      </trkpt>
      <trkpt lat="45.18591" lon="5.86963">
        <ele>640.7</ele>
        <time>2021-07-09T16:45:35.000Z</time>
      </trkpt>
      <trkpt lat="45.1859" lon="5.86993">
        <ele>641.75</ele>
        <time>2021-07-09T16:45:40.000Z</time>
      </trkpt>
      <trkpt lat="45.18582" lon="5.87019">
        <ele>644.64</ele>
        <time>2021-07-09T16:45:45.000Z</time>
      </trkpt>
      <trkpt lat="45.18573" lon="5.87045">
        <ele>646.78</ele>
        <time>2021-07-09T16:45:50.000Z</time>
      </trkpt>
      <trkpt lat="45.18558" lon="5.87059">
        <ele>647.47</ele>
        <time>2021-07-09T16:45:55.000Z</time>
      </trkpt>
      <trkpt lat="45.18539" lon="5.87057">
        <ele>646.22</ele>
        <time>2021-07-09T16:46:00.000Z</time>
      </trkpt>
      <trkpt lat="45.18522" lon="5.87053">
        <ele>646.53</ele>
        <time>2021-07-09T16:46:05.000Z</time>
      </trkpt>
      <trkpt lat="45.18507" lon="5.87067">
        <ele>645.46</ele>
        <time>2021-07-09T16:46:10.000Z</time>
      </trkpt>
      <trkpt lat="45.18493" lon="5.87085">
        <ele>650.27</ele>
        <time>2021-07-09T16:46:15.000Z</time>
      </trkpt>
      <trkpt lat="45.18476" lon="5.87095">
        <ele>652.44</ele>
        <time>2021-07-09T16:46:20.000Z</time>
      </trkpt>
      <trkpt lat="45.18455" lon="5.87102">
        <ele>656.25</ele>
        <time>2021-07-09T16:46:25.000Z</time>
      </trkpt>
      <trkpt lat="45.18436" lon="5.8711">
        <ele>656.52</ele>
        <time>2021-07-09T16:46:30.000Z</time>
      </trkpt>
      <trkpt lat="45.18416" lon="5.87118">
        <ele>659.29</ele>
        <time>2021-07-09T16:46:35.000Z</time>
      </trkpt>
      <trkpt lat="45.18402" lon="5.87139">
        <ele>659.71</ele>
        <time>2021-07-09T16:46:40.000Z</time>
      </trkpt>
      <trkpt lat="45.1841" lon="5.87169">
        <ele>657.72</ele>
        <time>2021-07-09T16:46:45.000Z</time>
      </trkpt>
      <trkpt lat="45.18428" lon="5.87185">
        <ele>657.47</ele>
        <time>2021-07-09T16:46:50.000Z</time>
      </trkpt>
      <trkpt lat="45.18433" lon="5.87199">
        <ele>658.14</ele>
        <time>2021-07-09T16:46:55.000Z</time>
      </trkpt>
      <trkpt lat="45.18422" lon="5.87209">
        <ele>662.92</ele>
        <time>2021-07-09T16:47:00.000Z</time>
      </trkpt>
      <trkpt lat="45.18412" lon="5.87223">
        <ele>664.6</ele>
        <time>2021-07-09T16:47:05.000Z</time>
      </trkpt>
      <trkpt lat="45.18403" lon="5.87241">
        <ele>668.47</ele>
        <time>2021-07-09T16:47:10.000Z</time>
      </trkpt>
      <trkpt lat="45.18396" lon="5.87259">
        <ele>670.46</ele>
        <time>2021-07-09T16:47:15.000Z</time>
      </trkpt>
      <trkpt lat="45.18388" lon="5.87277">
        <ele>678.89</ele>
        <time>2021-07-09T16:47:20.000Z</time>
      </trkpt>
      <trkpt lat="45.18386" lon="5.87298">
        <ele>679.62</ele>
        <time>2021-07-09T16:47:25.000Z</time>
      </trkpt>
      <trkpt lat="45.18388" lon="5.87319">
        <ele>680.92</ele>
        <time>2021-07-09T16:47:30.000Z</time>
      </trkpt>
      <trkpt lat="45.18393" lon="5.87339">
        <ele>682.77</ele>
        <time>2021-07-09T16:47:35.000Z</time>
      </trkpt>
      <trkpt lat="45.18394" lon="5.87359">
        <ele>684.38</ele>
        <time>2021-07-09T16:47:40.000Z</time>
      </trkpt>
      <trkpt lat="45.18393" lon="5.87376">
        <ele>686.31</ele>
        <time>2021-07-09T16:47:45.000Z</time>
      </trkpt>
      <trkpt lat="45.18387" lon="5.87391">
        <ele>686.87</ele>
        <time>2021-07-09T16:47:50.000Z</time>
      </trkpt>
      <trkpt lat="45.18381" lon="5.87382">
        <ele>688.88</ele>
        <time>2021-07-09T16:48:05.000Z</time>
      </trkpt>
    </trkseg>
  </trk>
</gpx>